SHARE
TWEET

Ana rota

hasanyilmaz Apr 15th, 2020 137 Never
Not a member of Pastebin yet? Sign Up, it unlocks many cool features!
  1. <?xml version='1.0' encoding='UTF-8'?>
  2. <gpx version="1.1" creator="https://www.komoot.de" xmlns="http://www.topografix.com/GPX/1/1" xmlns:xsi="http://www.w3.org/2001/XMLSchema-instance" xsi:schemaLocation="http://www.topografix.com/GPX/1/1 http://www.topografix.com/GPX/1/1/gpx.xsd">
  3.   <metadata>
  4.     <name>07Likya Yolu - Lycian Way - 07 - Ozlen (Pydnai)-Letoon-Xanthos</name>
  5.     <author>
  6.       <link href="https://www.komoot.de">
  7.         <text>komoot</text>
  8.         <type>text/html</type>
  9.       </link>
  10.     </author>
  11.   </metadata>
  12.   <trk>
  13.     <name>07Likya Yolu - Lycian Way - 07 - Ozlen (Pydnai)-Letoon-Xanthos</name>
  14.     <trkseg>
  15.       <trkpt lat="36.328990" lon="29.226960">
  16.         <ele>23.991425</ele>
  17.         <time>2019-09-22T05:28:40.000Z</time>
  18.       </trkpt>
  19.       <trkpt lat="36.328900" lon="29.227040">
  20.         <ele>23.991425</ele>
  21.         <time>2019-09-22T05:28:51.000Z</time>
  22.       </trkpt>
  23.       <trkpt lat="36.328940" lon="29.227152">
  24.         <ele>23.991425</ele>
  25.         <time>2019-09-22T05:28:59.000Z</time>
  26.       </trkpt>
  27.       <trkpt lat="36.328980" lon="29.227260">
  28.         <ele>23.991425</ele>
  29.         <time>2019-09-22T05:29:07.000Z</time>
  30.       </trkpt>
  31.       <trkpt lat="36.329000" lon="29.227371">
  32.         <ele>23.991425</ele>
  33.         <time>2019-09-22T05:29:15.000Z</time>
  34.       </trkpt>
  35.       <trkpt lat="36.329002" lon="29.227482">
  36.         <ele>23.991425</ele>
  37.         <time>2019-09-22T05:29:22.000Z</time>
  38.       </trkpt>
  39.       <trkpt lat="36.329006" lon="29.227602">
  40.         <ele>23.991425</ele>
  41.         <time>2019-09-22T05:29:30.000Z</time>
  42.       </trkpt>
  43.       <trkpt lat="36.329002" lon="29.227722">
  44.         <ele>23.991425</ele>
  45.         <time>2019-09-22T05:29:38.000Z</time>
  46.       </trkpt>
  47.       <trkpt lat="36.329018" lon="29.227844">
  48.         <ele>23.991425</ele>
  49.         <time>2019-09-22T05:29:47.000Z</time>
  50.       </trkpt>
  51.       <trkpt lat="36.329030" lon="29.227959">
  52.         <ele>23.991425</ele>
  53.         <time>2019-09-22T05:29:55.000Z</time>
  54.       </trkpt>
  55.       <trkpt lat="36.329020" lon="29.228073">
  56.         <ele>23.963354</ele>
  57.         <time>2019-09-22T05:30:03.000Z</time>
  58.       </trkpt>
  59.       <trkpt lat="36.329014" lon="29.228184">
  60.         <ele>23.925129</ele>
  61.         <time>2019-09-22T05:30:10.000Z</time>
  62.       </trkpt>
  63.       <trkpt lat="36.329006" lon="29.228308">
  64.         <ele>23.882387</ele>
  65.         <time>2019-09-22T05:30:17.000Z</time>
  66.       </trkpt>
  67.       <trkpt lat="36.328990" lon="29.228420">
  68.         <ele>23.843305</ele>
  69.         <time>2019-09-22T05:30:23.000Z</time>
  70.       </trkpt>
  71.       <trkpt lat="36.328987" lon="29.228533">
  72.         <ele>23.804458</ele>
  73.         <time>2019-09-22T05:30:30.000Z</time>
  74.       </trkpt>
  75.       <trkpt lat="36.328980" lon="29.228653">
  76.         <ele>23.763119</ele>
  77.         <time>2019-09-22T05:30:37.000Z</time>
  78.       </trkpt>
  79.       <trkpt lat="36.328980" lon="29.228767">
  80.         <ele>23.723949</ele>
  81.         <time>2019-09-22T05:30:44.000Z</time>
  82.       </trkpt>
  83.       <trkpt lat="36.328970" lon="29.228888">
  84.         <ele>23.682156</ele>
  85.         <time>2019-09-22T05:31:01.000Z</time>
  86.       </trkpt>
  87.       <trkpt lat="36.328976" lon="29.229013">
  88.         <ele>23.639131</ele>
  89.         <time>2019-09-22T05:31:08.000Z</time>
  90.       </trkpt>
  91.       <trkpt lat="36.328980" lon="29.229126">
  92.         <ele>23.600268</ele>
  93.         <time>2019-09-22T05:31:15.000Z</time>
  94.       </trkpt>
  95.       <trkpt lat="36.328983" lon="29.229239">
  96.         <ele>23.561421</ele>
  97.         <time>2019-09-22T05:31:23.000Z</time>
  98.       </trkpt>
  99.       <trkpt lat="36.328987" lon="29.229355">
  100.         <ele>23.521528</ele>
  101.         <time>2019-09-22T05:31:30.000Z</time>
  102.       </trkpt>
  103.       <trkpt lat="36.328995" lon="29.229475">
  104.         <ele>23.480156</ele>
  105.         <time>2019-09-22T05:31:38.000Z</time>
  106.       </trkpt>
  107.       <trkpt lat="36.328995" lon="29.229586">
  108.         <ele>23.442017</ele>
  109.         <time>2019-09-22T05:31:44.000Z</time>
  110.       </trkpt>
  111.       <trkpt lat="36.328990" lon="29.229710">
  112.         <ele>23.399358</ele>
  113.         <time>2019-09-22T05:31:52.000Z</time>
  114.       </trkpt>
  115.       <trkpt lat="36.328987" lon="29.229822">
  116.         <ele>23.360854</ele>
  117.         <time>2019-09-22T05:32:00.000Z</time>
  118.       </trkpt>
  119.       <trkpt lat="36.328968" lon="29.229946">
  120.         <ele>23.317485</ele>
  121.         <time>2019-09-22T05:32:09.000Z</time>
  122.       </trkpt>
  123.       <trkpt lat="36.328938" lon="29.230055">
  124.         <ele>23.277908</ele>
  125.         <time>2019-09-22T05:32:17.000Z</time>
  126.       </trkpt>
  127.       <trkpt lat="36.328920" lon="29.230179">
  128.         <ele>23.234617</ele>
  129.         <time>2019-09-22T05:32:25.000Z</time>
  130.       </trkpt>
  131.       <trkpt lat="36.328907" lon="29.230297">
  132.         <ele>23.225368</ele>
  133.         <time>2019-09-22T05:32:32.000Z</time>
  134.       </trkpt>
  135.       <trkpt lat="36.328907" lon="29.230425">
  136.         <ele>23.226869</ele>
  137.         <time>2019-09-22T05:32:40.000Z</time>
  138.       </trkpt>
  139.       <trkpt lat="36.328920" lon="29.230540">
  140.         <ele>23.228231</ele>
  141.         <time>2019-09-22T05:32:47.000Z</time>
  142.       </trkpt>
  143.       <trkpt lat="36.328938" lon="29.230667">
  144.         <ele>23.229744</ele>
  145.         <time>2019-09-22T05:32:55.000Z</time>
  146.       </trkpt>
  147.       <trkpt lat="36.328953" lon="29.230782">
  148.         <ele>23.231110</ele>
  149.         <time>2019-09-22T05:33:02.000Z</time>
  150.       </trkpt>
  151.       <trkpt lat="36.328968" lon="29.230892">
  152.         <ele>23.232418</ele>
  153.         <time>2019-09-22T05:33:09.000Z</time>
  154.       </trkpt>
  155.       <trkpt lat="36.328995" lon="29.231009">
  156.         <ele>23.233846</ele>
  157.         <time>2019-09-22T05:33:17.000Z</time>
  158.       </trkpt>
  159.       <trkpt lat="36.329020" lon="29.231123">
  160.         <ele>23.235231</ele>
  161.         <time>2019-09-22T05:33:26.000Z</time>
  162.       </trkpt>
  163.       <trkpt lat="36.329050" lon="29.231237">
  164.         <ele>23.236638</ele>
  165.         <time>2019-09-22T05:33:33.000Z</time>
  166.       </trkpt>
  167.       <trkpt lat="36.329080" lon="29.231346">
  168.         <ele>23.237989</ele>
  169.         <time>2019-09-22T05:33:41.000Z</time>
  170.       </trkpt>
  171.       <trkpt lat="36.329117" lon="29.231462">
  172.         <ele>23.239452</ele>
  173.         <time>2019-09-22T05:33:48.000Z</time>
  174.       </trkpt>
  175.       <trkpt lat="36.329166" lon="29.231562">
  176.         <ele>23.240825</ele>
  177.         <time>2019-09-22T05:33:57.000Z</time>
  178.       </trkpt>
  179.       <trkpt lat="36.329212" lon="29.231663">
  180.         <ele>23.242185</ele>
  181.         <time>2019-09-22T05:34:05.000Z</time>
  182.       </trkpt>
  183.       <trkpt lat="36.329260" lon="29.231764">
  184.         <ele>23.243561</ele>
  185.         <time>2019-09-22T05:34:12.000Z</time>
  186.       </trkpt>
  187.       <trkpt lat="36.329320" lon="29.231869">
  188.         <ele>23.245070</ele>
  189.         <time>2019-09-22T05:34:21.000Z</time>
  190.       </trkpt>
  191.       <trkpt lat="36.329357" lon="29.231976">
  192.         <ele>23.246436</ele>
  193.         <time>2019-09-22T05:34:28.000Z</time>
  194.       </trkpt>
  195.       <trkpt lat="36.329400" lon="29.232077">
  196.         <ele>23.247776</ele>
  197.         <time>2019-09-22T05:34:34.000Z</time>
  198.       </trkpt>
  199.       <trkpt lat="36.329453" lon="29.232166">
  200.         <ele>23.249074</ele>
  201.         <time>2019-09-22T05:34:42.000Z</time>
  202.       </trkpt>
  203.       <trkpt lat="36.329494" lon="29.232265">
  204.         <ele>23.250379</ele>
  205.         <time>2019-09-22T05:34:49.000Z</time>
  206.       </trkpt>
  207.       <trkpt lat="36.329533" lon="29.232388">
  208.         <ele>23.265441</ele>
  209.         <time>2019-09-22T05:34:59.000Z</time>
  210.       </trkpt>
  211.       <trkpt lat="36.329563" lon="29.232500">
  212.         <ele>23.279971</ele>
  213.         <time>2019-09-22T05:35:05.000Z</time>
  214.       </trkpt>
  215.       <trkpt lat="36.329575" lon="29.232624">
  216.         <ele>23.295346</ele>
  217.         <time>2019-09-22T05:35:12.000Z</time>
  218.       </trkpt>
  219.       <trkpt lat="36.329567" lon="29.232748">
  220.         <ele>23.310660</ele>
  221.         <time>2019-09-22T05:35:21.000Z</time>
  222.       </trkpt>
  223.       <trkpt lat="36.329586" lon="29.232862">
  224.         <ele>23.324991</ele>
  225.         <time>2019-09-22T05:35:28.000Z</time>
  226.       </trkpt>
  227.       <trkpt lat="36.329594" lon="29.232979">
  228.         <ele>23.339446</ele>
  229.         <time>2019-09-22T05:35:36.000Z</time>
  230.       </trkpt>
  231.       <trkpt lat="36.329610" lon="29.233093">
  232.         <ele>23.353692</ele>
  233.         <time>2019-09-22T05:35:44.000Z</time>
  234.       </trkpt>
  235.       <trkpt lat="36.329620" lon="29.233215">
  236.         <ele>23.368788</ele>
  237.         <time>2019-09-22T05:35:51.000Z</time>
  238.       </trkpt>
  239.       <trkpt lat="36.329630" lon="29.233332">
  240.         <ele>23.383272</ele>
  241.         <time>2019-09-22T05:35:59.000Z</time>
  242.       </trkpt>
  243.       <trkpt lat="36.329647" lon="29.233456">
  244.         <ele>23.398757</ele>
  245.         <time>2019-09-22T05:36:07.000Z</time>
  246.       </trkpt>
  247.       <trkpt lat="36.329662" lon="29.233566">
  248.         <ele>23.412491</ele>
  249.         <time>2019-09-22T05:36:13.000Z</time>
  250.       </trkpt>
  251.       <trkpt lat="36.329685" lon="29.233679">
  252.         <ele>23.426839</ele>
  253.         <time>2019-09-22T05:36:21.000Z</time>
  254.       </trkpt>
  255.       <trkpt lat="36.329697" lon="29.233805">
  256.         <ele>23.442458</ele>
  257.         <time>2019-09-22T05:36:28.000Z</time>
  258.       </trkpt>
  259.       <trkpt lat="36.329710" lon="29.233925">
  260.         <ele>23.457364</ele>
  261.         <time>2019-09-22T05:36:36.000Z</time>
  262.       </trkpt>
  263.       <trkpt lat="36.329727" lon="29.234045">
  264.         <ele>23.472363</ele>
  265.         <time>2019-09-22T05:36:44.000Z</time>
  266.       </trkpt>
  267.       <trkpt lat="36.329740" lon="29.234170">
  268.         <ele>23.487879</ele>
  269.         <time>2019-09-22T05:36:51.000Z</time>
  270.       </trkpt>
  271.       <trkpt lat="36.329746" lon="29.234287">
  272.         <ele>23.502311</ele>
  273.         <time>2019-09-22T05:36:58.000Z</time>
  274.       </trkpt>
  275.       <trkpt lat="36.329765" lon="29.234407">
  276.         <ele>23.517366</ele>
  277.         <time>2019-09-22T05:37:05.000Z</time>
  278.       </trkpt>
  279.       <trkpt lat="36.329784" lon="29.234520">
  280.         <ele>23.530126</ele>
  281.         <time>2019-09-22T05:37:14.000Z</time>
  282.       </trkpt>
  283.       <trkpt lat="36.329796" lon="29.234646">
  284.         <ele>23.542104</ele>
  285.         <time>2019-09-22T05:37:24.000Z</time>
  286.       </trkpt>
  287.       <trkpt lat="36.329800" lon="29.234758">
  288.         <ele>23.552688</ele>
  289.         <time>2019-09-22T05:37:32.000Z</time>
  290.       </trkpt>
  291.       <trkpt lat="36.329810" lon="29.234888">
  292.         <ele>23.565016</ele>
  293.         <time>2019-09-22T05:37:40.000Z</time>
  294.       </trkpt>
  295.       <trkpt lat="36.329823" lon="29.235014">
  296.         <ele>23.577009</ele>
  297.         <time>2019-09-22T05:37:48.000Z</time>
  298.       </trkpt>
  299.       <trkpt lat="36.329834" lon="29.235136">
  300.         <ele>23.588598</ele>
  301.         <time>2019-09-22T05:37:55.000Z</time>
  302.       </trkpt>
  303.       <trkpt lat="36.329850" lon="29.235264">
  304.         <ele>23.600827</ele>
  305.         <time>2019-09-22T05:38:03.000Z</time>
  306.       </trkpt>
  307.       <trkpt lat="36.329860" lon="29.235386">
  308.         <ele>23.612404</ele>
  309.         <time>2019-09-22T05:38:11.000Z</time>
  310.       </trkpt>
  311.       <trkpt lat="36.329870" lon="29.235504">
  312.         <ele>23.623605</ele>
  313.         <time>2019-09-22T05:38:18.000Z</time>
  314.       </trkpt>
  315.       <trkpt lat="36.329876" lon="29.235632">
  316.         <ele>23.635709</ele>
  317.         <time>2019-09-22T05:38:26.000Z</time>
  318.       </trkpt>
  319.       <trkpt lat="36.329887" lon="29.235750">
  320.         <ele>23.646924</ele>
  321.         <time>2019-09-22T05:38:34.000Z</time>
  322.       </trkpt>
  323.       <trkpt lat="36.329890" lon="29.235874">
  324.         <ele>23.658635</ele>
  325.         <time>2019-09-22T05:38:42.000Z</time>
  326.       </trkpt>
  327.       <trkpt lat="36.329900" lon="29.235989">
  328.         <ele>23.669555</ele>
  329.         <time>2019-09-22T05:38:50.000Z</time>
  330.       </trkpt>
  331.       <trkpt lat="36.329906" lon="29.236105">
  332.         <ele>23.680529</ele>
  333.         <time>2019-09-22T05:38:57.000Z</time>
  334.       </trkpt>
  335.       <trkpt lat="36.329914" lon="29.236225">
  336.         <ele>23.691896</ele>
  337.         <time>2019-09-22T05:39:05.000Z</time>
  338.       </trkpt>
  339.       <trkpt lat="36.329920" lon="29.236343">
  340.         <ele>23.703058</ele>
  341.         <time>2019-09-22T05:39:13.000Z</time>
  342.       </trkpt>
  343.       <trkpt lat="36.329933" lon="29.236464">
  344.         <ele>23.714582</ele>
  345.         <time>2019-09-22T05:39:20.000Z</time>
  346.       </trkpt>
  347.       <trkpt lat="36.329937" lon="29.236580">
  348.         <ele>23.725543</ele>
  349.         <time>2019-09-22T05:39:27.000Z</time>
  350.       </trkpt>
  351.       <trkpt lat="36.329945" lon="29.236700">
  352.         <ele>23.730276</ele>
  353.         <time>2019-09-22T05:39:34.000Z</time>
  354.       </trkpt>
  355.       <trkpt lat="36.329956" lon="29.236816">
  356.         <ele>23.648145</ele>
  357.         <time>2019-09-22T05:39:41.000Z</time>
  358.       </trkpt>
  359.       <trkpt lat="36.329970" lon="29.236933">
  360.         <ele>23.564970</ele>
  361.         <time>2019-09-22T05:39:48.000Z</time>
  362.       </trkpt>
  363.       <trkpt lat="36.329980" lon="29.237045">
  364.         <ele>23.485732</ele>
  365.         <time>2019-09-22T05:39:55.000Z</time>
  366.       </trkpt>
  367.       <trkpt lat="36.329983" lon="29.237160">
  368.         <ele>23.404824</ele>
  369.         <time>2019-09-22T05:40:03.000Z</time>
  370.       </trkpt>
  371.       <trkpt lat="36.329987" lon="29.237278">
  372.         <ele>23.321776</ele>
  373.         <time>2019-09-22T05:40:11.000Z</time>
  374.       </trkpt>
  375.       <trkpt lat="36.329987" lon="29.237398">
  376.         <ele>23.237395</ele>
  377.         <time>2019-09-22T05:40:24.000Z</time>
  378.       </trkpt>
  379.       <trkpt lat="36.329990" lon="29.237513">
  380.         <ele>23.156487</ele>
  381.         <time>2019-09-22T05:40:31.000Z</time>
  382.       </trkpt>
  383.       <trkpt lat="36.329987" lon="29.237630">
  384.         <ele>23.074174</ele>
  385.         <time>2019-09-22T05:40:39.000Z</time>
  386.       </trkpt>
  387.       <trkpt lat="36.329990" lon="29.237755">
  388.         <ele>22.986238</ele>
  389.         <time>2019-09-22T05:40:47.000Z</time>
  390.       </trkpt>
  391.       <trkpt lat="36.330013" lon="29.237873">
  392.         <ele>22.900869</ele>
  393.         <time>2019-09-22T05:40:55.000Z</time>
  394.       </trkpt>
  395.       <trkpt lat="36.329945" lon="29.237947">
  396.         <ele>22.821936</ele>
  397.         <time>2019-09-22T05:41:17.000Z</time>
  398.       </trkpt>
  399.       <trkpt lat="36.329857" lon="29.237890">
  400.         <ele>22.735297</ele>
  401.         <time>2019-09-22T05:41:29.000Z</time>
  402.       </trkpt>
  403.       <trkpt lat="36.329773" lon="29.237818">
  404.         <ele>22.646196</ele>
  405.         <time>2019-09-22T05:41:37.000Z</time>
  406.       </trkpt>
  407.       <trkpt lat="36.329685" lon="29.237759">
  408.         <ele>22.558898</ele>
  409.         <time>2019-09-22T05:41:45.000Z</time>
  410.       </trkpt>
  411.       <trkpt lat="36.329600" lon="29.237696">
  412.         <ele>22.472487</ele>
  413.         <time>2019-09-22T05:41:53.000Z</time>
  414.       </trkpt>
  415.       <trkpt lat="36.329510" lon="29.237667">
  416.         <ele>22.391327</ele>
  417.         <time>2019-09-22T05:42:03.000Z</time>
  418.       </trkpt>
  419.       <trkpt lat="36.329437" lon="29.237587">
  420.         <ele>22.306330</ele>
  421.         <time>2019-09-22T05:42:12.000Z</time>
  422.       </trkpt>
  423.       <trkpt lat="36.329340" lon="29.237590">
  424.         <ele>22.221638</ele>
  425.         <time>2019-09-22T05:42:20.000Z</time>
  426.       </trkpt>
  427.       <trkpt lat="36.329254" lon="29.237627">
  428.         <ele>22.165494</ele>
  429.         <time>2019-09-22T05:42:28.000Z</time>
  430.       </trkpt>
  431.       <trkpt lat="36.329155" lon="29.237644">
  432.         <ele>22.162945</ele>
  433.         <time>2019-09-22T05:42:36.000Z</time>
  434.       </trkpt>
  435.       <trkpt lat="36.329063" lon="29.237608">
  436.         <ele>22.160484</ele>
  437.         <time>2019-09-22T05:42:43.000Z</time>
  438.       </trkpt>
  439.       <trkpt lat="36.328968" lon="29.237570">
  440.         <ele>22.157938</ele>
  441.         <time>2019-09-22T05:42:52.000Z</time>
  442.       </trkpt>
  443.       <trkpt lat="36.328876" lon="29.237545">
  444.         <ele>22.155536</ele>
  445.         <time>2019-09-22T05:43:00.000Z</time>
  446.       </trkpt>
  447.       <trkpt lat="36.328785" lon="29.237524">
  448.         <ele>22.153175</ele>
  449.         <time>2019-09-22T05:43:07.000Z</time>
  450.       </trkpt>
  451.       <trkpt lat="36.328690" lon="29.237530">
  452.         <ele>22.150748</ele>
  453.         <time>2019-09-22T05:43:15.000Z</time>
  454.       </trkpt>
  455.       <trkpt lat="36.328590" lon="29.237534">
  456.         <ele>22.148196</ele>
  457.         <time>2019-09-22T05:43:23.000Z</time>
  458.       </trkpt>
  459.       <trkpt lat="36.328500" lon="29.237528">
  460.         <ele>22.145897</ele>
  461.         <time>2019-09-22T05:43:30.000Z</time>
  462.       </trkpt>
  463.       <trkpt lat="36.328403" lon="29.237513">
  464.         <ele>22.143403</ele>
  465.         <time>2019-09-22T05:43:38.000Z</time>
  466.       </trkpt>
  467.       <trkpt lat="36.328312" lon="29.237541">
  468.         <ele>22.141012</ele>
  469.         <time>2019-09-22T05:43:46.000Z</time>
  470.       </trkpt>
  471.       <trkpt lat="36.328262" lon="29.237642">
  472.         <ele>22.138576</ele>
  473.         <time>2019-09-22T05:43:54.000Z</time>
  474.       </trkpt>
  475.       <trkpt lat="36.328213" lon="29.237743">
  476.         <ele>22.136153</ele>
  477.         <time>2019-09-22T05:44:02.000Z</time>
  478.       </trkpt>
  479.       <trkpt lat="36.328180" lon="29.237848">
  480.         <ele>22.133837</ele>
  481.         <time>2019-09-22T05:44:09.000Z</time>
  482.       </trkpt>
  483.       <trkpt lat="36.328140" lon="29.237960">
  484.         <ele>22.131319</ele>
  485.         <time>2019-09-22T05:44:17.000Z</time>
  486.       </trkpt>
  487.       <trkpt lat="36.328102" lon="29.238071">
  488.         <ele>22.128841</ele>
  489.         <time>2019-09-22T05:44:25.000Z</time>
  490.       </trkpt>
  491.       <trkpt lat="36.328010" lon="29.238268">
  492.         <ele>22.124161</ele>
  493.         <time>2019-09-22T05:45:02.000Z</time>
  494.       </trkpt>
  495.       <trkpt lat="36.327957" lon="29.238370">
  496.         <ele>22.121667</ele>
  497.         <time>2019-09-22T05:45:08.000Z</time>
  498.       </trkpt>
  499.       <trkpt lat="36.327900" lon="29.238480">
  500.         <ele>22.148151</ele>
  501.         <time>2019-09-22T05:45:15.000Z</time>
  502.       </trkpt>
  503.       <trkpt lat="36.327847" lon="29.238577">
  504.         <ele>22.198337</ele>
  505.         <time>2019-09-22T05:45:23.000Z</time>
  506.       </trkpt>
  507.       <trkpt lat="36.327793" lon="29.238672">
  508.         <ele>22.248121</ele>
  509.         <time>2019-09-22T05:45:30.000Z</time>
  510.       </trkpt>
  511.       <trkpt lat="36.327736" lon="29.238770">
  512.         <ele>22.299877</ele>
  513.         <time>2019-09-22T05:45:37.000Z</time>
  514.       </trkpt>
  515.       <trkpt lat="36.327682" lon="29.238865">
  516.         <ele>22.349661</ele>
  517.         <time>2019-09-22T05:45:44.000Z</time>
  518.       </trkpt>
  519.       <trkpt lat="36.327618" lon="29.238968">
  520.         <ele>22.405359</ele>
  521.         <time>2019-09-22T05:45:51.000Z</time>
  522.       </trkpt>
  523.       <trkpt lat="36.327564" lon="29.239067">
  524.         <ele>22.456552</ele>
  525.         <time>2019-09-22T05:45:58.000Z</time>
  526.       </trkpt>
  527.       <trkpt lat="36.327503" lon="29.239164">
  528.         <ele>22.509242</ele>
  529.         <time>2019-09-22T05:46:06.000Z</time>
  530.       </trkpt>
  531.       <trkpt lat="36.327440" lon="29.239256">
  532.         <ele>22.560944</ele>
  533.         <time>2019-09-22T05:46:14.000Z</time>
  534.       </trkpt>
  535.       <trkpt lat="36.327380" lon="29.239344">
  536.         <ele>22.610308</ele>
  537.         <time>2019-09-22T05:46:21.000Z</time>
  538.       </trkpt>
  539.       <trkpt lat="36.327320" lon="29.239437">
  540.         <ele>22.661325</ele>
  541.         <time>2019-09-22T05:46:28.000Z</time>
  542.       </trkpt>
  543.       <trkpt lat="36.327267" lon="29.239538">
  544.         <ele>22.712938</ele>
  545.         <time>2019-09-22T05:46:36.000Z</time>
  546.       </trkpt>
  547.       <trkpt lat="36.327220" lon="29.239647">
  548.         <ele>22.765876</ele>
  549.         <time>2019-09-22T05:46:44.000Z</time>
  550.       </trkpt>
  551.       <trkpt lat="36.327187" lon="29.239761">
  552.         <ele>22.817745</ele>
  553.         <time>2019-09-22T05:46:52.000Z</time>
  554.       </trkpt>
  555.       <trkpt lat="36.327160" lon="29.239870">
  556.         <ele>22.866575</ele>
  557.         <time>2019-09-22T05:46:59.000Z</time>
  558.       </trkpt>
  559.       <trkpt lat="36.327100" lon="29.239979">
  560.         <ele>22.923102</ele>
  561.         <time>2019-09-22T05:47:06.000Z</time>
  562.       </trkpt>
  563.       <trkpt lat="36.327080" lon="29.240090">
  564.         <ele>22.971806</ele>
  565.         <time>2019-09-22T05:47:13.000Z</time>
  566.       </trkpt>
  567.       <trkpt lat="36.327053" lon="29.240202">
  568.         <ele>23.021865</ele>
  569.         <time>2019-09-22T05:47:23.000Z</time>
  570.       </trkpt>
  571.       <trkpt lat="36.327026" lon="29.240318">
  572.         <ele>23.073568</ele>
  573.         <time>2019-09-22T05:47:41.000Z</time>
  574.       </trkpt>
  575.       <trkpt lat="36.326996" lon="29.240427">
  576.         <ele>23.038383</ele>
  577.         <time>2019-09-22T05:47:49.000Z</time>
  578.       </trkpt>
  579.       <trkpt lat="36.326960" lon="29.240536">
  580.         <ele>22.997366</ele>
  581.         <time>2019-09-22T05:47:57.000Z</time>
  582.       </trkpt>
  583.       <trkpt lat="36.326927" lon="29.240644">
  584.         <ele>22.957148</ele>
  585.         <time>2019-09-22T05:48:05.000Z</time>
  586.       </trkpt>
  587.       <trkpt lat="36.326910" lon="29.240753">
  588.         <ele>22.918492</ele>
  589.         <time>2019-09-22T05:48:13.000Z</time>
  590.       </trkpt>
  591.       <trkpt lat="36.326890" lon="29.240875">
  592.         <ele>22.875143</ele>
  593.         <time>2019-09-22T05:48:20.000Z</time>
  594.       </trkpt>
  595.       <trkpt lat="36.326878" lon="29.240988">
  596.         <ele>22.835458</ele>
  597.         <time>2019-09-22T05:48:27.000Z</time>
  598.       </trkpt>
  599.       <trkpt lat="36.326866" lon="29.241102">
  600.         <ele>22.795428</ele>
  601.         <time>2019-09-22T05:48:33.000Z</time>
  602.       </trkpt>
  603.       <trkpt lat="36.326847" lon="29.241220">
  604.         <ele>22.753530</ele>
  605.         <time>2019-09-22T05:48:40.000Z</time>
  606.       </trkpt>
  607.       <trkpt lat="36.326824" lon="29.241343">
  608.         <ele>22.709565</ele>
  609.         <time>2019-09-22T05:48:49.000Z</time>
  610.       </trkpt>
  611.       <trkpt lat="36.326813" lon="29.241455">
  612.         <ele>22.670280</ele>
  613.         <time>2019-09-22T05:48:56.000Z</time>
  614.       </trkpt>
  615.       <trkpt lat="36.326794" lon="29.241580">
  616.         <ele>22.625989</ele>
  617.         <time>2019-09-22T05:49:03.000Z</time>
  618.       </trkpt>
  619.       <trkpt lat="36.326780" lon="29.241700">
  620.         <ele>22.583771</ele>
  621.         <time>2019-09-22T05:49:10.000Z</time>
  622.       </trkpt>
  623.       <trkpt lat="36.326790" lon="29.241816">
  624.         <ele>22.543151</ele>
  625.         <time>2019-09-22T05:49:18.000Z</time>
  626.       </trkpt>
  627.       <trkpt lat="36.326763" lon="29.241924">
  628.         <ele>22.503779</ele>
  629.         <time>2019-09-22T05:49:25.000Z</time>
  630.       </trkpt>
  631.       <trkpt lat="36.326736" lon="29.242043">
  632.         <ele>22.460733</ele>
  633.         <time>2019-09-22T05:49:31.000Z</time>
  634.       </trkpt>
  635.       <trkpt lat="36.326706" lon="29.242163">
  636.         <ele>22.416986</ele>
  637.         <time>2019-09-22T05:49:41.000Z</time>
  638.       </trkpt>
  639.       <trkpt lat="36.326700" lon="29.242287">
  640.         <ele>22.373733</ele>
  641.         <time>2019-09-22T05:49:47.000Z</time>
  642.       </trkpt>
  643.       <trkpt lat="36.326694" lon="29.242401">
  644.         <ele>22.333955</ele>
  645.         <time>2019-09-22T05:49:57.000Z</time>
  646.       </trkpt>
  647.       <trkpt lat="36.326683" lon="29.242514">
  648.         <ele>22.296923</ele>
  649.         <time>2019-09-22T05:50:04.000Z</time>
  650.       </trkpt>
  651.       <trkpt lat="36.326653" lon="29.242622">
  652.         <ele>22.279492</ele>
  653.         <time>2019-09-22T05:50:12.000Z</time>
  654.       </trkpt>
  655.       <trkpt lat="36.326614" lon="29.242758">
  656.         <ele>22.257464</ele>
  657.         <time>2019-09-22T05:50:18.000Z</time>
  658.       </trkpt>
  659.       <trkpt lat="36.326588" lon="29.242868">
  660.         <ele>22.239972</ele>
  661.         <time>2019-09-22T05:50:24.000Z</time>
  662.       </trkpt>
  663.       <trkpt lat="36.326540" lon="29.242989">
  664.         <ele>22.219392</ele>
  665.         <time>2019-09-22T05:50:33.000Z</time>
  666.       </trkpt>
  667.       <trkpt lat="36.326515" lon="29.243095">
  668.         <ele>22.202539</ele>
  669.         <time>2019-09-22T05:50:40.000Z</time>
  670.       </trkpt>
  671.       <trkpt lat="36.326485" lon="29.243210">
  672.         <ele>22.184094</ele>
  673.         <time>2019-09-22T05:50:47.000Z</time>
  674.       </trkpt>
  675.       <trkpt lat="36.326477" lon="29.243341">
  676.         <ele>22.164048</ele>
  677.         <time>2019-09-22T05:50:57.000Z</time>
  678.       </trkpt>
  679.       <trkpt lat="36.326443" lon="29.243454">
  680.         <ele>22.145642</ele>
  681.         <time>2019-09-22T05:51:04.000Z</time>
  682.       </trkpt>
  683.       <trkpt lat="36.326458" lon="29.243572">
  684.         <ele>22.127414</ele>
  685.         <time>2019-09-22T05:51:31.000Z</time>
  686.       </trkpt>
  687.       <trkpt lat="36.326447" lon="29.243690">
  688.         <ele>22.109288</ele>
  689.         <time>2019-09-22T05:51:39.000Z</time>
  690.       </trkpt>
  691.       <trkpt lat="36.326443" lon="29.243801">
  692.         <ele>22.092334</ele>
  693.         <time>2019-09-22T05:51:47.000Z</time>
  694.       </trkpt>
  695.       <trkpt lat="36.326430" lon="29.243925">
  696.         <ele>22.073253</ele>
  697.         <time>2019-09-22T05:51:56.000Z</time>
  698.       </trkpt>
  699.       <trkpt lat="36.326424" lon="29.244050">
  700.         <ele>22.054146</ele>
  701.         <time>2019-09-22T05:52:03.000Z</time>
  702.       </trkpt>
  703.       <trkpt lat="36.326424" lon="29.244175">
  704.         <ele>22.035072</ele>
  705.         <time>2019-09-22T05:52:10.000Z</time>
  706.       </trkpt>
  707.       <trkpt lat="36.326410" lon="29.244291">
  708.         <ele>22.017174</ele>
  709.         <time>2019-09-22T05:52:17.000Z</time>
  710.       </trkpt>
  711.       <trkpt lat="36.326397" lon="29.244404">
  712.         <ele>21.999757</ele>
  713.         <time>2019-09-22T05:52:24.000Z</time>
  714.       </trkpt>
  715.       <trkpt lat="36.326385" lon="29.244526">
  716.         <ele>21.981003</ele>
  717.         <time>2019-09-22T05:52:32.000Z</time>
  718.       </trkpt>
  719.       <trkpt lat="36.326366" lon="29.244660">
  720.         <ele>21.960242</ele>
  721.         <time>2019-09-22T05:52:38.000Z</time>
  722.       </trkpt>
  723.       <trkpt lat="36.326350" lon="29.244770">
  724.         <ele>21.914958</ele>
  725.         <time>2019-09-22T05:52:46.000Z</time>
  726.       </trkpt>
  727.       <trkpt lat="36.326324" lon="29.244883">
  728.         <ele>21.863521</ele>
  729.         <time>2019-09-22T05:52:53.000Z</time>
  730.       </trkpt>
  731.       <trkpt lat="36.326313" lon="29.245000">
  732.         <ele>21.811963</ele>
  733.         <time>2019-09-22T05:53:01.000Z</time>
  734.       </trkpt>
  735.       <trkpt lat="36.326324" lon="29.245123">
  736.         <ele>21.757796</ele>
  737.         <time>2019-09-22T05:53:08.000Z</time>
  738.       </trkpt>
  739.       <trkpt lat="36.326336" lon="29.245237">
  740.         <ele>21.707474</ele>
  741.         <time>2019-09-22T05:53:15.000Z</time>
  742.       </trkpt>
  743.       <trkpt lat="36.326324" lon="29.245352">
  744.         <ele>21.656719</ele>
  745.         <time>2019-09-22T05:53:24.000Z</time>
  746.       </trkpt>
  747.       <trkpt lat="36.326317" lon="29.245472">
  748.         <ele>21.604058</ele>
  749.         <time>2019-09-22T05:53:31.000Z</time>
  750.       </trkpt>
  751.       <trkpt lat="36.326330" lon="29.245586">
  752.         <ele>21.553663</ele>
  753.         <time>2019-09-22T05:53:39.000Z</time>
  754.       </trkpt>
  755.       <trkpt lat="36.326330" lon="29.245787">
  756.         <ele>21.465686</ele>
  757.         <time>2019-09-22T05:55:26.000Z</time>
  758.       </trkpt>
  759.       <trkpt lat="36.326317" lon="29.245901">
  760.         <ele>21.415291</ele>
  761.         <time>2019-09-22T05:55:33.000Z</time>
  762.       </trkpt>
  763.       <trkpt lat="36.326313" lon="29.246020">
  764.         <ele>21.363160</ele>
  765.         <time>2019-09-22T05:55:39.000Z</time>
  766.       </trkpt>
  767.       <trkpt lat="36.326317" lon="29.246141">
  768.         <ele>21.310154</ele>
  769.         <time>2019-09-22T05:55:46.000Z</time>
  770.       </trkpt>
  771.       <trkpt lat="36.326324" lon="29.246260">
  772.         <ele>21.257930</ele>
  773.         <time>2019-09-22T05:55:52.000Z</time>
  774.       </trkpt>
  775.       <trkpt lat="36.326317" lon="29.246378">
  776.         <ele>21.206142</ele>
  777.         <time>2019-09-22T05:55:59.000Z</time>
  778.       </trkpt>
  779.       <trkpt lat="36.326336" lon="29.246492">
  780.         <ele>21.155188</ele>
  781.         <time>2019-09-22T05:56:08.000Z</time>
  782.       </trkpt>
  783.       <trkpt lat="36.326350" lon="29.246609">
  784.         <ele>21.103416</ele>
  785.         <time>2019-09-22T05:56:15.000Z</time>
  786.       </trkpt>
  787.       <trkpt lat="36.326380" lon="29.246727">
  788.         <ele>21.049257</ele>
  789.         <time>2019-09-22T05:56:24.000Z</time>
  790.       </trkpt>
  791.       <trkpt lat="36.326405" lon="29.246845">
  792.         <ele>20.995853</ele>
  793.         <time>2019-09-22T05:56:30.000Z</time>
  794.       </trkpt>
  795.       <trkpt lat="36.326410" lon="29.246970">
  796.         <ele>21.027286</ele>
  797.         <time>2019-09-22T05:56:35.000Z</time>
  798.       </trkpt>
  799.       <trkpt lat="36.326410" lon="29.247082">
  800.         <ele>21.083782</ele>
  801.         <time>2019-09-22T05:56:43.000Z</time>
  802.       </trkpt>
  803.       <trkpt lat="36.326412" lon="29.247208">
  804.         <ele>21.147352</ele>
  805.         <time>2019-09-22T05:56:52.000Z</time>
  806.       </trkpt>
  807.       <trkpt lat="36.326420" lon="29.247326">
  808.         <ele>21.207085</ele>
  809.         <time>2019-09-22T05:56:59.000Z</time>
  810.       </trkpt>
  811.       <trkpt lat="36.326420" lon="29.247444">
  812.         <ele>21.266608</ele>
  813.         <time>2019-09-22T05:57:07.000Z</time>
  814.       </trkpt>
  815.       <trkpt lat="36.326416" lon="29.247560">
  816.         <ele>21.325175</ele>
  817.         <time>2019-09-22T05:57:13.000Z</time>
  818.       </trkpt>
  819.       <trkpt lat="36.326424" lon="29.247679">
  820.         <ele>21.385410</ele>
  821.         <time>2019-09-22T05:57:20.000Z</time>
  822.       </trkpt>
  823.       <trkpt lat="36.326430" lon="29.247799">
  824.         <ele>21.446058</ele>
  825.         <time>2019-09-22T05:57:27.000Z</time>
  826.       </trkpt>
  827.       <trkpt lat="36.326420" lon="29.247915">
  828.         <ele>21.504906</ele>
  829.         <time>2019-09-22T05:57:36.000Z</time>
  830.       </trkpt>
  831.       <trkpt lat="36.326410" lon="29.248045">
  832.         <ele>21.570779</ele>
  833.         <time>2019-09-22T05:57:44.000Z</time>
  834.       </trkpt>
  835.       <trkpt lat="36.326390" lon="29.248170">
  836.         <ele>21.635064</ele>
  837.         <time>2019-09-22T05:57:51.000Z</time>
  838.       </trkpt>
  839.       <trkpt lat="36.326385" lon="29.248285">
  840.         <ele>21.693158</ele>
  841.         <time>2019-09-22T05:57:58.000Z</time>
  842.       </trkpt>
  843.       <trkpt lat="36.326350" lon="29.248400">
  844.         <ele>21.755168</ele>
  845.         <time>2019-09-22T05:58:07.000Z</time>
  846.       </trkpt>
  847.       <trkpt lat="36.326330" lon="29.248522">
  848.         <ele>21.817969</ele>
  849.         <time>2019-09-22T05:58:15.000Z</time>
  850.       </trkpt>
  851.       <trkpt lat="36.326320" lon="29.248644">
  852.         <ele>21.879827</ele>
  853.         <time>2019-09-22T05:58:24.000Z</time>
  854.       </trkpt>
  855.       <trkpt lat="36.326313" lon="29.248766">
  856.         <ele>21.941523</ele>
  857.         <time>2019-09-22T05:58:32.000Z</time>
  858.       </trkpt>
  859.       <trkpt lat="36.326305" lon="29.248888">
  860.         <ele>22.003267</ele>
  861.         <time>2019-09-22T05:58:40.000Z</time>
  862.       </trkpt>
  863.       <trkpt lat="36.326286" lon="29.249006">
  864.         <ele>22.063966</ele>
  865.         <time>2019-09-22T05:58:47.000Z</time>
  866.       </trkpt>
  867.       <trkpt lat="36.326270" lon="29.249130">
  868.         <ele>22.107458</ele>
  869.         <time>2019-09-22T05:58:56.000Z</time>
  870.       </trkpt>
  871.       <trkpt lat="36.326263" lon="29.249247">
  872.         <ele>22.108010</ele>
  873.         <time>2019-09-22T05:59:02.000Z</time>
  874.       </trkpt>
  875.       <trkpt lat="36.326267" lon="29.249357">
  876.         <ele>22.108528</ele>
  877.         <time>2019-09-22T05:59:09.000Z</time>
  878.       </trkpt>
  879.       <trkpt lat="36.326252" lon="29.249477">
  880.         <ele>22.109099</ele>
  881.         <time>2019-09-22T05:59:18.000Z</time>
  882.       </trkpt>
  883.       <trkpt lat="36.326250" lon="29.249601">
  884.         <ele>22.109682</ele>
  885.         <time>2019-09-22T05:59:26.000Z</time>
  886.       </trkpt>
  887.       <trkpt lat="36.326233" lon="29.249716">
  888.         <ele>22.110232</ele>
  889.         <time>2019-09-22T05:59:33.000Z</time>
  890.       </trkpt>
  891.       <trkpt lat="36.326218" lon="29.249857">
  892.         <ele>22.110901</ele>
  893.         <time>2019-09-22T05:59:41.000Z</time>
  894.       </trkpt>
  895.       <trkpt lat="36.326183" lon="29.249970">
  896.         <ele>22.111470</ele>
  897.         <time>2019-09-22T05:59:48.000Z</time>
  898.       </trkpt>
  899.       <trkpt lat="36.326164" lon="29.250082">
  900.         <ele>22.112009</ele>
  901.         <time>2019-09-22T05:59:56.000Z</time>
  902.       </trkpt>
  903.       <trkpt lat="36.326150" lon="29.250198">
  904.         <ele>22.112560</ele>
  905.         <time>2019-09-22T06:00:04.000Z</time>
  906.       </trkpt>
  907.       <trkpt lat="36.326138" lon="29.250310">
  908.         <ele>22.113092</ele>
  909.         <time>2019-09-22T06:00:12.000Z</time>
  910.       </trkpt>
  911.       <trkpt lat="36.326110" lon="29.250427">
  912.         <ele>22.113666</ele>
  913.         <time>2019-09-22T06:00:19.000Z</time>
  914.       </trkpt>
  915.       <trkpt lat="36.326100" lon="29.250542">
  916.         <ele>22.114210</ele>
  917.         <time>2019-09-22T06:00:27.000Z</time>
  918.       </trkpt>
  919.       <trkpt lat="36.326060" lon="29.250652">
  920.         <ele>22.114777</ele>
  921.         <time>2019-09-22T06:00:33.000Z</time>
  922.       </trkpt>
  923.       <trkpt lat="36.326040" lon="29.250767">
  924.         <ele>22.115331</ele>
  925.         <time>2019-09-22T06:00:41.000Z</time>
  926.       </trkpt>
  927.       <trkpt lat="36.326008" lon="29.250889">
  928.         <ele>22.115934</ele>
  929.         <time>2019-09-22T06:00:48.000Z</time>
  930.       </trkpt>
  931.       <trkpt lat="36.325980" lon="29.250996">
  932.         <ele>22.116463</ele>
  933.         <time>2019-09-22T06:00:53.000Z</time>
  934.       </trkpt>
  935.       <trkpt lat="36.325962" lon="29.251106">
  936.         <ele>22.116991</ele>
  937.         <time>2019-09-22T06:01:00.000Z</time>
  938.       </trkpt>
  939.       <trkpt lat="36.325960" lon="29.251225">
  940.         <ele>22.117551</ele>
  941.         <time>2019-09-22T06:01:07.000Z</time>
  942.       </trkpt>
  943.       <trkpt lat="36.325954" lon="29.251339">
  944.         <ele>22.071469</ele>
  945.         <time>2019-09-22T06:01:15.000Z</time>
  946.       </trkpt>
  947.       <trkpt lat="36.325947" lon="29.251455">
  948.         <ele>21.991590</ele>
  949.         <time>2019-09-22T06:01:21.000Z</time>
  950.       </trkpt>
  951.       <trkpt lat="36.325962" lon="29.251577">
  952.         <ele>21.906845</ele>
  953.         <time>2019-09-22T06:01:28.000Z</time>
  954.       </trkpt>
  955.       <trkpt lat="36.325962" lon="29.251690">
  956.         <ele>21.829250</ele>
  957.         <time>2019-09-22T06:01:37.000Z</time>
  958.       </trkpt>
  959.       <trkpt lat="36.325954" lon="29.251800">
  960.         <ele>21.753408</ele>
  961.         <time>2019-09-22T06:01:44.000Z</time>
  962.       </trkpt>
  963.       <trkpt lat="36.325943" lon="29.251920">
  964.         <ele>21.670475</ele>
  965.         <time>2019-09-22T06:01:51.000Z</time>
  966.       </trkpt>
  967.       <trkpt lat="36.325930" lon="29.252043">
  968.         <ele>21.585289</ele>
  969.         <time>2019-09-22T06:02:01.000Z</time>
  970.       </trkpt>
  971.       <trkpt lat="36.325920" lon="29.252153">
  972.         <ele>21.509275</ele>
  973.         <time>2019-09-22T06:02:08.000Z</time>
  974.       </trkpt>
  975.       <trkpt lat="36.325905" lon="29.252272">
  976.         <ele>21.426565</ele>
  977.         <time>2019-09-22T06:02:16.000Z</time>
  978.       </trkpt>
  979.       <trkpt lat="36.325882" lon="29.252390">
  980.         <ele>21.343199</ele>
  981.         <time>2019-09-22T06:02:24.000Z</time>
  982.       </trkpt>
  983.       <trkpt lat="36.325867" lon="29.252510">
  984.         <ele>21.259811</ele>
  985.         <time>2019-09-22T06:02:32.000Z</time>
  986.       </trkpt>
  987.       <trkpt lat="36.325832" lon="29.252619">
  988.         <ele>21.179237</ele>
  989.         <time>2019-09-22T06:02:39.000Z</time>
  990.       </trkpt>
  991.       <trkpt lat="36.325798" lon="29.252726">
  992.         <ele>21.100254</ele>
  993.         <time>2019-09-22T06:02:46.000Z</time>
  994.       </trkpt>
  995.       <trkpt lat="36.325775" lon="29.252848">
  996.         <ele>21.014216</ele>
  997.         <time>2019-09-22T06:02:54.000Z</time>
  998.       </trkpt>
  999.       <trkpt lat="36.325745" lon="29.252966">
  1000.         <ele>20.929248</ele>
  1001.         <time>2019-09-22T06:03:03.000Z</time>
  1002.       </trkpt>
  1003.       <trkpt lat="36.325737" lon="29.253088">
  1004.         <ele>20.845196</ele>
  1005.         <time>2019-09-22T06:03:16.000Z</time>
  1006.       </trkpt>
  1007.       <trkpt lat="36.325706" lon="29.253206">
  1008.         <ele>20.759968</ele>
  1009.         <time>2019-09-22T06:03:24.000Z</time>
  1010.       </trkpt>
  1011.       <trkpt lat="36.325687" lon="29.253332">
  1012.         <ele>20.671944</ele>
  1013.         <time>2019-09-22T06:03:30.000Z</time>
  1014.       </trkpt>
  1015.       <trkpt lat="36.325680" lon="29.253445">
  1016.         <ele>20.594119</ele>
  1017.         <time>2019-09-22T06:03:36.000Z</time>
  1018.       </trkpt>
  1019.       <trkpt lat="36.325653" lon="29.253565">
  1020.         <ele>20.710788</ele>
  1021.         <time>2019-09-22T06:03:44.000Z</time>
  1022.       </trkpt>
  1023.       <trkpt lat="36.325645" lon="29.253698">
  1024.         <ele>20.862304</ele>
  1025.         <time>2019-09-22T06:03:52.000Z</time>
  1026.       </trkpt>
  1027.       <trkpt lat="36.325630" lon="29.253815">
  1028.         <ele>20.996895</ele>
  1029.         <time>2019-09-22T06:04:00.000Z</time>
  1030.       </trkpt>
  1031.       <trkpt lat="36.325615" lon="29.253933">
  1032.         <ele>21.132609</ele>
  1033.         <time>2019-09-22T06:04:07.000Z</time>
  1034.       </trkpt>
  1035.       <trkpt lat="36.325603" lon="29.254059">
  1036.         <ele>21.276749</ele>
  1037.         <time>2019-09-22T06:04:15.000Z</time>
  1038.       </trkpt>
  1039.       <trkpt lat="36.325610" lon="29.254179">
  1040.         <ele>21.413433</ele>
  1041.         <time>2019-09-22T06:04:22.000Z</time>
  1042.       </trkpt>
  1043.       <trkpt lat="36.325610" lon="29.254295">
  1044.         <ele>21.545216</ele>
  1045.         <time>2019-09-22T06:04:30.000Z</time>
  1046.       </trkpt>
  1047.       <trkpt lat="36.325610" lon="29.254417">
  1048.         <ele>21.683815</ele>
  1049.         <time>2019-09-22T06:04:38.000Z</time>
  1050.       </trkpt>
  1051.       <trkpt lat="36.325600" lon="29.254538">
  1052.         <ele>21.821999</ele>
  1053.         <time>2019-09-22T06:04:45.000Z</time>
  1054.       </trkpt>
  1055.       <trkpt lat="36.325607" lon="29.254656">
  1056.         <ele>21.956417</ele>
  1057.         <time>2019-09-22T06:04:53.000Z</time>
  1058.       </trkpt>
  1059.       <trkpt lat="36.325607" lon="29.254787">
  1060.         <ele>22.105241</ele>
  1061.         <time>2019-09-22T06:05:02.000Z</time>
  1062.       </trkpt>
  1063.       <trkpt lat="36.325623" lon="29.254902">
  1064.         <ele>22.237821</ele>
  1065.         <time>2019-09-22T06:05:10.000Z</time>
  1066.       </trkpt>
  1067.       <trkpt lat="36.325638" lon="29.255018">
  1068.         <ele>22.371291</ele>
  1069.         <time>2019-09-22T06:05:17.000Z</time>
  1070.       </trkpt>
  1071.       <trkpt lat="36.325638" lon="29.255133">
  1072.         <ele>22.501938</ele>
  1073.         <time>2019-09-22T06:05:24.000Z</time>
  1074.       </trkpt>
  1075.       <trkpt lat="36.325660" lon="29.255253">
  1076.         <ele>22.641750</ele>
  1077.         <time>2019-09-22T06:05:33.000Z</time>
  1078.       </trkpt>
  1079.       <trkpt lat="36.325672" lon="29.255373">
  1080.         <ele>22.779123</ele>
  1081.         <time>2019-09-22T06:05:40.000Z</time>
  1082.       </trkpt>
  1083.       <trkpt lat="36.325684" lon="29.255486">
  1084.         <ele>22.908608</ele>
  1085.         <time>2019-09-22T06:05:47.000Z</time>
  1086.       </trkpt>
  1087.       <trkpt lat="36.325720" lon="29.255590">
  1088.         <ele>23.037202</ele>
  1089.         <time>2019-09-22T06:05:57.000Z</time>
  1090.       </trkpt>
  1091.       <trkpt lat="36.325745" lon="29.255700">
  1092.         <ele>23.134537</ele>
  1093.         <time>2019-09-22T06:06:05.000Z</time>
  1094.       </trkpt>
  1095.       <trkpt lat="36.325794" lon="29.255796">
  1096.         <ele>23.172495</ele>
  1097.         <time>2019-09-22T06:06:12.000Z</time>
  1098.       </trkpt>
  1099.       <trkpt lat="36.325790" lon="29.255930">
  1100.         <ele>23.217284</ele>
  1101.         <time>2019-09-22T06:06:22.000Z</time>
  1102.       </trkpt>
  1103.       <trkpt lat="36.325756" lon="29.256035">
  1104.         <ele>23.255082</ele>
  1105.         <time>2019-09-22T06:06:29.000Z</time>
  1106.       </trkpt>
  1107.       <trkpt lat="36.325733" lon="29.256151">
  1108.         <ele>23.294983</ele>
  1109.         <time>2019-09-22T06:06:33.000Z</time>
  1110.       </trkpt>
  1111.       <trkpt lat="36.325703" lon="29.256258">
  1112.         <ele>23.332825</ele>
  1113.         <time>2019-09-22T06:06:44.000Z</time>
  1114.       </trkpt>
  1115.       <trkpt lat="36.325650" lon="29.256363">
  1116.         <ele>23.374211</ele>
  1117.         <time>2019-09-22T06:06:50.000Z</time>
  1118.       </trkpt>
  1119.       <trkpt lat="36.325596" lon="29.256453">
  1120.         <ele>23.411692</ele>
  1121.         <time>2019-09-22T06:06:56.000Z</time>
  1122.       </trkpt>
  1123.       <trkpt lat="36.325546" lon="29.256546">
  1124.         <ele>23.449037</ele>
  1125.         <time>2019-09-22T06:07:03.000Z</time>
  1126.       </trkpt>
  1127.       <trkpt lat="36.325504" lon="29.256657">
  1128.         <ele>23.489998</ele>
  1129.         <time>2019-09-22T06:07:11.000Z</time>
  1130.       </trkpt>
  1131.       <trkpt lat="36.325462" lon="29.256767">
  1132.         <ele>23.530656</ele>
  1133.         <time>2019-09-22T06:07:19.000Z</time>
  1134.       </trkpt>
  1135.       <trkpt lat="36.325417" lon="29.256865">
  1136.         <ele>23.568333</ele>
  1137.         <time>2019-09-22T06:07:26.000Z</time>
  1138.       </trkpt>
  1139.       <trkpt lat="36.325360" lon="29.256966">
  1140.         <ele>23.609521</ele>
  1141.         <time>2019-09-22T06:07:34.000Z</time>
  1142.       </trkpt>
  1143.       <trkpt lat="36.325310" lon="29.257065">
  1144.         <ele>23.648549</ele>
  1145.         <time>2019-09-22T06:07:41.000Z</time>
  1146.       </trkpt>
  1147.       <trkpt lat="36.325270" lon="29.257172">
  1148.         <ele>23.687948</ele>
  1149.         <time>2019-09-22T06:07:50.000Z</time>
  1150.       </trkpt>
  1151.       <trkpt lat="36.325240" lon="29.257282">
  1152.         <ele>23.726738</ele>
  1153.         <time>2019-09-22T06:07:59.000Z</time>
  1154.       </trkpt>
  1155.       <trkpt lat="36.325233" lon="29.257404">
  1156.         <ele>23.767591</ele>
  1157.         <time>2019-09-22T06:08:07.000Z</time>
  1158.       </trkpt>
  1159.       <trkpt lat="36.325195" lon="29.257515">
  1160.         <ele>23.807875</ele>
  1161.         <time>2019-09-22T06:08:16.000Z</time>
  1162.       </trkpt>
  1163.       <trkpt lat="36.325184" lon="29.257645">
  1164.         <ele>23.851536</ele>
  1165.         <time>2019-09-22T06:08:23.000Z</time>
  1166.       </trkpt>
  1167.       <trkpt lat="36.325138" lon="29.257769">
  1168.         <ele>23.874923</ele>
  1169.         <time>2019-09-22T06:11:58.000Z</time>
  1170.       </trkpt>
  1171.       <trkpt lat="36.325090" lon="29.257866">
  1172.         <ele>23.885214</ele>
  1173.         <time>2019-09-22T06:12:07.000Z</time>
  1174.       </trkpt>
  1175.       <trkpt lat="36.325047" lon="29.257967">
  1176.         <ele>23.895540</ele>
  1177.         <time>2019-09-22T06:12:17.000Z</time>
  1178.       </trkpt>
  1179.       <trkpt lat="36.325010" lon="29.258068">
  1180.         <ele>23.905570</ele>
  1181.         <time>2019-09-22T06:12:25.000Z</time>
  1182.       </trkpt>
  1183.       <trkpt lat="36.324963" lon="29.258175">
  1184.         <ele>23.916587</ele>
  1185.         <time>2019-09-22T06:12:32.000Z</time>
  1186.       </trkpt>
  1187.       <trkpt lat="36.324910" lon="29.258278">
  1188.         <ele>23.927635</ele>
  1189.         <time>2019-09-22T06:12:39.000Z</time>
  1190.       </trkpt>
  1191.       <trkpt lat="36.324852" lon="29.258368">
  1192.         <ele>23.938053</ele>
  1193.         <time>2019-09-22T06:12:45.000Z</time>
  1194.       </trkpt>
  1195.       <trkpt lat="36.324787" lon="29.258463">
  1196.         <ele>23.949320</ele>
  1197.         <time>2019-09-22T06:12:52.000Z</time>
  1198.       </trkpt>
  1199.       <trkpt lat="36.324745" lon="29.258562">
  1200.         <ele>23.959435</ele>
  1201.         <time>2019-09-22T06:12:59.000Z</time>
  1202.       </trkpt>
  1203.       <trkpt lat="36.324730" lon="29.258670">
  1204.         <ele>23.969342</ele>
  1205.         <time>2019-09-22T06:13:06.000Z</time>
  1206.       </trkpt>
  1207.       <trkpt lat="36.324738" lon="29.258787">
  1208.         <ele>23.979956</ele>
  1209.         <time>2019-09-22T06:13:15.000Z</time>
  1210.       </trkpt>
  1211.       <trkpt lat="36.324783" lon="29.258904">
  1212.         <ele>23.991676</ele>
  1213.         <time>2019-09-22T06:13:23.000Z</time>
  1214.       </trkpt>
  1215.       <trkpt lat="36.324825" lon="29.259014">
  1216.         <ele>24.002680</ele>
  1217.         <time>2019-09-22T06:13:30.000Z</time>
  1218.       </trkpt>
  1219.       <trkpt lat="36.324890" lon="29.259108">
  1220.         <ele>24.013878</ele>
  1221.         <time>2019-09-22T06:13:38.000Z</time>
  1222.       </trkpt>
  1223.       <trkpt lat="36.324947" lon="29.259197">
  1224.         <ele>24.024156</ele>
  1225.         <time>2019-09-22T06:13:45.000Z</time>
  1226.       </trkpt>
  1227.       <trkpt lat="36.325000" lon="29.259287">
  1228.         <ele>24.034234</ele>
  1229.         <time>2019-09-22T06:13:57.000Z</time>
  1230.       </trkpt>
  1231.       <trkpt lat="36.325058" lon="29.259377">
  1232.         <ele>24.044652</ele>
  1233.         <time>2019-09-22T06:14:04.000Z</time>
  1234.       </trkpt>
  1235.       <trkpt lat="36.325127" lon="29.259459">
  1236.         <ele>24.055370</ele>
  1237.         <time>2019-09-22T06:14:11.000Z</time>
  1238.       </trkpt>
  1239.       <trkpt lat="36.325180" lon="29.259558">
  1240.         <ele>24.066115</ele>
  1241.         <time>2019-09-22T06:14:17.000Z</time>
  1242.       </trkpt>
  1243.       <trkpt lat="36.325233" lon="29.259665">
  1244.         <ele>24.103234</ele>
  1245.         <time>2019-09-22T06:14:25.000Z</time>
  1246.       </trkpt>
  1247.       <trkpt lat="36.325275" lon="29.259771">
  1248.         <ele>24.144565</ele>
  1249.         <time>2019-09-22T06:14:32.000Z</time>
  1250.       </trkpt>
  1251.       <trkpt lat="36.325240" lon="29.259880">
  1252.         <ele>24.185621</ele>
  1253.         <time>2019-09-22T06:14:39.000Z</time>
  1254.       </trkpt>
  1255.       <trkpt lat="36.325176" lon="29.259983">
  1256.         <ele>24.231133</ele>
  1257.         <time>2019-09-22T06:14:47.000Z</time>
  1258.       </trkpt>
  1259.       <trkpt lat="36.325110" lon="29.260080">
  1260.         <ele>24.275556</ele>
  1261.         <time>2019-09-22T06:14:57.000Z</time>
  1262.       </trkpt>
  1263.       <trkpt lat="36.325058" lon="29.260187">
  1264.         <ele>24.319279</ele>
  1265.         <time>2019-09-22T06:15:05.000Z</time>
  1266.       </trkpt>
  1267.       <trkpt lat="36.325016" lon="29.260294">
  1268.         <ele>24.360924</ele>
  1269.         <time>2019-09-22T06:15:13.000Z</time>
  1270.       </trkpt>
  1271.       <trkpt lat="36.324978" lon="29.260410">
  1272.         <ele>24.404738</ele>
  1273.         <time>2019-09-22T06:15:22.000Z</time>
  1274.       </trkpt>
  1275.       <trkpt lat="36.324940" lon="29.260515">
  1276.         <ele>24.445013</ele>
  1277.         <time>2019-09-22T06:15:27.000Z</time>
  1278.       </trkpt>
  1279.       <trkpt lat="36.324886" lon="29.260614">
  1280.         <ele>24.486845</ele>
  1281.         <time>2019-09-22T06:15:34.000Z</time>
  1282.       </trkpt>
  1283.       <trkpt lat="36.324860" lon="29.260723">
  1284.         <ele>24.526619</ele>
  1285.         <time>2019-09-22T06:15:44.000Z</time>
  1286.       </trkpt>
  1287.       <trkpt lat="36.324795" lon="29.260815">
  1288.         <ele>24.569434</ele>
  1289.         <time>2019-09-22T06:15:51.000Z</time>
  1290.       </trkpt>
  1291.       <trkpt lat="36.324738" lon="29.260904">
  1292.         <ele>24.609215</ele>
  1293.         <time>2019-09-22T06:15:57.000Z</time>
  1294.       </trkpt>
  1295.       <trkpt lat="36.324690" lon="29.261003">
  1296.         <ele>24.649643</ele>
  1297.         <time>2019-09-22T06:16:04.000Z</time>
  1298.       </trkpt>
  1299.       <trkpt lat="36.324640" lon="29.261099">
  1300.         <ele>24.689640</ele>
  1301.         <time>2019-09-22T06:16:11.000Z</time>
  1302.       </trkpt>
  1303.       <trkpt lat="36.324585" lon="29.261192">
  1304.         <ele>24.730006</ele>
  1305.         <time>2019-09-22T06:16:19.000Z</time>
  1306.       </trkpt>
  1307.       <trkpt lat="36.324524" lon="29.261320">
  1308.         <ele>24.782041</ele>
  1309.         <time>2019-09-22T06:16:27.000Z</time>
  1310.       </trkpt>
  1311.       <trkpt lat="36.324463" lon="29.261423">
  1312.         <ele>24.826769</ele>
  1313.         <time>2019-09-22T06:16:33.000Z</time>
  1314.       </trkpt>
  1315.       <trkpt lat="36.324417" lon="29.261526">
  1316.         <ele>24.835032</ele>
  1317.         <time>2019-09-22T06:16:43.000Z</time>
  1318.       </trkpt>
  1319.       <trkpt lat="36.324350" lon="29.261614">
  1320.         <ele>24.801351</ele>
  1321.         <time>2019-09-22T06:16:49.000Z</time>
  1322.       </trkpt>
  1323.       <trkpt lat="36.324295" lon="29.261717">
  1324.         <ele>24.766977</ele>
  1325.         <time>2019-09-22T06:16:56.000Z</time>
  1326.       </trkpt>
  1327.       <trkpt lat="36.324234" lon="29.261799">
  1328.         <ele>24.735930</ele>
  1329.         <time>2019-09-22T06:17:02.000Z</time>
  1330.       </trkpt>
  1331.       <trkpt lat="36.324158" lon="29.261873">
  1332.         <ele>24.702579</ele>
  1333.         <time>2019-09-22T06:17:10.000Z</time>
  1334.       </trkpt>
  1335.       <trkpt lat="36.324080" lon="29.261942">
  1336.         <ele>24.669507</ele>
  1337.         <time>2019-09-22T06:17:18.000Z</time>
  1338.       </trkpt>
  1339.       <trkpt lat="36.324030" lon="29.262041">
  1340.         <ele>24.637004</ele>
  1341.         <time>2019-09-22T06:18:03.000Z</time>
  1342.       </trkpt>
  1343.       <trkpt lat="36.323970" lon="29.262138">
  1344.         <ele>24.602985</ele>
  1345.         <time>2019-09-22T06:18:11.000Z</time>
  1346.       </trkpt>
  1347.       <trkpt lat="36.323917" lon="29.262243">
  1348.         <ele>24.568517</ele>
  1349.         <time>2019-09-22T06:18:20.000Z</time>
  1350.       </trkpt>
  1351.       <trkpt lat="36.323853" lon="29.262348">
  1352.         <ele>24.531891</ele>
  1353.         <time>2019-09-22T06:18:26.000Z</time>
  1354.       </trkpt>
  1355.       <trkpt lat="36.323800" lon="29.262453">
  1356.         <ele>24.497423</ele>
  1357.         <time>2019-09-22T06:18:33.000Z</time>
  1358.       </trkpt>
  1359.       <trkpt lat="36.323746" lon="29.262552">
  1360.         <ele>24.464166</ele>
  1361.         <time>2019-09-22T06:18:39.000Z</time>
  1362.       </trkpt>
  1363.       <trkpt lat="36.323708" lon="29.262653">
  1364.         <ele>24.433157</ele>
  1365.         <time>2019-09-22T06:18:49.000Z</time>
  1366.       </trkpt>
  1367.       <trkpt lat="36.323627" lon="29.262733">
  1368.         <ele>24.397416</ele>
  1369.         <time>2019-09-22T06:18:57.000Z</time>
  1370.       </trkpt>
  1371.       <trkpt lat="36.323555" lon="29.262796">
  1372.         <ele>24.366999</ele>
  1373.         <time>2019-09-22T06:19:04.000Z</time>
  1374.       </trkpt>
  1375.       <trkpt lat="36.323475" lon="29.262897">
  1376.         <ele>24.327599</ele>
  1377.         <time>2019-09-22T06:19:13.000Z</time>
  1378.       </trkpt>
  1379.       <trkpt lat="36.323406" lon="29.262974">
  1380.         <ele>24.295562</ele>
  1381.         <time>2019-09-22T06:19:20.000Z</time>
  1382.       </trkpt>
  1383.       <trkpt lat="36.323340" lon="29.263054">
  1384.         <ele>24.263710</ele>
  1385.         <time>2019-09-22T06:19:27.000Z</time>
  1386.       </trkpt>
  1387.       <trkpt lat="36.323270" lon="29.263120">
  1388.         <ele>24.233358</ele>
  1389.         <time>2019-09-22T06:19:35.000Z</time>
  1390.       </trkpt>
  1391.       <trkpt lat="36.323190" lon="29.263186">
  1392.         <ele>24.094318</ele>
  1393.         <time>2019-09-22T06:19:47.000Z</time>
  1394.       </trkpt>
  1395.       <trkpt lat="36.323112" lon="29.263268">
  1396.         <ele>23.927493</ele>
  1397.         <time>2019-09-22T06:19:53.000Z</time>
  1398.       </trkpt>
  1399.       <trkpt lat="36.323040" lon="29.263351">
  1400.         <ele>23.767123</ele>
  1401.         <time>2019-09-22T06:19:59.000Z</time>
  1402.       </trkpt>
  1403.       <trkpt lat="36.322964" lon="29.263426">
  1404.         <ele>23.608661</ele>
  1405.         <time>2019-09-22T06:20:05.000Z</time>
  1406.       </trkpt>
  1407.       <trkpt lat="36.322903" lon="29.263512">
  1408.         <ele>23.458000</ele>
  1409.         <time>2019-09-22T06:21:12.000Z</time>
  1410.       </trkpt>
  1411.       <trkpt lat="36.322830" lon="29.263590">
  1412.         <ele>23.300796</ele>
  1413.         <time>2019-09-22T06:21:21.000Z</time>
  1414.       </trkpt>
  1415.       <trkpt lat="36.322758" lon="29.263668">
  1416.         <ele>23.144825</ele>
  1417.         <time>2019-09-22T06:21:30.000Z</time>
  1418.       </trkpt>
  1419.       <trkpt lat="36.322685" lon="29.263735">
  1420.         <ele>22.996651</ele>
  1421.         <time>2019-09-22T06:21:38.000Z</time>
  1422.       </trkpt>
  1423.       <trkpt lat="36.322613" lon="29.263815">
  1424.         <ele>22.838938</ele>
  1425.         <time>2019-09-22T06:21:46.000Z</time>
  1426.       </trkpt>
  1427.       <trkpt lat="36.322560" lon="29.263906">
  1428.         <ele>22.691291</ele>
  1429.         <time>2019-09-22T06:21:54.000Z</time>
  1430.       </trkpt>
  1431.       <trkpt lat="36.322525" lon="29.264019">
  1432.         <ele>22.532104</ele>
  1433.         <time>2019-09-22T06:22:03.000Z</time>
  1434.       </trkpt>
  1435.       <trkpt lat="36.322514" lon="29.264141">
  1436.         <ele>22.370682</ele>
  1437.         <time>2019-09-22T06:22:09.000Z</time>
  1438.       </trkpt>
  1439.       <trkpt lat="36.322520" lon="29.264260">
  1440.         <ele>22.213900</ele>
  1441.         <time>2019-09-22T06:22:17.000Z</time>
  1442.       </trkpt>
  1443.       <trkpt lat="36.322563" lon="29.264370">
  1444.         <ele>22.053134</ele>
  1445.         <time>2019-09-22T06:22:23.000Z</time>
  1446.       </trkpt>
  1447.       <trkpt lat="36.322617" lon="29.264470">
  1448.         <ele>21.894840</ele>
  1449.         <time>2019-09-22T06:22:31.000Z</time>
  1450.       </trkpt>
  1451.       <trkpt lat="36.322662" lon="29.264568">
  1452.         <ele>21.746519</ele>
  1453.         <time>2019-09-22T06:22:39.000Z</time>
  1454.       </trkpt>
  1455.       <trkpt lat="36.322730" lon="29.264664">
  1456.         <ele>21.578440</ele>
  1457.         <time>2019-09-22T06:22:47.000Z</time>
  1458.       </trkpt>
  1459.       <trkpt lat="36.322790" lon="29.264769">
  1460.         <ele>21.409174</ele>
  1461.         <time>2019-09-22T06:22:55.000Z</time>
  1462.       </trkpt>
  1463.       <trkpt lat="36.322850" lon="29.264864">
  1464.         <ele>21.339568</ele>
  1465.         <time>2019-09-22T06:23:02.000Z</time>
  1466.       </trkpt>
  1467.       <trkpt lat="36.322900" lon="29.264961">
  1468.         <ele>21.504117</ele>
  1469.         <time>2019-09-22T06:23:10.000Z</time>
  1470.       </trkpt>
  1471.       <trkpt lat="36.322910" lon="29.265081">
  1472.         <ele>21.676507</ele>
  1473.         <time>2019-09-22T06:23:18.000Z</time>
  1474.       </trkpt>
  1475.       <trkpt lat="36.322834" lon="29.265140">
  1476.         <ele>21.835493</ele>
  1477.         <time>2019-09-22T06:23:48.000Z</time>
  1478.       </trkpt>
  1479.       <trkpt lat="36.322735" lon="29.265242">
  1480.         <ele>22.063691</ele>
  1481.         <time>2019-09-22T06:24:33.000Z</time>
  1482.       </trkpt>
  1483.       <trkpt lat="36.322670" lon="29.265324">
  1484.         <ele>22.228068</ele>
  1485.         <time>2019-09-22T06:24:41.000Z</time>
  1486.       </trkpt>
  1487.       <trkpt lat="36.322598" lon="29.265411">
  1488.         <ele>22.406288</ele>
  1489.         <time>2019-09-22T06:24:49.000Z</time>
  1490.       </trkpt>
  1491.       <trkpt lat="36.322533" lon="29.265505">
  1492.         <ele>22.583298</ele>
  1493.         <time>2019-09-22T06:24:57.000Z</time>
  1494.       </trkpt>
  1495.       <trkpt lat="36.322464" lon="29.265583">
  1496.         <ele>22.748825</ele>
  1497.         <time>2019-09-22T06:25:05.000Z</time>
  1498.       </trkpt>
  1499.       <trkpt lat="36.322388" lon="29.265670">
  1500.         <ele>22.932194</ele>
  1501.         <time>2019-09-22T06:25:11.000Z</time>
  1502.       </trkpt>
  1503.       <trkpt lat="36.322315" lon="29.265753">
  1504.         <ele>23.107779</ele>
  1505.         <time>2019-09-22T06:25:19.000Z</time>
  1506.       </trkpt>
  1507.       <trkpt lat="36.322254" lon="29.265858">
  1508.         <ele>23.292757</ele>
  1509.         <time>2019-09-22T06:25:35.000Z</time>
  1510.       </trkpt>
  1511.       <trkpt lat="36.322170" lon="29.265930">
  1512.         <ele>23.473812</ele>
  1513.         <time>2019-09-22T06:25:39.000Z</time>
  1514.       </trkpt>
  1515.       <trkpt lat="36.322100" lon="29.266008">
  1516.         <ele>23.640655</ele>
  1517.         <time>2019-09-22T06:25:44.000Z</time>
  1518.       </trkpt>
  1519.       <trkpt lat="36.322025" lon="29.266077">
  1520.         <ele>23.806232</ele>
  1521.         <time>2019-09-22T06:25:51.000Z</time>
  1522.       </trkpt>
  1523.       <trkpt lat="36.321957" lon="29.266161">
  1524.         <ele>23.976388</ele>
  1525.         <time>2019-09-22T06:25:57.000Z</time>
  1526.       </trkpt>
  1527.       <trkpt lat="36.321888" lon="29.266249">
  1528.         <ele>24.151857</ele>
  1529.         <time>2019-09-22T06:26:04.000Z</time>
  1530.       </trkpt>
  1531.       <trkpt lat="36.321823" lon="29.266330">
  1532.         <ele>24.315220</ele>
  1533.         <time>2019-09-22T06:26:12.000Z</time>
  1534.       </trkpt>
  1535.       <trkpt lat="36.321760" lon="29.266424">
  1536.         <ele>24.480766</ele>
  1537.         <time>2019-09-22T06:26:20.000Z</time>
  1538.       </trkpt>
  1539.       <trkpt lat="36.321697" lon="29.266520">
  1540.         <ele>24.417181</ele>
  1541.         <time>2019-09-22T06:26:27.000Z</time>
  1542.       </trkpt>
  1543.       <trkpt lat="36.321640" lon="29.266620">
  1544.         <ele>24.354273</ele>
  1545.         <time>2019-09-22T06:26:39.000Z</time>
  1546.       </trkpt>
  1547.       <trkpt lat="36.321570" lon="29.266722">
  1548.         <ele>24.285464</ele>
  1549.         <time>2019-09-22T06:26:45.000Z</time>
  1550.       </trkpt>
  1551.       <trkpt lat="36.321495" lon="29.266794">
  1552.         <ele>24.225028</ele>
  1553.         <time>2019-09-22T06:26:51.000Z</time>
  1554.       </trkpt>
  1555.       <trkpt lat="36.321410" lon="29.266878">
  1556.         <ele>24.155773</ele>
  1557.         <time>2019-09-22T06:26:57.000Z</time>
  1558.       </trkpt>
  1559.       <trkpt lat="36.321340" lon="29.266945">
  1560.         <ele>24.099428</ele>
  1561.         <time>2019-09-22T06:27:08.000Z</time>
  1562.       </trkpt>
  1563.       <trkpt lat="36.321266" lon="29.267017">
  1564.         <ele>24.039495</ele>
  1565.         <time>2019-09-22T06:27:14.000Z</time>
  1566.       </trkpt>
  1567.       <trkpt lat="36.321194" lon="29.267097">
  1568.         <ele>23.977899</ele>
  1569.         <time>2019-09-22T06:27:22.000Z</time>
  1570.       </trkpt>
  1571.       <trkpt lat="36.321125" lon="29.267176">
  1572.         <ele>23.918063</ele>
  1573.         <time>2019-09-22T06:27:33.000Z</time>
  1574.       </trkpt>
  1575.       <trkpt lat="36.321050" lon="29.267237">
  1576.         <ele>23.860908</ele>
  1577.         <time>2019-09-22T06:27:41.000Z</time>
  1578.       </trkpt>
  1579.       <trkpt lat="36.320970" lon="29.267294">
  1580.         <ele>23.802112</ele>
  1581.         <time>2019-09-22T06:27:48.000Z</time>
  1582.       </trkpt>
  1583.       <trkpt lat="36.320873" lon="29.267370">
  1584.         <ele>23.728995</ele>
  1585.         <time>2019-09-22T06:27:57.000Z</time>
  1586.       </trkpt>
  1587.       <trkpt lat="36.320797" lon="29.267447">
  1588.         <ele>23.666462</ele>
  1589.         <time>2019-09-22T06:28:06.000Z</time>
  1590.       </trkpt>
  1591.       <trkpt lat="36.320644" lon="29.267567">
  1592.         <ele>23.551100</ele>
  1593.         <time>2019-09-22T06:29:12.000Z</time>
  1594.       </trkpt>
  1595.       <trkpt lat="36.320560" lon="29.267645">
  1596.         <ele>23.484232</ele>
  1597.         <time>2019-09-22T06:29:21.000Z</time>
  1598.       </trkpt>
  1599.       <trkpt lat="36.320488" lon="29.267729">
  1600.         <ele>23.421247</ele>
  1601.         <time>2019-09-22T06:29:30.000Z</time>
  1602.       </trkpt>
  1603.       <trkpt lat="36.320420" lon="29.267803">
  1604.         <ele>23.363602</ele>
  1605.         <time>2019-09-22T06:29:45.000Z</time>
  1606.       </trkpt>
  1607.       <trkpt lat="36.320347" lon="29.267874">
  1608.         <ele>23.323292</ele>
  1609.         <time>2019-09-22T06:29:56.000Z</time>
  1610.       </trkpt>
  1611.       <trkpt lat="36.320274" lon="29.267958">
  1612.         <ele>23.296836</ele>
  1613.         <time>2019-09-22T06:30:02.000Z</time>
  1614.       </trkpt>
  1615.       <trkpt lat="36.320200" lon="29.268057">
  1616.         <ele>23.267920</ele>
  1617.         <time>2019-09-22T06:30:06.000Z</time>
  1618.       </trkpt>
  1619.       <trkpt lat="36.320137" lon="29.268135">
  1620.         <ele>23.244271</ele>
  1621.         <time>2019-09-22T06:30:09.000Z</time>
  1622.       </trkpt>
  1623.       <trkpt lat="36.320070" lon="29.268213">
  1624.         <ele>23.219857</ele>
  1625.         <time>2019-09-22T06:30:14.000Z</time>
  1626.       </trkpt>
  1627.       <trkpt lat="36.320007" lon="29.268303">
  1628.         <ele>23.194328</ele>
  1629.         <time>2019-09-22T06:30:21.000Z</time>
  1630.       </trkpt>
  1631.       <trkpt lat="36.320060" lon="29.268204">
  1632.         <ele>23.168876</ele>
  1633.         <time>2019-09-22T06:30:28.000Z</time>
  1634.       </trkpt>
  1635.       <trkpt lat="36.319992" lon="29.268293">
  1636.         <ele>23.142612</ele>
  1637.         <time>2019-09-22T06:30:53.000Z</time>
  1638.       </trkpt>
  1639.       <trkpt lat="36.319916" lon="29.268385">
  1640.         <ele>23.114398</ele>
  1641.         <time>2019-09-22T06:30:59.000Z</time>
  1642.       </trkpt>
  1643.       <trkpt lat="36.319847" lon="29.268469">
  1644.         <ele>23.088711</ele>
  1645.         <time>2019-09-22T06:31:07.000Z</time>
  1646.       </trkpt>
  1647.       <trkpt lat="36.319767" lon="29.268534">
  1648.         <ele>23.063300</ele>
  1649.         <time>2019-09-22T06:31:15.000Z</time>
  1650.       </trkpt>
  1651.       <trkpt lat="36.319690" lon="29.268593">
  1652.         <ele>23.039250</ele>
  1653.         <time>2019-09-22T06:31:22.000Z</time>
  1654.       </trkpt>
  1655.       <trkpt lat="36.319614" lon="29.268671">
  1656.         <ele>23.013041</ele>
  1657.         <time>2019-09-22T06:31:28.000Z</time>
  1658.       </trkpt>
  1659.       <trkpt lat="36.319540" lon="29.268750">
  1660.         <ele>22.987100</ele>
  1661.         <time>2019-09-22T06:31:34.000Z</time>
  1662.       </trkpt>
  1663.       <trkpt lat="36.319477" lon="29.268839">
  1664.         <ele>22.961732</ele>
  1665.         <time>2019-09-22T06:31:41.000Z</time>
  1666.       </trkpt>
  1667.       <trkpt lat="36.319447" lon="29.268948">
  1668.         <ele>22.937068</ele>
  1669.         <time>2019-09-22T06:31:49.000Z</time>
  1670.       </trkpt>
  1671.       <trkpt lat="36.319458" lon="29.269072">
  1672.         <ele>22.910355</ele>
  1673.         <time>2019-09-22T06:32:02.000Z</time>
  1674.       </trkpt>
  1675.       <trkpt lat="36.319450" lon="29.269190">
  1676.         <ele>22.884998</ele>
  1677.         <time>2019-09-22T06:32:11.000Z</time>
  1678.       </trkpt>
  1679.       <trkpt lat="36.319454" lon="29.269300">
  1680.         <ele>22.861419</ele>
  1681.         <time>2019-09-22T06:32:17.000Z</time>
  1682.       </trkpt>
  1683.       <trkpt lat="36.319454" lon="29.269423">
  1684.         <ele>22.910889</ele>
  1685.         <time>2019-09-22T06:32:23.000Z</time>
  1686.       </trkpt>
  1687.       <trkpt lat="36.319466" lon="29.269548">
  1688.         <ele>22.970350</ele>
  1689.         <time>2019-09-22T06:32:32.000Z</time>
  1690.       </trkpt>
  1691.       <trkpt lat="36.319460" lon="29.269680">
  1692.         <ele>23.032798</ele>
  1693.         <time>2019-09-22T06:32:40.000Z</time>
  1694.       </trkpt>
  1695.       <trkpt lat="36.319435" lon="29.269787">
  1696.         <ele>23.085421</ele>
  1697.         <time>2019-09-22T06:32:47.000Z</time>
  1698.       </trkpt>
  1699.       <trkpt lat="36.319390" lon="29.269888">
  1700.         <ele>23.139935</ele>
  1701.         <time>2019-09-22T06:32:53.000Z</time>
  1702.       </trkpt>
  1703.       <trkpt lat="36.319347" lon="29.269995">
  1704.         <ele>23.196414</ele>
  1705.         <time>2019-09-22T06:33:00.000Z</time>
  1706.       </trkpt>
  1707.       <trkpt lat="36.319317" lon="29.270107">
  1708.         <ele>23.252163</ele>
  1709.         <time>2019-09-22T06:33:07.000Z</time>
  1710.       </trkpt>
  1711.       <trkpt lat="36.319298" lon="29.270226">
  1712.         <ele>23.309465</ele>
  1713.         <time>2019-09-22T06:33:13.000Z</time>
  1714.       </trkpt>
  1715.       <trkpt lat="36.319252" lon="29.270340">
  1716.         <ele>23.369687</ele>
  1717.         <time>2019-09-22T06:33:21.000Z</time>
  1718.       </trkpt>
  1719.       <trkpt lat="36.319210" lon="29.270445">
  1720.         <ele>23.425059</ele>
  1721.         <time>2019-09-22T06:33:29.000Z</time>
  1722.       </trkpt>
  1723.       <trkpt lat="36.319153" lon="29.270535">
  1724.         <ele>23.479131</ele>
  1725.         <time>2019-09-22T06:33:35.000Z</time>
  1726.       </trkpt>
  1727.       <trkpt lat="36.319065" lon="29.270586">
  1728.         <ele>23.536066</ele>
  1729.         <time>2019-09-22T06:33:44.000Z</time>
  1730.       </trkpt>
  1731.       <trkpt lat="36.318980" lon="29.270632">
  1732.         <ele>23.590427</ele>
  1733.         <time>2019-09-22T06:33:52.000Z</time>
  1734.       </trkpt>
  1735.       <trkpt lat="36.318893" lon="29.270683">
  1736.         <ele>23.646832</ele>
  1737.         <time>2019-09-22T06:34:00.000Z</time>
  1738.       </trkpt>
  1739.       <trkpt lat="36.318806" lon="29.270748">
  1740.         <ele>23.706363</ele>
  1741.         <time>2019-09-22T06:34:07.000Z</time>
  1742.       </trkpt>
  1743.       <trkpt lat="36.318733" lon="29.270824">
  1744.         <ele>23.762221</ele>
  1745.         <time>2019-09-22T06:34:16.000Z</time>
  1746.       </trkpt>
  1747.       <trkpt lat="36.318672" lon="29.270918">
  1748.         <ele>23.819231</ele>
  1749.         <time>2019-09-22T06:34:23.000Z</time>
  1750.       </trkpt>
  1751.       <trkpt lat="36.318615" lon="29.271015">
  1752.         <ele>23.875940</ele>
  1753.         <time>2019-09-22T06:34:31.000Z</time>
  1754.       </trkpt>
  1755.       <trkpt lat="36.318560" lon="29.271120">
  1756.         <ele>23.906248</ele>
  1757.         <time>2019-09-22T06:34:37.000Z</time>
  1758.       </trkpt>
  1759.       <trkpt lat="36.318512" lon="29.271210">
  1760.         <ele>23.890215</ele>
  1761.         <time>2019-09-22T06:34:43.000Z</time>
  1762.       </trkpt>
  1763.       <trkpt lat="36.318455" lon="29.271307">
  1764.         <ele>23.872381</ele>
  1765.         <time>2019-09-22T06:34:51.000Z</time>
  1766.       </trkpt>
  1767.       <trkpt lat="36.318394" lon="29.271390">
  1768.         <ele>23.855693</ele>
  1769.         <time>2019-09-22T06:34:59.000Z</time>
  1770.       </trkpt>
  1771.       <trkpt lat="36.318336" lon="29.271488">
  1772.         <ele>23.837629</ele>
  1773.         <time>2019-09-22T06:35:09.000Z</time>
  1774.       </trkpt>
  1775.       <trkpt lat="36.318310" lon="29.271597">
  1776.         <ele>23.820743</ele>
  1777.         <time>2019-09-22T06:35:16.000Z</time>
  1778.       </trkpt>
  1779.       <trkpt lat="36.318300" lon="29.271720">
  1780.         <ele>23.802378</ele>
  1781.         <time>2019-09-22T06:35:24.000Z</time>
  1782.       </trkpt>
  1783.       <trkpt lat="36.318275" lon="29.271830">
  1784.         <ele>23.785400</ele>
  1785.         <time>2019-09-22T06:35:32.000Z</time>
  1786.       </trkpt>
  1787.       <trkpt lat="36.318233" lon="29.271940">
  1788.         <ele>23.767318</ele>
  1789.         <time>2019-09-22T06:35:40.000Z</time>
  1790.       </trkpt>
  1791.       <trkpt lat="36.318203" lon="29.272047">
  1792.         <ele>23.750488</ele>
  1793.         <time>2019-09-22T06:35:47.000Z</time>
  1794.       </trkpt>
  1795.       <trkpt lat="36.318157" lon="29.272154">
  1796.         <ele>23.732472</ele>
  1797.         <time>2019-09-22T06:35:56.000Z</time>
  1798.       </trkpt>
  1799.       <trkpt lat="36.318110" lon="29.272264">
  1800.         <ele>23.713976</ele>
  1801.         <time>2019-09-22T06:36:03.000Z</time>
  1802.       </trkpt>
  1803.       <trkpt lat="36.318050" lon="29.272358">
  1804.         <ele>23.696162</ele>
  1805.         <time>2019-09-22T06:36:11.000Z</time>
  1806.       </trkpt>
  1807.       <trkpt lat="36.317980" lon="29.272453">
  1808.         <ele>23.677038</ele>
  1809.         <time>2019-09-22T06:36:20.000Z</time>
  1810.       </trkpt>
  1811.       <trkpt lat="36.317910" lon="29.272533">
  1812.         <ele>23.659494</ele>
  1813.         <time>2019-09-22T06:36:27.000Z</time>
  1814.       </trkpt>
  1815.       <trkpt lat="36.317850" lon="29.272630">
  1816.         <ele>23.641328</ele>
  1817.         <time>2019-09-22T06:36:36.000Z</time>
  1818.       </trkpt>
  1819.       <trkpt lat="36.317795" lon="29.272740">
  1820.         <ele>23.622097</ele>
  1821.         <time>2019-09-22T06:36:43.000Z</time>
  1822.       </trkpt>
  1823.       <trkpt lat="36.317745" lon="29.272835">
  1824.         <ele>23.605241</ele>
  1825.         <time>2019-09-22T06:36:50.000Z</time>
  1826.       </trkpt>
  1827.       <trkpt lat="36.317696" lon="29.272940">
  1828.         <ele>23.587215</ele>
  1829.         <time>2019-09-22T06:36:57.000Z</time>
  1830.       </trkpt>
  1831.       <trkpt lat="36.317646" lon="29.273040">
  1832.         <ele>23.664331</ele>
  1833.         <time>2019-09-22T06:37:04.000Z</time>
  1834.       </trkpt>
  1835.       <trkpt lat="36.317604" lon="29.273142">
  1836.         <ele>23.783621</ele>
  1837.         <time>2019-09-22T06:37:11.000Z</time>
  1838.       </trkpt>
  1839.       <trkpt lat="36.317535" lon="29.273233">
  1840.         <ele>23.913751</ele>
  1841.         <time>2019-09-22T06:37:20.000Z</time>
  1842.       </trkpt>
  1843.       <trkpt lat="36.317480" lon="29.273330">
  1844.         <ele>24.037273</ele>
  1845.         <time>2019-09-22T06:37:27.000Z</time>
  1846.       </trkpt>
  1847.       <trkpt lat="36.317410" lon="29.273428">
  1848.         <ele>24.173659</ele>
  1849.         <time>2019-09-22T06:37:35.000Z</time>
  1850.       </trkpt>
  1851.       <trkpt lat="36.317345" lon="29.273514">
  1852.         <ele>24.296455</ele>
  1853.         <time>2019-09-22T06:37:43.000Z</time>
  1854.       </trkpt>
  1855.       <trkpt lat="36.317295" lon="29.273610">
  1856.         <ele>24.415498</ele>
  1857.         <time>2019-09-22T06:38:18.000Z</time>
  1858.       </trkpt>
  1859.       <trkpt lat="36.317215" lon="29.273682">
  1860.         <ele>24.543221</ele>
  1861.         <time>2019-09-22T06:38:25.000Z</time>
  1862.       </trkpt>
  1863.       <trkpt lat="36.317150" lon="29.273758">
  1864.         <ele>24.658642</ele>
  1865.         <time>2019-09-22T06:38:31.000Z</time>
  1866.       </trkpt>
  1867.       <trkpt lat="36.317090" lon="29.273855">
  1868.         <ele>24.785992</ele>
  1869.         <time>2019-09-22T06:38:37.000Z</time>
  1870.       </trkpt>
  1871.       <trkpt lat="36.317020" lon="29.273937">
  1872.         <ele>24.910402</ele>
  1873.         <time>2019-09-22T06:38:45.000Z</time>
  1874.       </trkpt>
  1875.       <trkpt lat="36.316950" lon="29.274012">
  1876.         <ele>25.029925</ele>
  1877.         <time>2019-09-22T06:38:54.000Z</time>
  1878.       </trkpt>
  1879.       <trkpt lat="36.316883" lon="29.274097">
  1880.         <ele>25.153758</ele>
  1881.         <time>2019-09-22T06:39:01.000Z</time>
  1882.       </trkpt>
  1883.       <trkpt lat="36.316814" lon="29.274190">
  1884.         <ele>25.285414</ele>
  1885.         <time>2019-09-22T06:39:08.000Z</time>
  1886.       </trkpt>
  1887.       <trkpt lat="36.316753" lon="29.274284">
  1888.         <ele>25.411108</ele>
  1889.         <time>2019-09-22T06:39:16.000Z</time>
  1890.       </trkpt>
  1891.       <trkpt lat="36.316692" lon="29.274370">
  1892.         <ele>25.530427</ele>
  1893.         <time>2019-09-22T06:39:26.000Z</time>
  1894.       </trkpt>
  1895.       <trkpt lat="36.316612" lon="29.274430">
  1896.         <ele>25.651239</ele>
  1897.         <time>2019-09-22T06:39:31.000Z</time>
  1898.       </trkpt>
  1899.       <trkpt lat="36.316547" lon="29.274523">
  1900.         <ele>25.779450</ele>
  1901.         <time>2019-09-22T06:39:39.000Z</time>
  1902.       </trkpt>
  1903.       <trkpt lat="36.316490" lon="29.274610">
  1904.         <ele>25.896225</ele>
  1905.         <time>2019-09-22T06:39:46.000Z</time>
  1906.       </trkpt>
  1907.       <trkpt lat="36.316406" lon="29.274664">
  1908.         <ele>25.733100</ele>
  1909.         <time>2019-09-22T06:39:53.000Z</time>
  1910.       </trkpt>
  1911.       <trkpt lat="36.316334" lon="29.274734">
  1912.         <ele>25.550784</ele>
  1913.         <time>2019-09-22T06:39:59.000Z</time>
  1914.       </trkpt>
  1915.       <trkpt lat="36.316288" lon="29.274853">
  1916.         <ele>25.338794</ele>
  1917.         <time>2019-09-22T06:40:09.000Z</time>
  1918.       </trkpt>
  1919.       <trkpt lat="36.316260" lon="29.274965">
  1920.         <ele>25.150445</ele>
  1921.         <time>2019-09-22T06:40:18.000Z</time>
  1922.       </trkpt>
  1923.       <trkpt lat="36.316216" lon="29.275080">
  1924.         <ele>24.945970</ele>
  1925.         <time>2019-09-22T06:40:25.000Z</time>
  1926.       </trkpt>
  1927.       <trkpt lat="36.316174" lon="29.275183">
  1928.         <ele>24.760558</ele>
  1929.         <time>2019-09-22T06:40:31.000Z</time>
  1930.       </trkpt>
  1931.       <trkpt lat="36.316110" lon="29.275278">
  1932.         <ele>24.561667</ele>
  1933.         <time>2019-09-22T06:40:40.000Z</time>
  1934.       </trkpt>
  1935.       <trkpt lat="36.316055" lon="29.275383">
  1936.         <ele>24.360516</ele>
  1937.         <time>2019-09-22T06:40:47.000Z</time>
  1938.       </trkpt>
  1939.       <trkpt lat="36.316006" lon="29.275496">
  1940.         <ele>24.154407</ele>
  1941.         <time>2019-09-22T06:40:55.000Z</time>
  1942.       </trkpt>
  1943.       <trkpt lat="36.315964" lon="29.275606">
  1944.         <ele>23.958896</ele>
  1945.         <time>2019-09-22T06:41:06.000Z</time>
  1946.       </trkpt>
  1947.       <trkpt lat="36.315920" lon="29.275717">
  1948.         <ele>23.760205</ele>
  1949.         <time>2019-09-22T06:41:12.000Z</time>
  1950.       </trkpt>
  1951.       <trkpt lat="36.315887" lon="29.275824">
  1952.         <ele>23.576187</ele>
  1953.         <time>2019-09-22T06:41:17.000Z</time>
  1954.       </trkpt>
  1955.       <trkpt lat="36.315850" lon="29.275928">
  1956.         <ele>23.393587</ele>
  1957.         <time>2019-09-22T06:41:27.000Z</time>
  1958.       </trkpt>
  1959.       <trkpt lat="36.315807" lon="29.276050">
  1960.         <ele>23.179708</ele>
  1961.         <time>2019-09-22T06:41:33.000Z</time>
  1962.       </trkpt>
  1963.       <trkpt lat="36.315742" lon="29.276140">
  1964.         <ele>22.985584</ele>
  1965.         <time>2019-09-22T06:41:40.000Z</time>
  1966.       </trkpt>
  1967.       <trkpt lat="36.315660" lon="29.276192">
  1968.         <ele>22.802027</ele>
  1969.         <time>2019-09-22T06:41:46.000Z</time>
  1970.       </trkpt>
  1971.       <trkpt lat="36.315567" lon="29.276173">
  1972.         <ele>22.614151</ele>
  1973.         <time>2019-09-22T06:41:55.000Z</time>
  1974.       </trkpt>
  1975.       <trkpt lat="36.315468" lon="29.276157">
  1976.         <ele>22.415143</ele>
  1977.         <time>2019-09-22T06:42:04.000Z</time>
  1978.       </trkpt>
  1979.       <trkpt lat="36.315370" lon="29.276150">
  1980.         <ele>22.335510</ele>
  1981.         <time>2019-09-22T06:42:12.000Z</time>
  1982.       </trkpt>
  1983.       <trkpt lat="36.315273" lon="29.276169">
  1984.         <ele>22.363681</ele>
  1985.         <time>2019-09-22T06:42:18.000Z</time>
  1986.       </trkpt>
  1987.       <trkpt lat="36.315178" lon="29.276196">
  1988.         <ele>22.391638</ele>
  1989.         <time>2019-09-22T06:42:27.000Z</time>
  1990.       </trkpt>
  1991.       <trkpt lat="36.315075" lon="29.276209">
  1992.         <ele>22.421338</ele>
  1993.         <time>2019-09-22T06:42:33.000Z</time>
  1994.       </trkpt>
  1995.       <trkpt lat="36.314976" lon="29.276192">
  1996.         <ele>22.450008</ele>
  1997.         <time>2019-09-22T06:42:39.000Z</time>
  1998.       </trkpt>
  1999.       <trkpt lat="36.314880" lon="29.276165">
  2000.         <ele>22.478246</ele>
  2001.         <time>2019-09-22T06:42:48.000Z</time>
  2002.       </trkpt>
  2003.       <trkpt lat="36.314785" lon="29.276140">
  2004.         <ele>22.506104</ele>
  2005.         <time>2019-09-22T06:42:56.000Z</time>
  2006.       </trkpt>
  2007.       <trkpt lat="36.314697" lon="29.276085">
  2008.         <ele>22.534369</ele>
  2009.         <time>2019-09-22T06:43:04.000Z</time>
  2010.       </trkpt>
  2011.       <trkpt lat="36.314610" lon="29.276033">
  2012.         <ele>22.562070</ele>
  2013.         <time>2019-09-22T06:43:11.000Z</time>
  2014.       </trkpt>
  2015.       <trkpt lat="36.314530" lon="29.275967">
  2016.         <ele>22.589627</ele>
  2017.         <time>2019-09-22T06:43:20.000Z</time>
  2018.       </trkpt>
  2019.       <trkpt lat="36.314438" lon="29.275940">
  2020.         <ele>22.616747</ele>
  2021.         <time>2019-09-22T06:43:26.000Z</time>
  2022.       </trkpt>
  2023.       <trkpt lat="36.314342" lon="29.275908">
  2024.         <ele>22.645262</ele>
  2025.         <time>2019-09-22T06:43:35.000Z</time>
  2026.       </trkpt>
  2027.       <trkpt lat="36.314255" lon="29.275906">
  2028.         <ele>22.670224</ele>
  2029.         <time>2019-09-22T06:43:42.000Z</time>
  2030.       </trkpt>
  2031.       <trkpt lat="36.314156" lon="29.275894">
  2032.         <ele>22.698759</ele>
  2033.         <time>2019-09-22T06:43:48.000Z</time>
  2034.       </trkpt>
  2035.       <trkpt lat="36.314060" lon="29.275898">
  2036.         <ele>22.726314</ele>
  2037.         <time>2019-09-22T06:43:55.000Z</time>
  2038.       </trkpt>
  2039.       <trkpt lat="36.313970" lon="29.275902">
  2040.         <ele>22.752148</ele>
  2041.         <time>2019-09-22T06:44:03.000Z</time>
  2042.       </trkpt>
  2043.       <trkpt lat="36.313873" lon="29.275902">
  2044.         <ele>22.779974</ele>
  2045.         <time>2019-09-22T06:44:09.000Z</time>
  2046.       </trkpt>
  2047.       <trkpt lat="36.313774" lon="29.275920">
  2048.         <ele>22.808677</ele>
  2049.         <time>2019-09-22T06:44:20.000Z</time>
  2050.       </trkpt>
  2051.       <trkpt lat="36.313732" lon="29.276030">
  2052.         <ele>22.836814</ele>
  2053.         <time>2019-09-22T06:44:27.000Z</time>
  2054.       </trkpt>
  2055.       <trkpt lat="36.313713" lon="29.276148">
  2056.         <ele>22.822229</ele>
  2057.         <time>2019-09-22T06:44:36.000Z</time>
  2058.       </trkpt>
  2059.       <trkpt lat="36.313680" lon="29.276262">
  2060.         <ele>22.807443</ele>
  2061.         <time>2019-09-22T06:44:42.000Z</time>
  2062.       </trkpt>
  2063.       <trkpt lat="36.313656" lon="29.276379">
  2064.         <ele>22.792705</ele>
  2065.         <time>2019-09-22T06:44:47.000Z</time>
  2066.       </trkpt>
  2067.       <trkpt lat="36.313625" lon="29.276491">
  2068.         <ele>22.778249</ele>
  2069.         <time>2019-09-22T06:44:54.000Z</time>
  2070.       </trkpt>
  2071.       <trkpt lat="36.313576" lon="29.276594">
  2072.         <ele>22.763649</ele>
  2073.         <time>2019-09-22T06:45:01.000Z</time>
  2074.       </trkpt>
  2075.       <trkpt lat="36.313503" lon="29.276663">
  2076.         <ele>22.749748</ele>
  2077.         <time>2019-09-22T06:45:07.000Z</time>
  2078.       </trkpt>
  2079.       <trkpt lat="36.313435" lon="29.276754">
  2080.         <ele>22.734598</ele>
  2081.         <time>2019-09-22T06:45:16.000Z</time>
  2082.       </trkpt>
  2083.       <trkpt lat="36.313374" lon="29.276840">
  2084.         <ele>22.720612</ele>
  2085.         <time>2019-09-22T06:45:23.000Z</time>
  2086.       </trkpt>
  2087.       <trkpt lat="36.313316" lon="29.276932">
  2088.         <ele>22.706353</ele>
  2089.         <time>2019-09-22T06:45:30.000Z</time>
  2090.       </trkpt>
  2091.       <trkpt lat="36.313270" lon="29.277030">
  2092.         <ele>22.692509</ele>
  2093.         <time>2019-09-22T06:45:37.000Z</time>
  2094.       </trkpt>
  2095.       <trkpt lat="36.313210" lon="29.277120">
  2096.         <ele>22.678250</ele>
  2097.         <time>2019-09-22T06:45:45.000Z</time>
  2098.       </trkpt>
  2099.       <trkpt lat="36.313175" lon="29.277231">
  2100.         <ele>22.663700</ele>
  2101.         <time>2019-09-22T06:45:55.000Z</time>
  2102.       </trkpt>
  2103.       <trkpt lat="36.313145" lon="29.277351">
  2104.         <ele>22.648363</ele>
  2105.         <time>2019-09-22T06:46:04.000Z</time>
  2106.       </trkpt>
  2107.       <trkpt lat="36.313114" lon="29.277460">
  2108.         <ele>22.634253</ele>
  2109.         <time>2019-09-22T06:46:09.000Z</time>
  2110.       </trkpt>
  2111.       <trkpt lat="36.313087" lon="29.277586">
  2112.         <ele>22.618337</ele>
  2113.         <time>2019-09-22T06:46:16.000Z</time>
  2114.       </trkpt>
  2115.       <trkpt lat="36.313060" lon="29.277693">
  2116.         <ele>22.604651</ele>
  2117.         <time>2019-09-22T06:46:21.000Z</time>
  2118.       </trkpt>
  2119.       <trkpt lat="36.313070" lon="29.277805">
  2120.         <ele>22.590895</ele>
  2121.         <time>2019-09-22T06:46:29.000Z</time>
  2122.       </trkpt>
  2123.       <trkpt lat="36.313095" lon="29.277916">
  2124.         <ele>22.576826</ele>
  2125.         <time>2019-09-22T06:46:37.000Z</time>
  2126.       </trkpt>
  2127.       <trkpt lat="36.313133" lon="29.278020">
  2128.         <ele>22.566640</ele>
  2129.         <time>2019-09-22T06:46:49.000Z</time>
  2130.       </trkpt>
  2131.       <trkpt lat="36.313194" lon="29.278112">
  2132.         <ele>22.588024</ele>
  2133.         <time>2019-09-22T06:46:57.000Z</time>
  2134.       </trkpt>
  2135.       <trkpt lat="36.313263" lon="29.278190">
  2136.         <ele>22.608814</ele>
  2137.         <time>2019-09-22T06:47:05.000Z</time>
  2138.       </trkpt>
  2139.       <trkpt lat="36.313340" lon="29.278263">
  2140.         <ele>22.630397</ele>
  2141.         <time>2019-09-22T06:47:22.000Z</time>
  2142.       </trkpt>
  2143.       <trkpt lat="36.313420" lon="29.278337">
  2144.         <ele>22.652622</ele>
  2145.         <time>2019-09-22T06:47:31.000Z</time>
  2146.       </trkpt>
  2147.       <trkpt lat="36.313490" lon="29.278420">
  2148.         <ele>22.674186</ele>
  2149.         <time>2019-09-22T06:47:38.000Z</time>
  2150.       </trkpt>
  2151.       <trkpt lat="36.313560" lon="29.278502">
  2152.         <ele>22.695627</ele>
  2153.         <time>2019-09-22T06:47:44.000Z</time>
  2154.       </trkpt>
  2155.       <trkpt lat="36.313630" lon="29.278590">
  2156.         <ele>22.717821</ele>
  2157.         <time>2019-09-22T06:47:52.000Z</time>
  2158.       </trkpt>
  2159.       <trkpt lat="36.313694" lon="29.278675">
  2160.         <ele>22.738701</ele>
  2161.         <time>2019-09-22T06:48:00.000Z</time>
  2162.       </trkpt>
  2163.       <trkpt lat="36.313766" lon="29.278748">
  2164.         <ele>22.759410</ele>
  2165.         <time>2019-09-22T06:48:08.000Z</time>
  2166.       </trkpt>
  2167.       <trkpt lat="36.313840" lon="29.278818">
  2168.         <ele>22.780135</ele>
  2169.         <time>2019-09-22T06:48:15.000Z</time>
  2170.       </trkpt>
  2171.       <trkpt lat="36.313920" lon="29.278889">
  2172.         <ele>22.802042</ele>
  2173.         <time>2019-09-22T06:48:24.000Z</time>
  2174.       </trkpt>
  2175.       <trkpt lat="36.313988" lon="29.278965">
  2176.         <ele>22.822426</ele>
  2177.         <time>2019-09-22T06:48:30.000Z</time>
  2178.       </trkpt>
  2179.       <trkpt lat="36.314068" lon="29.279026">
  2180.         <ele>22.843340</ele>
  2181.         <time>2019-09-22T06:48:37.000Z</time>
  2182.       </trkpt>
  2183.       <trkpt lat="36.314140" lon="29.279106">
  2184.         <ele>22.864866</ele>
  2185.         <time>2019-09-22T06:48:45.000Z</time>
  2186.       </trkpt>
  2187.       <trkpt lat="36.314200" lon="29.279192">
  2188.         <ele>22.885283</ele>
  2189.         <time>2019-09-22T06:48:52.000Z</time>
  2190.       </trkpt>
  2191.       <trkpt lat="36.314270" lon="29.279278">
  2192.         <ele>22.907223</ele>
  2193.         <time>2019-09-22T06:49:15.000Z</time>
  2194.       </trkpt>
  2195.       <trkpt lat="36.314340" lon="29.279348">
  2196.         <ele>22.927246</ele>
  2197.         <time>2019-09-22T06:49:24.000Z</time>
  2198.       </trkpt>
  2199.       <trkpt lat="36.314404" lon="29.279428">
  2200.         <ele>22.947480</ele>
  2201.         <time>2019-09-22T06:49:32.000Z</time>
  2202.       </trkpt>
  2203.       <trkpt lat="36.314480" lon="29.279509">
  2204.         <ele>22.952718</ele>
  2205.         <time>2019-09-22T06:49:40.000Z</time>
  2206.       </trkpt>
  2207.       <trkpt lat="36.314545" lon="29.279589">
  2208.         <ele>22.899878</ele>
  2209.         <time>2019-09-22T06:49:48.000Z</time>
  2210.       </trkpt>
  2211.       <trkpt lat="36.314620" lon="29.279665">
  2212.         <ele>22.843990</ele>
  2213.         <time>2019-09-22T06:49:58.000Z</time>
  2214.       </trkpt>
  2215.       <trkpt lat="36.314693" lon="29.279741">
  2216.         <ele>22.788991</ele>
  2217.         <time>2019-09-22T06:50:05.000Z</time>
  2218.       </trkpt>
  2219.       <trkpt lat="36.314770" lon="29.279808">
  2220.         <ele>22.734710</ele>
  2221.         <time>2019-09-22T06:50:11.000Z</time>
  2222.       </trkpt>
  2223.       <trkpt lat="36.314846" lon="29.279873">
  2224.         <ele>22.681434</ele>
  2225.         <time>2019-09-22T06:50:19.000Z</time>
  2226.       </trkpt>
  2227.       <trkpt lat="36.314922" lon="29.279950">
  2228.         <ele>22.624805</ele>
  2229.         <time>2019-09-22T06:50:26.000Z</time>
  2230.       </trkpt>
  2231.       <trkpt lat="36.314995" lon="29.280022">
  2232.         <ele>22.570983</ele>
  2233.         <time>2019-09-22T06:50:32.000Z</time>
  2234.       </trkpt>
  2235.       <trkpt lat="36.315075" lon="29.280085">
  2236.         <ele>22.516294</ele>
  2237.         <time>2019-09-22T06:50:39.000Z</time>
  2238.       </trkpt>
  2239.       <trkpt lat="36.315144" lon="29.280167">
  2240.         <ele>22.461152</ele>
  2241.         <time>2019-09-22T06:50:46.000Z</time>
  2242.       </trkpt>
  2243.       <trkpt lat="36.315200" lon="29.280252">
  2244.         <ele>22.410086</ele>
  2245.         <time>2019-09-22T06:50:55.000Z</time>
  2246.       </trkpt>
  2247.       <trkpt lat="36.315273" lon="29.280329">
  2248.         <ele>22.354787</ele>
  2249.         <time>2019-09-22T06:51:03.000Z</time>
  2250.       </trkpt>
  2251.       <trkpt lat="36.315350" lon="29.280410">
  2252.         <ele>22.296524</ele>
  2253.         <time>2019-09-22T06:51:12.000Z</time>
  2254.       </trkpt>
  2255.       <trkpt lat="36.315422" lon="29.280489">
  2256.         <ele>22.241052</ele>
  2257.         <time>2019-09-22T06:51:20.000Z</time>
  2258.       </trkpt>
  2259.       <trkpt lat="36.315502" lon="29.280561">
  2260.         <ele>22.184012</ele>
  2261.         <time>2019-09-22T06:51:27.000Z</time>
  2262.       </trkpt>
  2263.       <trkpt lat="36.315575" lon="29.280640">
  2264.         <ele>22.128106</ele>
  2265.         <time>2019-09-22T06:51:34.000Z</time>
  2266.       </trkpt>
  2267.       <trkpt lat="36.315647" lon="29.280706">
  2268.         <ele>22.076440</ele>
  2269.         <time>2019-09-22T06:51:42.000Z</time>
  2270.       </trkpt>
  2271.       <trkpt lat="36.315716" lon="29.280785">
  2272.         <ele>22.022253</ele>
  2273.         <time>2019-09-22T06:51:49.000Z</time>
  2274.       </trkpt>
  2275.       <trkpt lat="36.315784" lon="29.280867">
  2276.         <ele>21.967526</ele>
  2277.         <time>2019-09-22T06:51:57.000Z</time>
  2278.       </trkpt>
  2279.       <trkpt lat="36.315857" lon="29.280947">
  2280.         <ele>21.974928</ele>
  2281.         <time>2019-09-22T06:52:05.000Z</time>
  2282.       </trkpt>
  2283.       <trkpt lat="36.315930" lon="29.281025">
  2284.         <ele>22.146960</ele>
  2285.         <time>2019-09-22T06:52:13.000Z</time>
  2286.       </trkpt>
  2287.       <trkpt lat="36.316000" lon="29.281094">
  2288.         <ele>22.306606</ele>
  2289.         <time>2019-09-22T06:52:19.000Z</time>
  2290.       </trkpt>
  2291.       <trkpt lat="36.316082" lon="29.281164">
  2292.         <ele>22.484349</ele>
  2293.         <time>2019-09-22T06:52:26.000Z</time>
  2294.       </trkpt>
  2295.       <trkpt lat="36.316160" lon="29.281235">
  2296.         <ele>22.657100</ele>
  2297.         <time>2019-09-22T06:52:35.000Z</time>
  2298.       </trkpt>
  2299.       <trkpt lat="36.316227" lon="29.281320">
  2300.         <ele>22.828210</ele>
  2301.         <time>2019-09-22T06:52:43.000Z</time>
  2302.       </trkpt>
  2303.       <trkpt lat="36.316290" lon="29.281404">
  2304.         <ele>22.993346</ele>
  2305.         <time>2019-09-22T06:52:50.000Z</time>
  2306.       </trkpt>
  2307.       <trkpt lat="36.316364" lon="29.281467">
  2308.         <ele>23.153609</ele>
  2309.         <time>2019-09-22T06:52:57.000Z</time>
  2310.       </trkpt>
  2311.       <trkpt lat="36.316444" lon="29.281544">
  2312.         <ele>23.334412</ele>
  2313.         <time>2019-09-22T06:53:07.000Z</time>
  2314.       </trkpt>
  2315.       <trkpt lat="36.316513" lon="29.281630">
  2316.         <ele>23.509054</ele>
  2317.         <time>2019-09-22T06:53:15.000Z</time>
  2318.       </trkpt>
  2319.       <trkpt lat="36.316593" lon="29.281706">
  2320.         <ele>23.688979</ele>
  2321.         <time>2019-09-22T06:53:22.000Z</time>
  2322.       </trkpt>
  2323.       <trkpt lat="36.316680" lon="29.281782">
  2324.         <ele>23.878982</ele>
  2325.         <time>2019-09-22T06:53:28.000Z</time>
  2326.       </trkpt>
  2327.       <trkpt lat="36.316753" lon="29.281855">
  2328.         <ele>24.046407</ele>
  2329.         <time>2019-09-22T06:53:35.000Z</time>
  2330.       </trkpt>
  2331.       <trkpt lat="36.316820" lon="29.281940">
  2332.         <ele>24.217516</ele>
  2333.         <time>2019-09-22T06:53:46.000Z</time>
  2334.       </trkpt>
  2335.       <trkpt lat="36.316895" lon="29.282005">
  2336.         <ele>24.380885</ele>
  2337.         <time>2019-09-22T06:53:54.000Z</time>
  2338.       </trkpt>
  2339.       <trkpt lat="36.316970" lon="29.282095">
  2340.         <ele>24.567200</ele>
  2341.         <time>2019-09-22T06:54:01.000Z</time>
  2342.       </trkpt>
  2343.       <trkpt lat="36.317030" lon="29.282188">
  2344.         <ele>24.738639</ele>
  2345.         <time>2019-09-22T06:54:10.000Z</time>
  2346.       </trkpt>
  2347.       <trkpt lat="36.317110" lon="29.282272">
  2348.         <ele>24.925784</ele>
  2349.         <time>2019-09-22T06:54:17.000Z</time>
  2350.       </trkpt>
  2351.       <trkpt lat="36.317177" lon="29.282343">
  2352.         <ele>25.083123</ele>
  2353.         <time>2019-09-22T06:54:47.000Z</time>
  2354.       </trkpt>
  2355.       <trkpt lat="36.317240" lon="29.282423">
  2356.         <ele>25.215764</ele>
  2357.         <time>2019-09-22T06:54:56.000Z</time>
  2358.       </trkpt>
  2359.       <trkpt lat="36.317318" lon="29.282500">
  2360.         <ele>25.345756</ele>
  2361.         <time>2019-09-22T06:55:04.000Z</time>
  2362.       </trkpt>
  2363.       <trkpt lat="36.317410" lon="29.282557">
  2364.         <ele>25.479871</ele>
  2365.         <time>2019-09-22T06:55:11.000Z</time>
  2366.       </trkpt>
  2367.       <trkpt lat="36.317482" lon="29.282625">
  2368.         <ele>25.597878</ele>
  2369.         <time>2019-09-22T06:55:18.000Z</time>
  2370.       </trkpt>
  2371.       <trkpt lat="36.317562" lon="29.282698">
  2372.         <ele>25.727388</ele>
  2373.         <time>2019-09-22T06:55:26.000Z</time>
  2374.       </trkpt>
  2375.       <trkpt lat="36.317650" lon="29.282774">
  2376.         <ele>25.867220</ele>
  2377.         <time>2019-09-22T06:55:34.000Z</time>
  2378.       </trkpt>
  2379.       <trkpt lat="36.317730" lon="29.282833">
  2380.         <ele>25.988595</ele>
  2381.         <time>2019-09-22T06:55:41.000Z</time>
  2382.       </trkpt>
  2383.       <trkpt lat="36.317810" lon="29.282900">
  2384.         <ele>26.114473</ele>
  2385.         <time>2019-09-22T06:55:49.000Z</time>
  2386.       </trkpt>
  2387.       <trkpt lat="36.317886" lon="29.282960">
  2388.         <ele>26.231953</ele>
  2389.         <time>2019-09-22T06:55:56.000Z</time>
  2390.       </trkpt>
  2391.       <trkpt lat="36.317960" lon="29.283037">
  2392.         <ele>26.357904</ele>
  2393.         <time>2019-09-22T06:56:04.000Z</time>
  2394.       </trkpt>
  2395.       <trkpt lat="36.318035" lon="29.283113">
  2396.         <ele>26.484190</ele>
  2397.         <time>2019-09-22T06:56:12.000Z</time>
  2398.       </trkpt>
  2399.       <trkpt lat="36.318110" lon="29.283176">
  2400.         <ele>26.602310</ele>
  2401.         <time>2019-09-22T06:56:19.000Z</time>
  2402.       </trkpt>
  2403.       <trkpt lat="36.318200" lon="29.283241">
  2404.         <ele>26.738124</ele>
  2405.         <time>2019-09-22T06:56:26.000Z</time>
  2406.       </trkpt>
  2407.       <trkpt lat="36.318280" lon="29.283297">
  2408.         <ele>26.857919</ele>
  2409.         <time>2019-09-22T06:56:36.000Z</time>
  2410.       </trkpt>
  2411.       <trkpt lat="36.318363" lon="29.283352">
  2412.         <ele>26.980639</ele>
  2413.         <time>2019-09-22T06:56:42.000Z</time>
  2414.       </trkpt>
  2415.       <trkpt lat="36.318450" lon="29.283388">
  2416.         <ele>27.100252</ele>
  2417.         <time>2019-09-22T06:56:49.000Z</time>
  2418.       </trkpt>
  2419.       <trkpt lat="36.318540" lon="29.283405">
  2420.         <ele>27.218989</ele>
  2421.         <time>2019-09-22T06:56:55.000Z</time>
  2422.       </trkpt>
  2423.       <trkpt lat="36.318634" lon="29.283420">
  2424.         <ele>27.342601</ele>
  2425.         <time>2019-09-22T06:57:02.000Z</time>
  2426.       </trkpt>
  2427.       <trkpt lat="36.318726" lon="29.283459">
  2428.         <ele>27.469401</ele>
  2429.         <time>2019-09-22T06:57:12.000Z</time>
  2430.       </trkpt>
  2431.       <trkpt lat="36.318813" lon="29.283491">
  2432.         <ele>27.298325</ele>
  2433.         <time>2019-09-22T06:57:18.000Z</time>
  2434.       </trkpt>
  2435.       <trkpt lat="36.318905" lon="29.283504">
  2436.         <ele>27.078980</ele>
  2437.         <time>2019-09-22T06:57:26.000Z</time>
  2438.       </trkpt>
  2439.       <trkpt lat="36.319030" lon="29.283535">
  2440.         <ele>26.777016</ele>
  2441.         <time>2019-09-22T06:57:30.000Z</time>
  2442.       </trkpt>
  2443.       <trkpt lat="36.319122" lon="29.283566">
  2444.         <ele>26.551189</ele>
  2445.         <time>2019-09-22T06:57:37.000Z</time>
  2446.       </trkpt>
  2447.       <trkpt lat="36.319202" lon="29.283623">
  2448.         <ele>26.332670</ele>
  2449.         <time>2019-09-22T06:58:04.000Z</time>
  2450.       </trkpt>
  2451.       <trkpt lat="36.319298" lon="29.283653">
  2452.         <ele>26.098159</ele>
  2453.         <time>2019-09-22T06:58:13.000Z</time>
  2454.       </trkpt>
  2455.       <trkpt lat="36.319366" lon="29.283731">
  2456.         <ele>25.878813</ele>
  2457.         <time>2019-09-22T06:58:33.000Z</time>
  2458.       </trkpt>
  2459.       <trkpt lat="36.319460" lon="29.283743">
  2460.         <ele>25.654963</ele>
  2461.         <time>2019-09-22T06:58:39.000Z</time>
  2462.       </trkpt>
  2463.       <trkpt lat="36.319553" lon="29.283766">
  2464.         <ele>25.430325</ele>
  2465.         <time>2019-09-22T06:58:52.000Z</time>
  2466.       </trkpt>
  2467.       <trkpt lat="36.319645" lon="29.283810">
  2468.         <ele>25.196767</ele>
  2469.         <time>2019-09-22T06:59:01.000Z</time>
  2470.       </trkpt>
  2471.       <trkpt lat="36.319744" lon="29.283815">
  2472.         <ele>24.962053</ele>
  2473.         <time>2019-09-22T06:59:07.000Z</time>
  2474.       </trkpt>
  2475.       <trkpt lat="36.319836" lon="29.283823">
  2476.         <ele>24.743581</ele>
  2477.         <time>2019-09-22T06:59:13.000Z</time>
  2478.       </trkpt>
  2479.       <trkpt lat="36.319927" lon="29.283815">
  2480.         <ele>24.527473</ele>
  2481.         <time>2019-09-22T06:59:20.000Z</time>
  2482.       </trkpt>
  2483.       <trkpt lat="36.320020" lon="29.283825">
  2484.         <ele>24.306341</ele>
  2485.         <time>2019-09-22T06:59:28.000Z</time>
  2486.       </trkpt>
  2487.       <trkpt lat="36.320114" lon="29.283821">
  2488.         <ele>24.083535</ele>
  2489.         <time>2019-09-22T06:59:37.000Z</time>
  2490.       </trkpt>
  2491.       <trkpt lat="36.320213" lon="29.283808">
  2492.         <ele>23.847706</ele>
  2493.         <time>2019-09-22T06:59:47.000Z</time>
  2494.       </trkpt>
  2495.       <trkpt lat="36.320316" lon="29.283794">
  2496.         <ele>23.602252</ele>
  2497.         <time>2019-09-22T06:59:53.000Z</time>
  2498.       </trkpt>
  2499.       <trkpt lat="36.320423" lon="29.283792">
  2500.         <ele>23.348753</ele>
  2501.         <time>2019-09-22T07:00:00.000Z</time>
  2502.       </trkpt>
  2503.       <trkpt lat="36.320515" lon="29.283781">
  2504.         <ele>23.183796</ele>
  2505.         <time>2019-09-22T07:00:06.000Z</time>
  2506.       </trkpt>
  2507.       <trkpt lat="36.320606" lon="29.283749">
  2508.         <ele>23.087890</ele>
  2509.         <time>2019-09-22T07:00:13.000Z</time>
  2510.       </trkpt>
  2511.       <trkpt lat="36.320713" lon="29.283735">
  2512.         <ele>22.978791</ele>
  2513.         <time>2019-09-22T07:00:24.000Z</time>
  2514.       </trkpt>
  2515.       <trkpt lat="36.320800" lon="29.283714">
  2516.         <ele>22.888920</ele>
  2517.         <time>2019-09-22T07:00:33.000Z</time>
  2518.       </trkpt>
  2519.       <trkpt lat="36.320900" lon="29.283690">
  2520.         <ele>22.785642</ele>
  2521.         <time>2019-09-22T07:00:40.000Z</time>
  2522.       </trkpt>
  2523.       <trkpt lat="36.320990" lon="29.283678">
  2524.         <ele>22.693857</ele>
  2525.         <time>2019-09-22T07:00:48.000Z</time>
  2526.       </trkpt>
  2527.       <trkpt lat="36.321100" lon="29.283659">
  2528.         <ele>22.581242</ele>
  2529.         <time>2019-09-22T07:00:59.000Z</time>
  2530.       </trkpt>
  2531.       <trkpt lat="36.321087" lon="29.283548">
  2532.         <ele>22.489603</ele>
  2533.         <time>2019-09-22T07:01:14.000Z</time>
  2534.       </trkpt>
  2535.       <trkpt lat="36.321160" lon="29.283627">
  2536.         <ele>22.391395</ele>
  2537.         <time>2019-09-22T07:01:52.000Z</time>
  2538.       </trkpt>
  2539.       <trkpt lat="36.321266" lon="29.283657">
  2540.         <ele>22.281152</ele>
  2541.         <time>2019-09-22T07:01:58.000Z</time>
  2542.       </trkpt>
  2543.       <trkpt lat="36.321377" lon="29.283646">
  2544.         <ele>22.168240</ele>
  2545.         <time>2019-09-22T07:02:07.000Z</time>
  2546.       </trkpt>
  2547.       <trkpt lat="36.321470" lon="29.283638">
  2548.         <ele>22.073712</ele>
  2549.         <time>2019-09-22T07:02:15.000Z</time>
  2550.       </trkpt>
  2551.       <trkpt lat="36.321564" lon="29.283630">
  2552.         <ele>21.978172</ele>
  2553.         <time>2019-09-22T07:02:21.000Z</time>
  2554.       </trkpt>
  2555.       <trkpt lat="36.321674" lon="29.283623">
  2556.         <ele>21.866486</ele>
  2557.         <time>2019-09-22T07:02:32.000Z</time>
  2558.       </trkpt>
  2559.       <trkpt lat="36.321780" lon="29.283625">
  2560.         <ele>21.758989</ele>
  2561.         <time>2019-09-22T07:02:38.000Z</time>
  2562.       </trkpt>
  2563.       <trkpt lat="36.321880" lon="29.283617">
  2564.         <ele>21.657379</ele>
  2565.         <time>2019-09-22T07:02:45.000Z</time>
  2566.       </trkpt>
  2567.       <trkpt lat="36.321980" lon="29.283627">
  2568.         <ele>21.555650</ele>
  2569.         <time>2019-09-22T07:02:52.000Z</time>
  2570.       </trkpt>
  2571.       <trkpt lat="36.322075" lon="29.283630">
  2572.         <ele>21.459289</ele>
  2573.         <time>2019-09-22T07:03:03.000Z</time>
  2574.       </trkpt>
  2575.       <trkpt lat="36.322174" lon="29.283653">
  2576.         <ele>21.410401</ele>
  2577.         <time>2019-09-22T07:03:11.000Z</time>
  2578.       </trkpt>
  2579.       <trkpt lat="36.322273" lon="29.283651">
  2580.         <ele>21.433680</ele>
  2581.         <time>2019-09-22T07:03:21.000Z</time>
  2582.       </trkpt>
  2583.       <trkpt lat="36.322376" lon="29.283644">
  2584.         <ele>21.457933</ele>
  2585.         <time>2019-09-22T07:03:28.000Z</time>
  2586.       </trkpt>
  2587.       <trkpt lat="36.322480" lon="29.283651">
  2588.         <ele>21.482420</ele>
  2589.         <time>2019-09-22T07:03:36.000Z</time>
  2590.       </trkpt>
  2591.       <trkpt lat="36.322580" lon="29.283642">
  2592.         <ele>21.505993</ele>
  2593.         <time>2019-09-22T07:03:44.000Z</time>
  2594.       </trkpt>
  2595.       <trkpt lat="36.322678" lon="29.283648">
  2596.         <ele>21.529062</ele>
  2597.         <time>2019-09-22T07:03:53.000Z</time>
  2598.       </trkpt>
  2599.       <trkpt lat="36.322777" lon="29.283648">
  2600.         <ele>21.552338</ele>
  2601.         <time>2019-09-22T07:04:00.000Z</time>
  2602.       </trkpt>
  2603.       <trkpt lat="36.322870" lon="29.283646">
  2604.         <ele>21.574206</ele>
  2605.         <time>2019-09-22T07:04:07.000Z</time>
  2606.       </trkpt>
  2607.       <trkpt lat="36.322968" lon="29.283644">
  2608.         <ele>21.597250</ele>
  2609.         <time>2019-09-22T07:04:15.000Z</time>
  2610.       </trkpt>
  2611.       <trkpt lat="36.323060" lon="29.283632">
  2612.         <ele>21.618999</ele>
  2613.         <time>2019-09-22T07:04:22.000Z</time>
  2614.       </trkpt>
  2615.       <trkpt lat="36.323160" lon="29.283619">
  2616.         <ele>21.642639</ele>
  2617.         <time>2019-09-22T07:04:30.000Z</time>
  2618.       </trkpt>
  2619.       <trkpt lat="36.323250" lon="29.283611">
  2620.         <ele>21.663853</ele>
  2621.         <time>2019-09-22T07:04:38.000Z</time>
  2622.       </trkpt>
  2623.       <trkpt lat="36.323350" lon="29.283602">
  2624.         <ele>21.687426</ele>
  2625.         <time>2019-09-22T07:04:46.000Z</time>
  2626.       </trkpt>
  2627.       <trkpt lat="36.323440" lon="29.283570">
  2628.         <ele>21.709437</ele>
  2629.         <time>2019-09-22T07:04:52.000Z</time>
  2630.       </trkpt>
  2631.       <trkpt lat="36.323536" lon="29.283560">
  2632.         <ele>21.732087</ele>
  2633.         <time>2019-09-22T07:05:01.000Z</time>
  2634.       </trkpt>
  2635.       <trkpt lat="36.323630" lon="29.283573">
  2636.         <ele>21.754324</ele>
  2637.         <time>2019-09-22T07:05:08.000Z</time>
  2638.       </trkpt>
  2639.       <trkpt lat="36.323715" lon="29.283613">
  2640.         <ele>21.775696</ele>
  2641.         <time>2019-09-22T07:05:15.000Z</time>
  2642.       </trkpt>
  2643.       <trkpt lat="36.323704" lon="29.283730">
  2644.         <ele>21.798009</ele>
  2645.         <time>2019-09-22T07:05:23.000Z</time>
  2646.       </trkpt>
  2647.       <trkpt lat="36.323685" lon="29.283850">
  2648.         <ele>21.821175</ele>
  2649.         <time>2019-09-22T07:05:30.000Z</time>
  2650.       </trkpt>
  2651.       <trkpt lat="36.323692" lon="29.283968">
  2652.         <ele>21.872229</ele>
  2653.         <time>2019-09-22T07:05:36.000Z</time>
  2654.       </trkpt>
  2655.       <trkpt lat="36.323740" lon="29.284073">
  2656.         <ele>21.927316</ele>
  2657.         <time>2019-09-22T07:05:46.000Z</time>
  2658.       </trkpt>
  2659.       <trkpt lat="36.323814" lon="29.284150">
  2660.         <ele>21.982007</ele>
  2661.         <time>2019-09-22T07:05:56.000Z</time>
  2662.       </trkpt>
  2663.       <trkpt lat="36.323906" lon="29.284176">
  2664.         <ele>22.035446</ele>
  2665.         <time>2019-09-22T07:06:06.000Z</time>
  2666.       </trkpt>
  2667.       <trkpt lat="36.324017" lon="29.284190">
  2668.         <ele>22.098636</ele>
  2669.         <time>2019-09-22T07:06:17.000Z</time>
  2670.       </trkpt>
  2671.       <trkpt lat="36.324104" lon="29.284197">
  2672.         <ele>22.148013</ele>
  2673.         <time>2019-09-22T07:06:23.000Z</time>
  2674.       </trkpt>
  2675.       <trkpt lat="36.324210" lon="29.284200">
  2676.         <ele>22.208063</ele>
  2677.         <time>2019-09-22T07:06:28.000Z</time>
  2678.       </trkpt>
  2679.       <trkpt lat="36.324303" lon="29.284224">
  2680.         <ele>22.261861</ele>
  2681.         <time>2019-09-22T07:06:34.000Z</time>
  2682.       </trkpt>
  2683.       <trkpt lat="36.324394" lon="29.284256">
  2684.         <ele>22.315428</ele>
  2685.         <time>2019-09-22T07:06:41.000Z</time>
  2686.       </trkpt>
  2687.       <trkpt lat="36.324490" lon="29.284275">
  2688.         <ele>22.370486</ele>
  2689.         <time>2019-09-22T07:06:49.000Z</time>
  2690.       </trkpt>
  2691.       <trkpt lat="36.324580" lon="29.284296">
  2692.         <ele>22.422352</ele>
  2693.         <time>2019-09-22T07:06:56.000Z</time>
  2694.       </trkpt>
  2695.       <trkpt lat="36.324677" lon="29.284310">
  2696.         <ele>22.477659</ele>
  2697.         <time>2019-09-22T07:07:06.000Z</time>
  2698.       </trkpt>
  2699.       <trkpt lat="36.324768" lon="29.284351">
  2700.         <ele>22.532488</ele>
  2701.         <time>2019-09-22T07:07:12.000Z</time>
  2702.       </trkpt>
  2703.       <trkpt lat="36.324880" lon="29.284397">
  2704.         <ele>22.599304</ele>
  2705.         <time>2019-09-22T07:07:24.000Z</time>
  2706.       </trkpt>
  2707.       <trkpt lat="36.325016" lon="29.284477">
  2708.         <ele>22.684541</ele>
  2709.         <time>2019-09-22T07:15:40.000Z</time>
  2710.       </trkpt>
  2711.       <trkpt lat="36.325110" lon="29.284523">
  2712.         <ele>22.741768</ele>
  2713.         <time>2019-09-22T07:15:46.000Z</time>
  2714.       </trkpt>
  2715.       <trkpt lat="36.325200" lon="29.284538">
  2716.         <ele>22.793198</ele>
  2717.         <time>2019-09-22T07:15:50.000Z</time>
  2718.       </trkpt>
  2719.       <trkpt lat="36.325294" lon="29.284570">
  2720.         <ele>22.842860</ele>
  2721.         <time>2019-09-22T07:15:56.000Z</time>
  2722.       </trkpt>
  2723.       <trkpt lat="36.325386" lon="29.284605">
  2724.         <ele>22.850596</ele>
  2725.         <time>2019-09-22T07:16:04.000Z</time>
  2726.       </trkpt>
  2727.       <trkpt lat="36.325485" lon="29.284622">
  2728.         <ele>22.858630</ele>
  2729.         <time>2019-09-22T07:16:11.000Z</time>
  2730.       </trkpt>
  2731.       <trkpt lat="36.325573" lon="29.284643">
  2732.         <ele>22.865834</ele>
  2733.         <time>2019-09-22T07:16:17.000Z</time>
  2734.       </trkpt>
  2735.       <trkpt lat="36.325680" lon="29.284662">
  2736.         <ele>22.874523</ele>
  2737.         <time>2019-09-22T07:16:27.000Z</time>
  2738.       </trkpt>
  2739.       <trkpt lat="36.325768" lon="29.284672">
  2740.         <ele>22.881627</ele>
  2741.         <time>2019-09-22T07:16:34.000Z</time>
  2742.       </trkpt>
  2743.       <trkpt lat="36.325867" lon="29.284698">
  2744.         <ele>22.889762</ele>
  2745.         <time>2019-09-22T07:16:41.000Z</time>
  2746.       </trkpt>
  2747.       <trkpt lat="36.325950" lon="29.284746">
  2748.         <ele>22.897123</ele>
  2749.         <time>2019-09-22T07:16:50.000Z</time>
  2750.       </trkpt>
  2751.       <trkpt lat="36.326042" lon="29.284788">
  2752.         <ele>22.905003</ele>
  2753.         <time>2019-09-22T07:16:58.000Z</time>
  2754.       </trkpt>
  2755.       <trkpt lat="36.326130" lon="29.284828">
  2756.         <ele>22.912537</ele>
  2757.         <time>2019-09-22T07:17:05.000Z</time>
  2758.       </trkpt>
  2759.       <trkpt lat="36.326214" lon="29.284878">
  2760.         <ele>22.920026</ele>
  2761.         <time>2019-09-22T07:17:12.000Z</time>
  2762.       </trkpt>
  2763.       <trkpt lat="36.326305" lon="29.284940">
  2764.         <ele>22.928371</ele>
  2765.         <time>2019-09-22T07:17:21.000Z</time>
  2766.       </trkpt>
  2767.       <trkpt lat="36.326390" lon="29.285000">
  2768.         <ele>22.936232</ele>
  2769.         <time>2019-09-22T07:17:29.000Z</time>
  2770.       </trkpt>
  2771.       <trkpt lat="36.326485" lon="29.285044">
  2772.         <ele>22.944383</ele>
  2773.         <time>2019-09-22T07:17:35.000Z</time>
  2774.       </trkpt>
  2775.       <trkpt lat="36.326572" lon="29.285105">
  2776.         <ele>22.952416</ele>
  2777.         <time>2019-09-22T07:17:42.000Z</time>
  2778.       </trkpt>
  2779.       <trkpt lat="36.326660" lon="29.285154">
  2780.         <ele>22.960169</ele>
  2781.         <time>2019-09-22T07:17:49.000Z</time>
  2782.       </trkpt>
  2783.       <trkpt lat="36.326748" lon="29.285200">
  2784.         <ele>22.967846</ele>
  2785.         <time>2019-09-22T07:17:57.000Z</time>
  2786.       </trkpt>
  2787.       <trkpt lat="36.326836" lon="29.285260">
  2788.         <ele>22.975917</ele>
  2789.         <time>2019-09-22T07:18:07.000Z</time>
  2790.       </trkpt>
  2791.       <trkpt lat="36.326923" lon="29.285318">
  2792.         <ele>22.983856</ele>
  2793.         <time>2019-09-22T07:18:14.000Z</time>
  2794.       </trkpt>
  2795.       <trkpt lat="36.327010" lon="29.285372">
  2796.         <ele>22.989400</ele>
  2797.         <time>2019-09-22T07:18:20.000Z</time>
  2798.       </trkpt>
  2799.       <trkpt lat="36.327103" lon="29.285418">
  2800.         <ele>22.993884</ele>
  2801.         <time>2019-09-22T07:18:29.000Z</time>
  2802.       </trkpt>
  2803.       <trkpt lat="36.327187" lon="29.285477">
  2804.         <ele>22.998208</ele>
  2805.         <time>2019-09-22T07:18:38.000Z</time>
  2806.       </trkpt>
  2807.       <trkpt lat="36.327274" lon="29.285520">
  2808.         <ele>23.002403</ele>
  2809.         <time>2019-09-22T07:18:45.000Z</time>
  2810.       </trkpt>
  2811.       <trkpt lat="36.327366" lon="29.285553">
  2812.         <ele>23.006692</ele>
  2813.         <time>2019-09-22T07:18:51.000Z</time>
  2814.       </trkpt>
  2815.       <trkpt lat="36.327454" lon="29.285574">
  2816.         <ele>23.010707</ele>
  2817.         <time>2019-09-22T07:18:58.000Z</time>
  2818.       </trkpt>
  2819.       <trkpt lat="36.327540" lon="29.285543">
  2820.         <ele>23.014718</ele>
  2821.         <time>2019-09-22T07:19:06.000Z</time>
  2822.       </trkpt>
  2823.       <trkpt lat="36.327625" lon="29.285490">
  2824.         <ele>23.018979</ele>
  2825.         <time>2019-09-22T07:19:13.000Z</time>
  2826.       </trkpt>
  2827.       <trkpt lat="36.327694" lon="29.285416">
  2828.         <ele>23.023064</ele>
  2829.         <time>2019-09-22T07:19:24.000Z</time>
  2830.       </trkpt>
  2831.       <trkpt lat="36.327760" lon="29.285320">
  2832.         <ele>23.027618</ele>
  2833.         <time>2019-09-22T07:19:31.000Z</time>
  2834.       </trkpt>
  2835.       <trkpt lat="36.327827" lon="29.285238">
  2836.         <ele>23.031833</ele>
  2837.         <time>2019-09-22T07:19:39.000Z</time>
  2838.       </trkpt>
  2839.       <trkpt lat="36.327908" lon="29.285162">
  2840.         <ele>23.036382</ele>
  2841.         <time>2019-09-22T07:19:46.000Z</time>
  2842.       </trkpt>
  2843.       <trkpt lat="36.327984" lon="29.285100">
  2844.         <ele>23.040456</ele>
  2845.         <time>2019-09-22T07:19:54.000Z</time>
  2846.       </trkpt>
  2847.       <trkpt lat="36.328083" lon="29.285070">
  2848.         <ele>23.045021</ele>
  2849.         <time>2019-09-22T07:20:01.000Z</time>
  2850.       </trkpt>
  2851.       <trkpt lat="36.328175" lon="29.285030">
  2852.         <ele>23.049387</ele>
  2853.         <time>2019-09-22T07:20:08.000Z</time>
  2854.       </trkpt>
  2855.       <trkpt lat="36.328260" lon="29.284988">
  2856.         <ele>23.053485</ele>
  2857.         <time>2019-09-22T07:20:14.000Z</time>
  2858.       </trkpt>
  2859.       <trkpt lat="36.328323" lon="29.284908">
  2860.         <ele>23.057523</ele>
  2861.         <time>2019-09-22T07:20:21.000Z</time>
  2862.       </trkpt>
  2863.       <trkpt lat="36.328380" lon="29.284817">
  2864.         <ele>23.061683</ele>
  2865.         <time>2019-09-22T07:20:28.000Z</time>
  2866.       </trkpt>
  2867.       <trkpt lat="36.328457" lon="29.284752">
  2868.         <ele>23.065854</ele>
  2869.         <time>2019-09-22T07:20:36.000Z</time>
  2870.       </trkpt>
  2871.       <trkpt lat="36.328530" lon="29.284681">
  2872.         <ele>23.018657</ele>
  2873.         <time>2019-09-22T07:20:46.000Z</time>
  2874.       </trkpt>
  2875.       <trkpt lat="36.328613" lon="29.284624">
  2876.         <ele>22.947707</ele>
  2877.         <time>2019-09-22T07:20:55.000Z</time>
  2878.       </trkpt>
  2879.       <trkpt lat="36.328697" lon="29.284582">
  2880.         <ele>22.879971</ele>
  2881.         <time>2019-09-22T07:21:03.000Z</time>
  2882.       </trkpt>
  2883.       <trkpt lat="36.328785" lon="29.284560">
  2884.         <ele>22.812828</ele>
  2885.         <time>2019-09-22T07:21:11.000Z</time>
  2886.       </trkpt>
  2887.       <trkpt lat="36.328873" lon="29.284520">
  2888.         <ele>22.742732</ele>
  2889.         <time>2019-09-22T07:21:19.000Z</time>
  2890.       </trkpt>
  2891.       <trkpt lat="36.328934" lon="29.284428">
  2892.         <ele>22.670932</ele>
  2893.         <time>2019-09-22T07:21:27.000Z</time>
  2894.       </trkpt>
  2895.       <trkpt lat="36.329014" lon="29.284365">
  2896.         <ele>22.600067</ele>
  2897.         <time>2019-09-22T07:21:36.000Z</time>
  2898.       </trkpt>
  2899.       <trkpt lat="36.329105" lon="29.284346">
  2900.         <ele>22.531046</ele>
  2901.         <time>2019-09-22T07:21:46.000Z</time>
  2902.       </trkpt>
  2903.       <trkpt lat="36.329197" lon="29.284380">
  2904.         <ele>22.459247</ele>
  2905.         <time>2019-09-22T07:21:59.000Z</time>
  2906.       </trkpt>
  2907.       <trkpt lat="36.329040" lon="29.284418">
  2908.         <ele>22.339603</ele>
  2909.         <time>2019-09-22T07:26:34.000Z</time>
  2910.       </trkpt>
  2911.       <trkpt lat="36.328976" lon="29.284506">
  2912.         <ele>22.268164</ele>
  2913.         <time>2019-09-22T07:26:38.000Z</time>
  2914.       </trkpt>
  2915.       <trkpt lat="36.328926" lon="29.284603">
  2916.         <ele>22.198772</ele>
  2917.         <time>2019-09-22T07:26:43.000Z</time>
  2918.       </trkpt>
  2919.       <trkpt lat="36.328896" lon="29.284725">
  2920.         <ele>22.121908</ele>
  2921.         <time>2019-09-22T07:26:48.000Z</time>
  2922.       </trkpt>
  2923.       <trkpt lat="36.328876" lon="29.284834">
  2924.         <ele>22.054544</ele>
  2925.         <time>2019-09-22T07:26:55.000Z</time>
  2926.       </trkpt>
  2927.       <trkpt lat="36.328857" lon="29.284945">
  2928.         <ele>21.986163</ele>
  2929.         <time>2019-09-22T07:27:03.000Z</time>
  2930.       </trkpt>
  2931.       <trkpt lat="36.328835" lon="29.285059">
  2932.         <ele>21.915524</ele>
  2933.         <time>2019-09-22T07:27:10.000Z</time>
  2934.       </trkpt>
  2935.       <trkpt lat="36.328810" lon="29.285168">
  2936.         <ele>21.847232</ele>
  2937.         <time>2019-09-22T07:27:18.000Z</time>
  2938.       </trkpt>
  2939.       <trkpt lat="36.328785" lon="29.285286">
  2940.         <ele>21.773709</ele>
  2941.         <time>2019-09-22T07:27:25.000Z</time>
  2942.       </trkpt>
  2943.       <trkpt lat="36.328760" lon="29.285414">
  2944.         <ele>21.749935</ele>
  2945.         <time>2019-09-22T07:27:33.000Z</time>
  2946.       </trkpt>
  2947.       <trkpt lat="36.328750" lon="29.285530">
  2948.         <ele>21.822136</ele>
  2949.         <time>2019-09-22T07:27:41.000Z</time>
  2950.       </trkpt>
  2951.       <trkpt lat="36.328730" lon="29.285650">
  2952.         <ele>21.897975</ele>
  2953.         <time>2019-09-22T07:27:48.000Z</time>
  2954.       </trkpt>
  2955.       <trkpt lat="36.328724" lon="29.285769">
  2956.         <ele>21.971767</ele>
  2957.         <time>2019-09-22T07:27:54.000Z</time>
  2958.       </trkpt>
  2959.       <trkpt lat="36.328697" lon="29.285887">
  2960.         <ele>22.047684</ele>
  2961.         <time>2019-09-22T07:28:03.000Z</time>
  2962.       </trkpt>
  2963.       <trkpt lat="36.328682" lon="29.286007">
  2964.         <ele>22.122840</ele>
  2965.         <time>2019-09-22T07:28:11.000Z</time>
  2966.       </trkpt>
  2967.       <trkpt lat="36.328670" lon="29.286127">
  2968.         <ele>22.197677</ele>
  2969.         <time>2019-09-22T07:28:18.000Z</time>
  2970.       </trkpt>
  2971.       <trkpt lat="36.328674" lon="29.286247">
  2972.         <ele>22.272007</ele>
  2973.         <time>2019-09-22T07:28:26.000Z</time>
  2974.       </trkpt>
  2975.       <trkpt lat="36.328716" lon="29.286354">
  2976.         <ele>22.345670</ele>
  2977.         <time>2019-09-22T07:28:34.000Z</time>
  2978.       </trkpt>
  2979.       <trkpt lat="36.328796" lon="29.286440">
  2980.         <ele>22.426970</ele>
  2981.         <time>2019-09-22T07:28:42.000Z</time>
  2982.       </trkpt>
  2983.       <trkpt lat="36.328876" lon="29.286495">
  2984.         <ele>22.497224</ele>
  2985.         <time>2019-09-22T07:28:49.000Z</time>
  2986.       </trkpt>
  2987.       <trkpt lat="36.328957" lon="29.286568">
  2988.         <ele>22.574120</ele>
  2989.         <time>2019-09-22T07:28:58.000Z</time>
  2990.       </trkpt>
  2991.       <trkpt lat="36.329033" lon="29.286644">
  2992.         <ele>22.649093</ele>
  2993.         <time>2019-09-22T07:29:05.000Z</time>
  2994.       </trkpt>
  2995.       <trkpt lat="36.329105" lon="29.286715">
  2996.         <ele>22.719734</ele>
  2997.         <time>2019-09-22T07:29:13.000Z</time>
  2998.       </trkpt>
  2999.       <trkpt lat="36.329155" lon="29.286808">
  3000.         <ele>22.788930</ele>
  3001.         <time>2019-09-22T07:29:23.000Z</time>
  3002.       </trkpt>
  3003.       <trkpt lat="36.329230" lon="29.286877">
  3004.         <ele>22.860645</ele>
  3005.         <time>2019-09-22T07:29:29.000Z</time>
  3006.       </trkpt>
  3007.       <trkpt lat="36.329310" lon="29.286951">
  3008.         <ele>22.937289</ele>
  3009.         <time>2019-09-22T07:29:37.000Z</time>
  3010.       </trkpt>
  3011.       <trkpt lat="36.329388" lon="29.287014">
  3012.         <ele>23.008778</ele>
  3013.         <time>2019-09-22T07:29:45.000Z</time>
  3014.       </trkpt>
  3015.       <trkpt lat="36.329470" lon="29.287067">
  3016.         <ele>23.079799</ele>
  3017.         <time>2019-09-22T07:29:52.000Z</time>
  3018.       </trkpt>
  3019.       <trkpt lat="36.329563" lon="29.287106">
  3020.         <ele>23.171026</ele>
  3021.         <time>2019-09-22T07:29:59.000Z</time>
  3022.       </trkpt>
  3023.       <trkpt lat="36.329655" lon="29.287132">
  3024.         <ele>23.265679</ele>
  3025.         <time>2019-09-22T07:30:08.000Z</time>
  3026.       </trkpt>
  3027.       <trkpt lat="36.329758" lon="29.287151">
  3028.         <ele>23.370141</ele>
  3029.         <time>2019-09-22T07:30:18.000Z</time>
  3030.       </trkpt>
  3031.       <trkpt lat="36.329845" lon="29.287184">
  3032.         <ele>23.461400</ele>
  3033.         <time>2019-09-22T07:30:26.000Z</time>
  3034.       </trkpt>
  3035.       <trkpt lat="36.329940" lon="29.287222">
  3036.         <ele>23.561527</ele>
  3037.         <time>2019-09-22T07:30:33.000Z</time>
  3038.       </trkpt>
  3039.       <trkpt lat="36.330020" lon="29.287283">
  3040.         <ele>23.655713</ele>
  3041.         <time>2019-09-22T07:30:40.000Z</time>
  3042.       </trkpt>
  3043.       <trkpt lat="36.330112" lon="29.287348">
  3044.         <ele>23.761907</ele>
  3045.         <time>2019-09-22T07:30:47.000Z</time>
  3046.       </trkpt>
  3047.       <trkpt lat="36.330185" lon="29.287415">
  3048.         <ele>23.852983</ele>
  3049.         <time>2019-09-22T07:30:55.000Z</time>
  3050.       </trkpt>
  3051.       <trkpt lat="36.330270" lon="29.287457">
  3052.         <ele>23.944760</ele>
  3053.         <time>2019-09-22T07:31:02.000Z</time>
  3054.       </trkpt>
  3055.       <trkpt lat="36.330364" lon="29.287502">
  3056.         <ele>24.045828</ele>
  3057.         <time>2019-09-22T07:31:10.000Z</time>
  3058.       </trkpt>
  3059.       <trkpt lat="36.330440" lon="29.287570">
  3060.         <ele>24.139810</ele>
  3061.         <time>2019-09-22T07:31:17.000Z</time>
  3062.       </trkpt>
  3063.       <trkpt lat="36.330500" lon="29.287660">
  3064.         <ele>24.234220</ele>
  3065.         <time>2019-09-22T07:31:24.000Z</time>
  3066.       </trkpt>
  3067.       <trkpt lat="36.330570" lon="29.287746">
  3068.         <ele>24.333021</ele>
  3069.         <time>2019-09-22T07:31:33.000Z</time>
  3070.       </trkpt>
  3071.       <trkpt lat="36.330643" lon="29.287819">
  3072.         <ele>24.427061</ele>
  3073.         <time>2019-09-22T07:31:40.000Z</time>
  3074.       </trkpt>
  3075.       <trkpt lat="36.330720" lon="29.287880">
  3076.         <ele>24.518695</ele>
  3077.         <time>2019-09-22T07:31:48.000Z</time>
  3078.       </trkpt>
  3079.       <trkpt lat="36.330807" lon="29.287912">
  3080.         <ele>24.609722</ele>
  3081.         <time>2019-09-22T07:31:59.000Z</time>
  3082.       </trkpt>
  3083.       <trkpt lat="36.330906" lon="29.287931">
  3084.         <ele>24.710216</ele>
  3085.         <time>2019-09-22T07:32:06.000Z</time>
  3086.       </trkpt>
  3087.       <trkpt lat="36.331005" lon="29.287970">
  3088.         <ele>24.814411</ele>
  3089.         <time>2019-09-22T07:32:14.000Z</time>
  3090.       </trkpt>
  3091.       <trkpt lat="36.331090" lon="29.288033">
  3092.         <ele>24.905562</ele>
  3093.         <time>2019-09-22T07:32:23.000Z</time>
  3094.       </trkpt>
  3095.       <trkpt lat="36.331158" lon="29.288107">
  3096.         <ele>24.870501</ele>
  3097.         <time>2019-09-22T07:32:30.000Z</time>
  3098.       </trkpt>
  3099.       <trkpt lat="36.331240" lon="29.288160">
  3100.         <ele>24.834657</ele>
  3101.         <time>2019-09-22T07:32:38.000Z</time>
  3102.       </trkpt>
  3103.       <trkpt lat="36.331326" lon="29.288235">
  3104.         <ele>24.793908</ele>
  3105.         <time>2019-09-22T07:32:46.000Z</time>
  3106.       </trkpt>
  3107.       <trkpt lat="36.331398" lon="29.288305">
  3108.         <ele>24.758450</ele>
  3109.         <time>2019-09-22T07:32:57.000Z</time>
  3110.       </trkpt>
  3111.       <trkpt lat="36.331474" lon="29.288385">
  3112.         <ele>24.719816</ele>
  3113.         <time>2019-09-22T07:33:11.000Z</time>
  3114.       </trkpt>
  3115.       <trkpt lat="36.331554" lon="29.288450">
  3116.         <ele>24.682746</ele>
  3117.         <time>2019-09-22T07:33:19.000Z</time>
  3118.       </trkpt>
  3119.       <trkpt lat="36.331630" lon="29.288520">
  3120.         <ele>24.646055</ele>
  3121.         <time>2019-09-22T07:33:27.000Z</time>
  3122.       </trkpt>
  3123.       <trkpt lat="36.331700" lon="29.288605">
  3124.         <ele>24.608089</ele>
  3125.         <time>2019-09-22T07:33:35.000Z</time>
  3126.       </trkpt>
  3127.       <trkpt lat="36.331770" lon="29.288680">
  3128.         <ele>24.572238</ele>
  3129.         <time>2019-09-22T07:33:45.000Z</time>
  3130.       </trkpt>
  3131.       <trkpt lat="36.331856" lon="29.288733">
  3132.         <ele>24.535012</ele>
  3133.         <time>2019-09-22T07:33:51.000Z</time>
  3134.       </trkpt>
  3135.       <trkpt lat="36.331947" lon="29.288776">
  3136.         <ele>24.497261</ele>
  3137.         <time>2019-09-22T07:34:02.000Z</time>
  3138.       </trkpt>
  3139.       <trkpt lat="36.332030" lon="29.288841">
  3140.         <ele>24.459213</ele>
  3141.         <time>2019-09-22T07:34:09.000Z</time>
  3142.       </trkpt>
  3143.       <trkpt lat="36.332115" lon="29.288883">
  3144.         <ele>24.423743</ele>
  3145.         <time>2019-09-22T07:34:17.000Z</time>
  3146.       </trkpt>
  3147.       <trkpt lat="36.332184" lon="29.288960">
  3148.         <ele>24.387770</ele>
  3149.         <time>2019-09-22T07:34:27.000Z</time>
  3150.       </trkpt>
  3151.       <trkpt lat="36.332253" lon="29.289040">
  3152.         <ele>24.351164</ele>
  3153.         <time>2019-09-22T07:34:40.000Z</time>
  3154.       </trkpt>
  3155.       <trkpt lat="36.332410" lon="29.289103">
  3156.         <ele>24.287192</ele>
  3157.         <time>2019-09-22T07:35:04.000Z</time>
  3158.       </trkpt>
  3159.       <trkpt lat="36.332508" lon="29.289130">
  3160.         <ele>24.248273</ele>
  3161.         <time>2019-09-22T07:35:11.000Z</time>
  3162.       </trkpt>
  3163.       <trkpt lat="36.332607" lon="29.289145">
  3164.         <ele>24.212867</ele>
  3165.         <time>2019-09-22T07:35:19.000Z</time>
  3166.       </trkpt>
  3167.       <trkpt lat="36.332700" lon="29.289160">
  3168.         <ele>24.310356</ele>
  3169.         <time>2019-09-22T07:35:26.000Z</time>
  3170.       </trkpt>
  3171.       <trkpt lat="36.332800" lon="29.289185">
  3172.         <ele>24.416397</ele>
  3173.         <time>2019-09-22T07:35:36.000Z</time>
  3174.       </trkpt>
  3175.       <trkpt lat="36.332882" lon="29.289260">
  3176.         <ele>24.522280</ele>
  3177.         <time>2019-09-22T07:35:45.000Z</time>
  3178.       </trkpt>
  3179.       <trkpt lat="36.332893" lon="29.289375">
  3180.         <ele>24.619261</ele>
  3181.         <time>2019-09-22T07:35:53.000Z</time>
  3182.       </trkpt>
  3183.       <trkpt lat="36.332874" lon="29.289501">
  3184.         <ele>24.726611</ele>
  3185.         <time>2019-09-22T07:36:01.000Z</time>
  3186.       </trkpt>
  3187.       <trkpt lat="36.332867" lon="29.289616">
  3188.         <ele>24.823191</ele>
  3189.         <time>2019-09-22T07:36:08.000Z</time>
  3190.       </trkpt>
  3191.       <trkpt lat="36.332848" lon="29.289738">
  3192.         <ele>24.927251</ele>
  3193.         <time>2019-09-22T07:36:16.000Z</time>
  3194.       </trkpt>
  3195.       <trkpt lat="36.332760" lon="29.289772">
  3196.         <ele>25.023059</ele>
  3197.         <time>2019-09-22T07:36:25.000Z</time>
  3198.       </trkpt>
  3199.       <trkpt lat="36.332703" lon="29.289860">
  3200.         <ele>25.117620</ele>
  3201.         <time>2019-09-22T07:36:36.000Z</time>
  3202.       </trkpt>
  3203.       <trkpt lat="36.332752" lon="29.290060">
  3204.         <ele>25.292683</ele>
  3205.         <time>2019-09-22T07:38:32.000Z</time>
  3206.       </trkpt>
  3207.       <trkpt lat="36.332836" lon="29.290138">
  3208.         <ele>25.401732</ele>
  3209.         <time>2019-09-22T07:38:38.000Z</time>
  3210.       </trkpt>
  3211.       <trkpt lat="36.332756" lon="29.290062">
  3212.         <ele>25.506454</ele>
  3213.         <time>2019-09-22T07:49:53.000Z</time>
  3214.       </trkpt>
  3215.       <trkpt lat="36.332660" lon="29.290050">
  3216.         <ele>25.606755</ele>
  3217.         <time>2019-09-22T07:50:02.000Z</time>
  3218.       </trkpt>
  3219.       <trkpt lat="36.332584" lon="29.289984">
  3220.         <ele>25.703174</ele>
  3221.         <time>2019-09-22T07:50:09.000Z</time>
  3222.       </trkpt>
  3223.       <trkpt lat="36.332523" lon="29.289896">
  3224.         <ele>25.800395</ele>
  3225.         <time>2019-09-22T07:50:18.000Z</time>
  3226.       </trkpt>
  3227.       <trkpt lat="36.332424" lon="29.289925">
  3228.         <ele>25.906136</ele>
  3229.         <time>2019-09-22T07:50:27.000Z</time>
  3230.       </trkpt>
  3231.       <trkpt lat="36.332340" lon="29.289972">
  3232.         <ele>26.001918</ele>
  3233.         <time>2019-09-22T07:50:36.000Z</time>
  3234.       </trkpt>
  3235.       <trkpt lat="36.332260" lon="29.289917">
  3236.         <ele>26.086314</ele>
  3237.         <time>2019-09-22T07:50:47.000Z</time>
  3238.       </trkpt>
  3239.       <trkpt lat="36.332203" lon="29.289830">
  3240.         <ele>26.120359</ele>
  3241.         <time>2019-09-22T07:50:59.000Z</time>
  3242.       </trkpt>
  3243.       <trkpt lat="36.332140" lon="29.289736">
  3244.         <ele>26.157482</ele>
  3245.         <time>2019-09-22T07:51:11.000Z</time>
  3246.       </trkpt>
  3247.       <trkpt lat="36.332092" lon="29.289633">
  3248.         <ele>26.193607</ele>
  3249.         <time>2019-09-22T07:51:21.000Z</time>
  3250.       </trkpt>
  3251.       <trkpt lat="36.332000" lon="29.289640">
  3252.         <ele>26.228343</ele>
  3253.         <time>2019-09-22T07:51:32.000Z</time>
  3254.       </trkpt>
  3255.       <trkpt lat="36.331960" lon="29.289768">
  3256.         <ele>26.270024</ele>
  3257.         <time>2019-09-22T07:52:09.000Z</time>
  3258.       </trkpt>
  3259.       <trkpt lat="36.331913" lon="29.289867">
  3260.         <ele>26.304911</ele>
  3261.         <time>2019-09-22T07:52:31.000Z</time>
  3262.       </trkpt>
  3263.       <trkpt lat="36.331825" lon="29.289862">
  3264.         <ele>26.338109</ele>
  3265.         <time>2019-09-22T07:52:46.000Z</time>
  3266.       </trkpt>
  3267.       <trkpt lat="36.331745" lon="29.289919">
  3268.         <ele>26.372871</ele>
  3269.         <time>2019-09-22T07:53:19.000Z</time>
  3270.       </trkpt>
  3271.       <trkpt lat="36.331710" lon="29.290030">
  3272.         <ele>26.409059</ele>
  3273.         <time>2019-09-22T07:53:44.000Z</time>
  3274.       </trkpt>
  3275.       <trkpt lat="36.331745" lon="29.290167">
  3276.         <ele>26.452693</ele>
  3277.         <time>2019-09-22T07:54:31.000Z</time>
  3278.       </trkpt>
  3279.       <trkpt lat="36.331680" lon="29.290247">
  3280.         <ele>26.487188</ele>
  3281.         <time>2019-09-22T07:54:57.000Z</time>
  3282.       </trkpt>
  3283.       <trkpt lat="36.331642" lon="29.290146">
  3284.         <ele>26.521030</ele>
  3285.         <time>2019-09-22T07:56:50.000Z</time>
  3286.       </trkpt>
  3287.       <trkpt lat="36.331715" lon="29.290060">
  3288.         <ele>26.558958</ele>
  3289.         <time>2019-09-22T07:57:45.000Z</time>
  3290.       </trkpt>
  3291.       <trkpt lat="36.331710" lon="29.289936">
  3292.         <ele>26.596651</ele>
  3293.         <time>2019-09-22T07:58:08.000Z</time>
  3294.       </trkpt>
  3295.       <trkpt lat="36.331740" lon="29.289822">
  3296.         <ele>26.633061</ele>
  3297.         <time>2019-09-22T07:58:18.000Z</time>
  3298.       </trkpt>
  3299.       <trkpt lat="36.331696" lon="29.289633">
  3300.         <ele>26.692788</ele>
  3301.         <time>2019-09-22T07:59:51.000Z</time>
  3302.       </trkpt>
  3303.       <trkpt lat="36.331750" lon="29.289722">
  3304.         <ele>26.726614</ele>
  3305.         <time>2019-09-22T08:01:45.000Z</time>
  3306.       </trkpt>
  3307.       <trkpt lat="36.331726" lon="29.289616">
  3308.         <ele>26.746296</ele>
  3309.         <time>2019-09-22T08:02:30.000Z</time>
  3310.       </trkpt>
  3311.       <trkpt lat="36.331650" lon="29.289515">
  3312.         <ele>26.494970</ele>
  3313.         <time>2019-09-22T08:04:41.000Z</time>
  3314.       </trkpt>
  3315.       <trkpt lat="36.331646" lon="29.289402">
  3316.         <ele>26.289283</ele>
  3317.         <time>2019-09-22T08:05:17.000Z</time>
  3318.       </trkpt>
  3319.       <trkpt lat="36.331590" lon="29.289309">
  3320.         <ele>26.078143</ele>
  3321.         <time>2019-09-22T08:05:27.000Z</time>
  3322.       </trkpt>
  3323.       <trkpt lat="36.331493" lon="29.289340">
  3324.         <ele>25.852044</ele>
  3325.         <time>2019-09-22T08:05:37.000Z</time>
  3326.       </trkpt>
  3327.       <trkpt lat="36.331398" lon="29.289335">
  3328.         <ele>25.637408</ele>
  3329.         <time>2019-09-22T08:05:47.000Z</time>
  3330.       </trkpt>
  3331.       <trkpt lat="36.331260" lon="29.289253">
  3332.         <ele>25.292049</ele>
  3333.         <time>2019-09-22T08:08:10.000Z</time>
  3334.       </trkpt>
  3335.       <trkpt lat="36.331180" lon="29.289173">
  3336.         <ele>25.060155</ele>
  3337.         <time>2019-09-22T08:08:20.000Z</time>
  3338.       </trkpt>
  3339.       <trkpt lat="36.331043" lon="29.289085">
  3340.         <ele>24.711953</ele>
  3341.         <time>2019-09-22T08:10:00.000Z</time>
  3342.       </trkpt>
  3343.       <trkpt lat="36.330967" lon="29.289015">
  3344.         <ele>24.498329</ele>
  3345.         <time>2019-09-22T08:10:19.000Z</time>
  3346.       </trkpt>
  3347.       <trkpt lat="36.330883" lon="29.288969">
  3348.         <ele>24.291084</ele>
  3349.         <time>2019-09-22T08:10:29.000Z</time>
  3350.       </trkpt>
  3351.       <trkpt lat="36.330850" lon="29.288858">
  3352.         <ele>24.075924</ele>
  3353.         <time>2019-09-22T08:11:04.000Z</time>
  3354.       </trkpt>
  3355.       <trkpt lat="36.330894" lon="29.288755">
  3356.         <ele>23.863914</ele>
  3357.         <time>2019-09-22T08:11:26.000Z</time>
  3358.       </trkpt>
  3359.       <trkpt lat="36.330925" lon="29.288652">
  3360.         <ele>23.663964</ele>
  3361.         <time>2019-09-22T08:12:07.000Z</time>
  3362.       </trkpt>
  3363.       <trkpt lat="36.330956" lon="29.288538">
  3364.         <ele>23.445163</ele>
  3365.         <time>2019-09-22T08:12:45.000Z</time>
  3366.       </trkpt>
  3367.       <trkpt lat="36.330920" lon="29.288424">
  3368.         <ele>23.222496</ele>
  3369.         <time>2019-09-22T08:12:55.000Z</time>
  3370.       </trkpt>
  3371.       <trkpt lat="36.330830" lon="29.288393">
  3372.         <ele>23.011662</ele>
  3373.         <time>2019-09-22T08:13:04.000Z</time>
  3374.       </trkpt>
  3375.       <trkpt lat="36.330730" lon="29.288400">
  3376.         <ele>22.785574</ele>
  3377.         <time>2019-09-22T08:13:15.000Z</time>
  3378.       </trkpt>
  3379.       <trkpt lat="36.330643" lon="29.288460">
  3380.         <ele>22.726236</ele>
  3381.         <time>2019-09-22T08:14:12.000Z</time>
  3382.       </trkpt>
  3383.       <trkpt lat="36.330563" lon="29.288527">
  3384.         <ele>22.771112</ele>
  3385.         <time>2019-09-22T08:14:24.000Z</time>
  3386.       </trkpt>
  3387.       <trkpt lat="36.330566" lon="29.288650">
  3388.         <ele>22.817211</ele>
  3389.         <time>2019-09-22T08:14:55.000Z</time>
  3390.       </trkpt>
  3391.       <trkpt lat="36.330482" lon="29.288708">
  3392.         <ele>22.861908</ele>
  3393.         <time>2019-09-22T08:15:09.000Z</time>
  3394.       </trkpt>
  3395.       <trkpt lat="36.330402" lon="29.288767">
  3396.         <ele>22.905180</ele>
  3397.         <time>2019-09-22T08:15:36.000Z</time>
  3398.       </trkpt>
  3399.       <trkpt lat="36.330357" lon="29.288870">
  3400.         <ele>22.949074</ele>
  3401.         <time>2019-09-22T08:15:48.000Z</time>
  3402.       </trkpt>
  3403.       <trkpt lat="36.330440" lon="29.288912">
  3404.         <ele>22.990754</ele>
  3405.         <time>2019-09-22T08:16:21.000Z</time>
  3406.       </trkpt>
  3407.       <trkpt lat="36.330482" lon="29.289017">
  3408.         <ele>23.034670</ele>
  3409.         <time>2019-09-22T08:17:14.000Z</time>
  3410.       </trkpt>
  3411.       <trkpt lat="36.330566" lon="29.289078">
  3412.         <ele>23.079924</ele>
  3413.         <time>2019-09-22T08:17:25.000Z</time>
  3414.       </trkpt>
  3415.       <trkpt lat="36.330654" lon="29.289133">
  3416.         <ele>23.125739</ele>
  3417.         <time>2019-09-22T08:17:36.000Z</time>
  3418.       </trkpt>
  3419.       <trkpt lat="36.330746" lon="29.289095">
  3420.         <ele>23.170826</ele>
  3421.         <time>2019-09-22T08:17:45.000Z</time>
  3422.       </trkpt>
  3423.       <trkpt lat="36.330772" lon="29.288982">
  3424.         <ele>23.214851</ele>
  3425.         <time>2019-09-22T08:18:27.000Z</time>
  3426.       </trkpt>
  3427.       <trkpt lat="36.330704" lon="29.288898">
  3428.         <ele>23.259461</ele>
  3429.         <time>2019-09-22T08:18:51.000Z</time>
  3430.       </trkpt>
  3431.       <trkpt lat="36.330620" lon="29.288840">
  3432.         <ele>23.304158</ele>
  3433.         <time>2019-09-22T08:19:01.000Z</time>
  3434.       </trkpt>
  3435.       <trkpt lat="36.330547" lon="29.288754">
  3436.         <ele>23.350958</ele>
  3437.         <time>2019-09-22T08:19:15.000Z</time>
  3438.       </trkpt>
  3439.       <trkpt lat="36.330566" lon="29.288640">
  3440.         <ele>23.394569</ele>
  3441.         <time>2019-09-22T08:19:24.000Z</time>
  3442.       </trkpt>
  3443.       <trkpt lat="36.330640" lon="29.288723">
  3444.         <ele>23.440946</ele>
  3445.         <time>2019-09-22T08:19:49.000Z</time>
  3446.       </trkpt>
  3447.       <trkpt lat="36.330727" lon="29.288780">
  3448.         <ele>23.486691</ele>
  3449.         <time>2019-09-22T08:20:00.000Z</time>
  3450.       </trkpt>
  3451.       <trkpt lat="36.330800" lon="29.288853">
  3452.         <ele>23.530282</ele>
  3453.         <time>2019-09-22T08:20:10.000Z</time>
  3454.       </trkpt>
  3455.       <trkpt lat="36.330890" lon="29.288870">
  3456.         <ele>23.647404</ele>
  3457.         <time>2019-09-22T08:20:23.000Z</time>
  3458.       </trkpt>
  3459.       <trkpt lat="36.330975" lon="29.288795">
  3460.         <ele>23.790758</ele>
  3461.         <time>2019-09-22T08:21:18.000Z</time>
  3462.       </trkpt>
  3463.       <trkpt lat="36.331040" lon="29.288712">
  3464.         <ele>23.918944</ele>
  3465.         <time>2019-09-22T08:21:27.000Z</time>
  3466.       </trkpt>
  3467.       <trkpt lat="36.331028" lon="29.288837">
  3468.         <ele>24.058348</ele>
  3469.         <time>2019-09-22T08:22:02.000Z</time>
  3470.       </trkpt>
  3471.       <trkpt lat="36.331024" lon="29.288952">
  3472.         <ele>24.185818</ele>
  3473.         <time>2019-09-22T08:22:11.000Z</time>
  3474.       </trkpt>
  3475.       <trkpt lat="36.331070" lon="29.289051">
  3476.         <ele>24.312379</ele>
  3477.         <time>2019-09-22T08:22:19.000Z</time>
  3478.       </trkpt>
  3479.       <trkpt lat="36.331112" lon="29.289152">
  3480.         <ele>24.438248</ele>
  3481.         <time>2019-09-22T08:22:27.000Z</time>
  3482.       </trkpt>
  3483.       <trkpt lat="36.331028" lon="29.289200">
  3484.         <ele>24.565363</ele>
  3485.         <time>2019-09-22T08:23:21.000Z</time>
  3486.       </trkpt>
  3487.       <trkpt lat="36.330936" lon="29.289202">
  3488.         <ele>24.691847</ele>
  3489.         <time>2019-09-22T08:23:41.000Z</time>
  3490.       </trkpt>
  3491.       <trkpt lat="36.330845" lon="29.289202">
  3492.         <ele>24.816937</ele>
  3493.         <time>2019-09-22T08:24:12.000Z</time>
  3494.       </trkpt>
  3495.       <trkpt lat="36.330753" lon="29.289236">
  3496.         <ele>24.948887</ele>
  3497.         <time>2019-09-22T08:24:23.000Z</time>
  3498.       </trkpt>
  3499.       <trkpt lat="36.330660" lon="29.289179">
  3500.         <ele>25.091461</ele>
  3501.         <time>2019-09-22T08:24:43.000Z</time>
  3502.       </trkpt>
  3503.       <trkpt lat="36.330574" lon="29.289135">
  3504.         <ele>25.219326</ele>
  3505.         <time>2019-09-22T08:24:52.000Z</time>
  3506.       </trkpt>
  3507.       <trkpt lat="36.330650" lon="29.289206">
  3508.         <ele>25.350078</ele>
  3509.         <time>2019-09-22T08:25:40.000Z</time>
  3510.       </trkpt>
  3511.       <trkpt lat="36.330730" lon="29.289268">
  3512.         <ele>25.479721</ele>
  3513.         <time>2019-09-22T08:25:48.000Z</time>
  3514.       </trkpt>
  3515.       <trkpt lat="36.330814" lon="29.289213">
  3516.         <ele>25.610268</ele>
  3517.         <time>2019-09-22T08:26:01.000Z</time>
  3518.       </trkpt>
  3519.       <trkpt lat="36.330906" lon="29.289196">
  3520.         <ele>25.738126</ele>
  3521.         <time>2019-09-22T08:26:10.000Z</time>
  3522.       </trkpt>
  3523.       <trkpt lat="36.330997" lon="29.289207">
  3524.         <ele>25.863808</ele>
  3525.         <time>2019-09-22T08:26:19.000Z</time>
  3526.       </trkpt>
  3527.       <trkpt lat="36.331093" lon="29.289232">
  3528.         <ele>25.998644</ele>
  3529.         <time>2019-09-22T08:26:29.000Z</time>
  3530.       </trkpt>
  3531.       <trkpt lat="36.331093" lon="29.289118">
  3532.         <ele>25.943901</ele>
  3533.         <time>2019-09-22T08:26:42.000Z</time>
  3534.       </trkpt>
  3535.       <trkpt lat="36.331013" lon="29.289060">
  3536.         <ele>25.876029</ele>
  3537.         <time>2019-09-22T08:26:49.000Z</time>
  3538.       </trkpt>
  3539.       <trkpt lat="36.330925" lon="29.289010">
  3540.         <ele>25.805129</ele>
  3541.         <time>2019-09-22T08:26:57.000Z</time>
  3542.       </trkpt>
  3543.       <trkpt lat="36.330840" lon="29.288948">
  3544.         <ele>25.732903</ele>
  3545.         <time>2019-09-22T08:27:06.000Z</time>
  3546.       </trkpt>
  3547.       <trkpt lat="36.330765" lon="29.289020">
  3548.         <ele>25.663444</ele>
  3549.         <time>2019-09-22T08:27:31.000Z</time>
  3550.       </trkpt>
  3551.       <trkpt lat="36.330680" lon="29.288967">
  3552.         <ele>25.593758</ele>
  3553.         <time>2019-09-22T08:27:46.000Z</time>
  3554.       </trkpt>
  3555.       <trkpt lat="36.330740" lon="29.289060">
  3556.         <ele>25.523440</ele>
  3557.         <time>2019-09-22T08:29:14.000Z</time>
  3558.       </trkpt>
  3559.       <trkpt lat="36.330807" lon="29.288982">
  3560.         <ele>25.456147</ele>
  3561.         <time>2019-09-22T08:29:23.000Z</time>
  3562.       </trkpt>
  3563.       <trkpt lat="36.330900" lon="29.288998">
  3564.         <ele>25.387364</ele>
  3565.         <time>2019-09-22T08:29:34.000Z</time>
  3566.       </trkpt>
  3567.       <trkpt lat="36.330980" lon="29.289051">
  3568.         <ele>25.320932</ele>
  3569.         <time>2019-09-22T08:29:43.000Z</time>
  3570.       </trkpt>
  3571.       <trkpt lat="36.331066" lon="29.289116">
  3572.         <ele>25.247169</ele>
  3573.         <time>2019-09-22T08:29:52.000Z</time>
  3574.       </trkpt>
  3575.       <trkpt lat="36.331140" lon="29.289183">
  3576.         <ele>25.180068</ele>
  3577.         <time>2019-09-22T08:30:01.000Z</time>
  3578.       </trkpt>
  3579.       <trkpt lat="36.331290" lon="29.289255">
  3580.         <ele>25.062249</ele>
  3581.         <time>2019-09-22T08:32:35.000Z</time>
  3582.       </trkpt>
  3583.       <trkpt lat="36.331380" lon="29.289307">
  3584.         <ele>24.989523</ele>
  3585.         <time>2019-09-22T08:32:43.000Z</time>
  3586.       </trkpt>
  3587.       <trkpt lat="36.331463" lon="29.289345">
  3588.         <ele>24.924714</ele>
  3589.         <time>2019-09-22T08:32:51.000Z</time>
  3590.       </trkpt>
  3591.       <trkpt lat="36.331560" lon="29.289340">
  3592.         <ele>24.853591</ele>
  3593.         <time>2019-09-22T08:33:00.000Z</time>
  3594.       </trkpt>
  3595.       <trkpt lat="36.331650" lon="29.289364">
  3596.         <ele>24.786153</ele>
  3597.         <time>2019-09-22T08:33:13.000Z</time>
  3598.       </trkpt>
  3599.       <trkpt lat="36.331654" lon="29.289480">
  3600.         <ele>24.717630</ele>
  3601.         <time>2019-09-22T08:33:23.000Z</time>
  3602.       </trkpt>
  3603.       <trkpt lat="36.331684" lon="29.289589">
  3604.         <ele>24.747313</ele>
  3605.         <time>2019-09-22T08:33:40.000Z</time>
  3606.       </trkpt>
  3607.       <trkpt lat="36.331690" lon="29.289701">
  3608.         <ele>24.844864</ele>
  3609.         <time>2019-09-22T08:33:53.000Z</time>
  3610.       </trkpt>
  3611.       <trkpt lat="36.331757" lon="29.289787">
  3612.         <ele>24.948836</ele>
  3613.         <time>2019-09-22T08:34:03.000Z</time>
  3614.       </trkpt>
  3615.       <trkpt lat="36.331900" lon="29.289831">
  3616.         <ele>25.107770</ele>
  3617.         <time>2019-09-22T08:35:07.000Z</time>
  3618.       </trkpt>
  3619.       <trkpt lat="36.331955" lon="29.289730">
  3620.         <ele>25.213718</ele>
  3621.         <time>2019-09-22T08:35:15.000Z</time>
  3622.       </trkpt>
  3623.       <trkpt lat="36.331974" lon="29.289614">
  3624.         <ele>25.316593</ele>
  3625.         <time>2019-09-22T08:35:23.000Z</time>
  3626.       </trkpt>
  3627.       <trkpt lat="36.332054" lon="29.289545">
  3628.         <ele>25.421683</ele>
  3629.         <time>2019-09-22T08:35:32.000Z</time>
  3630.       </trkpt>
  3631.       <trkpt lat="36.332120" lon="29.289639">
  3632.         <ele>25.530048</ele>
  3633.         <time>2019-09-22T08:35:40.000Z</time>
  3634.       </trkpt>
  3635.       <trkpt lat="36.332170" lon="29.289747">
  3636.         <ele>25.638302</ele>
  3637.         <time>2019-09-22T08:35:49.000Z</time>
  3638.       </trkpt>
  3639.       <trkpt lat="36.332222" lon="29.289840">
  3640.         <ele>25.736685</ele>
  3641.         <time>2019-09-22T08:35:57.000Z</time>
  3642.       </trkpt>
  3643.       <trkpt lat="36.332280" lon="29.289934">
  3644.         <ele>25.839585</ele>
  3645.         <time>2019-09-22T08:36:06.000Z</time>
  3646.       </trkpt>
  3647.       <trkpt lat="36.332350" lon="29.290010">
  3648.         <ele>25.939909</ele>
  3649.         <time>2019-09-22T08:36:15.000Z</time>
  3650.       </trkpt>
  3651.       <trkpt lat="36.332430" lon="29.289944">
  3652.         <ele>26.043534</ele>
  3653.         <time>2019-09-22T08:36:23.000Z</time>
  3654.       </trkpt>
  3655.       <trkpt lat="36.332516" lon="29.289888">
  3656.         <ele>26.148300</ele>
  3657.         <time>2019-09-22T08:36:40.000Z</time>
  3658.       </trkpt>
  3659.       <trkpt lat="36.332600" lon="29.289934">
  3660.         <ele>26.247344</ele>
  3661.         <time>2019-09-22T08:36:48.000Z</time>
  3662.       </trkpt>
  3663.       <trkpt lat="36.332664" lon="29.290026">
  3664.         <ele>26.352981</ele>
  3665.         <time>2019-09-22T08:36:59.000Z</time>
  3666.       </trkpt>
  3667.       <trkpt lat="36.332730" lon="29.289940">
  3668.         <ele>26.456206</ele>
  3669.         <time>2019-09-22T08:37:16.000Z</time>
  3670.       </trkpt>
  3671.       <trkpt lat="36.332630" lon="29.289900">
  3672.         <ele>26.569547</ele>
  3673.         <time>2019-09-22T08:37:38.000Z</time>
  3674.       </trkpt>
  3675.       <trkpt lat="36.332750" lon="29.289766">
  3676.         <ele>26.683665</ele>
  3677.         <time>2019-09-22T08:44:57.000Z</time>
  3678.       </trkpt>
  3679.       <trkpt lat="36.332840" lon="29.289783">
  3680.         <ele>26.730259</ele>
  3681.         <time>2019-09-22T08:45:06.000Z</time>
  3682.       </trkpt>
  3683.       <trkpt lat="36.332870" lon="29.289890">
  3684.         <ele>26.776972</ele>
  3685.         <time>2019-09-22T08:45:15.000Z</time>
  3686.       </trkpt>
  3687.       <trkpt lat="36.332916" lon="29.289997">
  3688.         <ele>26.826978</ele>
  3689.         <time>2019-09-22T08:45:29.000Z</time>
  3690.       </trkpt>
  3691.       <trkpt lat="36.332973" lon="29.290098">
  3692.         <ele>26.877824</ele>
  3693.         <time>2019-09-22T08:45:35.000Z</time>
  3694.       </trkpt>
  3695.       <trkpt lat="36.333004" lon="29.290205">
  3696.         <ele>26.924707</ele>
  3697.         <time>2019-09-22T08:45:43.000Z</time>
  3698.       </trkpt>
  3699.       <trkpt lat="36.333054" lon="29.290302">
  3700.         <ele>26.972188</ele>
  3701.         <time>2019-09-22T08:45:53.000Z</time>
  3702.       </trkpt>
  3703.       <trkpt lat="36.333122" lon="29.290390">
  3704.         <ele>27.022465</ele>
  3705.         <time>2019-09-22T08:45:59.000Z</time>
  3706.       </trkpt>
  3707.       <trkpt lat="36.333180" lon="29.290483">
  3708.         <ele>27.070957</ele>
  3709.         <time>2019-09-22T08:46:05.000Z</time>
  3710.       </trkpt>
  3711.       <trkpt lat="36.333244" lon="29.290565">
  3712.         <ele>27.118032</ele>
  3713.         <time>2019-09-22T08:46:12.000Z</time>
  3714.       </trkpt>
  3715.       <trkpt lat="36.333286" lon="29.290684">
  3716.         <ele>27.171599</ele>
  3717.         <time>2019-09-22T08:46:22.000Z</time>
  3718.       </trkpt>
  3719.       <trkpt lat="36.333320" lon="29.290789">
  3720.         <ele>27.218258</ele>
  3721.         <time>2019-09-22T08:46:39.000Z</time>
  3722.       </trkpt>
  3723.       <trkpt lat="36.333360" lon="29.290901">
  3724.         <ele>27.268772</ele>
  3725.         <time>2019-09-22T08:46:43.000Z</time>
  3726.       </trkpt>
  3727.       <trkpt lat="36.333405" lon="29.291010">
  3728.         <ele>27.319271</ele>
  3729.         <time>2019-09-22T08:46:48.000Z</time>
  3730.       </trkpt>
  3731.       <trkpt lat="36.333447" lon="29.291115">
  3732.         <ele>27.367607</ele>
  3733.         <time>2019-09-22T08:46:53.000Z</time>
  3734.       </trkpt>
  3735.       <trkpt lat="36.333496" lon="29.291224">
  3736.         <ele>27.419072</ele>
  3737.         <time>2019-09-22T08:47:02.000Z</time>
  3738.       </trkpt>
  3739.       <trkpt lat="36.333530" lon="29.291332">
  3740.         <ele>27.466881</ele>
  3741.         <time>2019-09-22T08:47:10.000Z</time>
  3742.       </trkpt>
  3743.       <trkpt lat="36.333540" lon="29.291456">
  3744.         <ele>27.518263</ele>
  3745.         <time>2019-09-22T08:47:18.000Z</time>
  3746.       </trkpt>
  3747.       <trkpt lat="36.333572" lon="29.291563">
  3748.         <ele>27.574829</ele>
  3749.         <time>2019-09-22T08:47:24.000Z</time>
  3750.       </trkpt>
  3751.       <trkpt lat="36.333576" lon="29.291683">
  3752.         <ele>27.655210</ele>
  3753.         <time>2019-09-22T08:47:31.000Z</time>
  3754.       </trkpt>
  3755.       <trkpt lat="36.333570" lon="29.291798">
  3756.         <ele>27.732337</ele>
  3757.         <time>2019-09-22T08:47:39.000Z</time>
  3758.       </trkpt>
  3759.       <trkpt lat="36.333588" lon="29.291920">
  3760.         <ele>27.815345</ele>
  3761.         <time>2019-09-22T08:47:48.000Z</time>
  3762.       </trkpt>
  3763.       <trkpt lat="36.333607" lon="29.292036">
  3764.         <ele>27.894568</ele>
  3765.         <time>2019-09-22T08:47:57.000Z</time>
  3766.       </trkpt>
  3767.       <trkpt lat="36.333607" lon="29.292147">
  3768.         <ele>27.968857</ele>
  3769.         <time>2019-09-22T08:48:03.000Z</time>
  3770.       </trkpt>
  3771.       <trkpt lat="36.333595" lon="29.292270">
  3772.         <ele>28.051778</ele>
  3773.         <time>2019-09-22T08:48:11.000Z</time>
  3774.       </trkpt>
  3775.       <trkpt lat="36.333588" lon="29.292389">
  3776.         <ele>28.131632</ele>
  3777.         <time>2019-09-22T08:48:21.000Z</time>
  3778.       </trkpt>
  3779.       <trkpt lat="36.333580" lon="29.292505">
  3780.         <ele>28.209551</ele>
  3781.         <time>2019-09-22T08:48:31.000Z</time>
  3782.       </trkpt>
  3783.       <trkpt lat="36.333580" lon="29.292631">
  3784.         <ele>28.293879</ele>
  3785.         <time>2019-09-22T08:48:40.000Z</time>
  3786.       </trkpt>
  3787.       <trkpt lat="36.333570" lon="29.292760">
  3788.         <ele>28.380613</ele>
  3789.         <time>2019-09-22T08:48:46.000Z</time>
  3790.       </trkpt>
  3791.       <trkpt lat="36.333570" lon="29.292873">
  3792.         <ele>28.456240</ele>
  3793.         <time>2019-09-22T08:48:52.000Z</time>
  3794.       </trkpt>
  3795.       <trkpt lat="36.333576" lon="29.292995">
  3796.         <ele>28.538042</ele>
  3797.         <time>2019-09-22T08:48:58.000Z</time>
  3798.       </trkpt>
  3799.       <trkpt lat="36.333572" lon="29.293112">
  3800.         <ele>28.616417</ele>
  3801.         <time>2019-09-22T08:49:05.000Z</time>
  3802.       </trkpt>
  3803.       <trkpt lat="36.333576" lon="29.293222">
  3804.         <ele>28.690111</ele>
  3805.         <time>2019-09-22T08:49:14.000Z</time>
  3806.       </trkpt>
  3807.       <trkpt lat="36.333656" lon="29.293291">
  3808.         <ele>28.771042</ele>
  3809.         <time>2019-09-22T08:49:25.000Z</time>
  3810.       </trkpt>
  3811.       <trkpt lat="36.333744" lon="29.293314">
  3812.         <ele>28.845754</ele>
  3813.         <time>2019-09-22T08:49:38.000Z</time>
  3814.       </trkpt>
  3815.       <trkpt lat="36.333840" lon="29.293337">
  3816.         <ele>28.926981</ele>
  3817.         <time>2019-09-22T08:49:44.000Z</time>
  3818.       </trkpt>
  3819.       <trkpt lat="36.333940" lon="29.293343">
  3820.         <ele>29.010157</ele>
  3821.         <time>2019-09-22T08:49:52.000Z</time>
  3822.       </trkpt>
  3823.       <trkpt lat="36.334034" lon="29.293350">
  3824.         <ele>28.980621</ele>
  3825.         <time>2019-09-22T08:50:00.000Z</time>
  3826.       </trkpt>
  3827.       <trkpt lat="36.334137" lon="29.293364">
  3828.         <ele>28.856039</ele>
  3829.         <time>2019-09-22T08:50:06.000Z</time>
  3830.       </trkpt>
  3831.       <trkpt lat="36.334250" lon="29.293379">
  3832.         <ele>28.719398</ele>
  3833.         <time>2019-09-22T08:50:11.000Z</time>
  3834.       </trkpt>
  3835.       <trkpt lat="36.334350" lon="29.293396">
  3836.         <ele>28.598041</ele>
  3837.         <time>2019-09-22T08:50:18.000Z</time>
  3838.       </trkpt>
  3839.       <trkpt lat="36.334440" lon="29.293413">
  3840.         <ele>28.488584</ele>
  3841.         <time>2019-09-22T08:50:26.000Z</time>
  3842.       </trkpt>
  3843.       <trkpt lat="36.334538" lon="29.293427">
  3844.         <ele>28.369975</ele>
  3845.         <time>2019-09-22T08:50:34.000Z</time>
  3846.       </trkpt>
  3847.       <trkpt lat="36.334630" lon="29.293453">
  3848.         <ele>28.256529</ele>
  3849.         <time>2019-09-22T08:50:43.000Z</time>
  3850.       </trkpt>
  3851.       <trkpt lat="36.334736" lon="29.293480">
  3852.         <ele>28.126424</ele>
  3853.         <time>2019-09-22T08:50:51.000Z</time>
  3854.       </trkpt>
  3855.       <trkpt lat="36.334830" lon="29.293499">
  3856.         <ele>28.011915</ele>
  3857.         <time>2019-09-22T08:50:59.000Z</time>
  3858.       </trkpt>
  3859.       <trkpt lat="36.334927" lon="29.293512">
  3860.         <ele>27.894609</ele>
  3861.         <time>2019-09-22T08:51:05.000Z</time>
  3862.       </trkpt>
  3863.       <trkpt lat="36.335020" lon="29.293531">
  3864.         <ele>27.781286</ele>
  3865.         <time>2019-09-22T08:51:12.000Z</time>
  3866.       </trkpt>
  3867.       <trkpt lat="36.335110" lon="29.293560">
  3868.         <ele>27.669488</ele>
  3869.         <time>2019-09-22T08:51:19.000Z</time>
  3870.       </trkpt>
  3871.       <trkpt lat="36.335213" lon="29.293573">
  3872.         <ele>27.545007</ele>
  3873.         <time>2019-09-22T08:51:27.000Z</time>
  3874.       </trkpt>
  3875.       <trkpt lat="36.335304" lon="29.293602">
  3876.         <ele>27.432045</ele>
  3877.         <time>2019-09-22T08:51:34.000Z</time>
  3878.       </trkpt>
  3879.       <trkpt lat="36.335407" lon="29.293629">
  3880.         <ele>27.305472</ele>
  3881.         <time>2019-09-22T08:51:45.000Z</time>
  3882.       </trkpt>
  3883.       <trkpt lat="36.335503" lon="29.293652">
  3884.         <ele>27.187916</ele>
  3885.         <time>2019-09-22T08:51:52.000Z</time>
  3886.       </trkpt>
  3887.       <trkpt lat="36.335600" lon="29.293667">
  3888.         <ele>27.070387</ele>
  3889.         <time>2019-09-22T08:52:00.000Z</time>
  3890.       </trkpt>
  3891.       <trkpt lat="36.335700" lon="29.293695">
  3892.         <ele>26.947131</ele>
  3893.         <time>2019-09-22T08:52:10.000Z</time>
  3894.       </trkpt>
  3895.       <trkpt lat="36.335793" lon="29.293732">
  3896.         <ele>26.948508</ele>
  3897.         <time>2019-09-22T08:52:19.000Z</time>
  3898.       </trkpt>
  3899.       <trkpt lat="36.335876" lon="29.293781">
  3900.         <ele>27.090255</ele>
  3901.         <time>2019-09-22T08:52:30.000Z</time>
  3902.       </trkpt>
  3903.       <trkpt lat="36.335950" lon="29.293850">
  3904.         <ele>27.232994</ele>
  3905.         <time>2019-09-22T08:52:38.000Z</time>
  3906.       </trkpt>
  3907.       <trkpt lat="36.336030" lon="29.293987">
  3908.         <ele>27.443217</ele>
  3909.         <time>2019-09-22T08:53:24.000Z</time>
  3910.       </trkpt>
  3911.       <trkpt lat="36.336014" lon="29.294125">
  3912.         <ele>27.616434</ele>
  3913.         <time>2019-09-22T08:53:32.000Z</time>
  3914.       </trkpt>
  3915.       <trkpt lat="36.336018" lon="29.294247">
  3916.         <ele>27.768132</ele>
  3917.         <time>2019-09-22T08:53:40.000Z</time>
  3918.       </trkpt>
  3919.       <trkpt lat="36.336075" lon="29.294348">
  3920.         <ele>27.921343</ele>
  3921.         <time>2019-09-22T08:53:47.000Z</time>
  3922.       </trkpt>
  3923.       <trkpt lat="36.336155" lon="29.294428">
  3924.         <ele>28.079779</ele>
  3925.         <time>2019-09-22T08:53:56.000Z</time>
  3926.       </trkpt>
  3927.       <trkpt lat="36.336240" lon="29.294490">
  3928.         <ele>28.231828</ele>
  3929.         <time>2019-09-22T08:54:04.000Z</time>
  3930.       </trkpt>
  3931.       <trkpt lat="36.336323" lon="29.294540">
  3932.         <ele>28.374114</ele>
  3933.         <time>2019-09-22T08:54:10.000Z</time>
  3934.       </trkpt>
  3935.       <trkpt lat="36.336414" lon="29.294567">
  3936.         <ele>28.518414</ele>
  3937.         <time>2019-09-22T08:54:16.000Z</time>
  3938.       </trkpt>
  3939.       <trkpt lat="36.336502" lon="29.294598">
  3940.         <ele>28.659494</ele>
  3941.         <time>2019-09-22T08:54:24.000Z</time>
  3942.       </trkpt>
  3943.       <trkpt lat="36.336600" lon="29.294626">
  3944.         <ele>28.814589</ele>
  3945.         <time>2019-09-22T08:54:34.000Z</time>
  3946.       </trkpt>
  3947.       <trkpt lat="36.336700" lon="29.294664">
  3948.         <ele>28.975881</ele>
  3949.         <time>2019-09-22T08:54:42.000Z</time>
  3950.       </trkpt>
  3951.       <trkpt lat="36.336790" lon="29.294699">
  3952.         <ele>29.121337</ele>
  3953.         <time>2019-09-22T08:54:51.000Z</time>
  3954.       </trkpt>
  3955.       <trkpt lat="36.336880" lon="29.294733">
  3956.         <ele>29.266428</ele>
  3957.         <time>2019-09-22T08:54:58.000Z</time>
  3958.       </trkpt>
  3959.       <trkpt lat="36.336970" lon="29.294756">
  3960.         <ele>29.408144</ele>
  3961.         <time>2019-09-22T08:55:07.000Z</time>
  3962.       </trkpt>
  3963.       <trkpt lat="36.337060" lon="29.294792">
  3964.         <ele>29.553977</ele>
  3965.         <time>2019-09-22T08:55:14.000Z</time>
  3966.       </trkpt>
  3967.       <trkpt lat="36.337160" lon="29.294819">
  3968.         <ele>29.666691</ele>
  3969.         <time>2019-09-22T08:55:22.000Z</time>
  3970.       </trkpt>
  3971.       <trkpt lat="36.337254" lon="29.294838">
  3972.         <ele>29.695327</ele>
  3973.         <time>2019-09-22T08:55:28.000Z</time>
  3974.       </trkpt>
  3975.       <trkpt lat="36.337337" lon="29.294890">
  3976.         <ele>29.723282</ele>
  3977.         <time>2019-09-22T08:55:49.000Z</time>
  3978.       </trkpt>
  3979.       <trkpt lat="36.337440" lon="29.294863">
  3980.         <ele>29.754935</ele>
  3981.         <time>2019-09-22T08:56:03.000Z</time>
  3982.       </trkpt>
  3983.       <trkpt lat="36.337452" lon="29.294977">
  3984.         <ele>29.782782</ele>
  3985.         <time>2019-09-22T09:01:16.000Z</time>
  3986.       </trkpt>
  3987.       <trkpt lat="36.337406" lon="29.295094">
  3988.         <ele>29.814317</ele>
  3989.         <time>2019-09-22T09:01:23.000Z</time>
  3990.       </trkpt>
  3991.       <trkpt lat="36.337368" lon="29.295197">
  3992.         <ele>29.841757</ele>
  3993.         <time>2019-09-22T09:01:31.000Z</time>
  3994.       </trkpt>
  3995.       <trkpt lat="36.337320" lon="29.295294">
  3996.         <ele>29.869330</ele>
  3997.         <time>2019-09-22T09:01:38.000Z</time>
  3998.       </trkpt>
  3999.       <trkpt lat="36.337260" lon="29.295525">
  4000.         <ele>29.928118</ele>
  4001.         <time>2019-09-22T09:04:05.000Z</time>
  4002.       </trkpt>
  4003.       <trkpt lat="36.337234" lon="29.295658">
  4004.         <ele>29.961267</ele>
  4005.         <time>2019-09-22T09:04:09.000Z</time>
  4006.       </trkpt>
  4007.       <trkpt lat="36.337210" lon="29.295773">
  4008.         <ele>29.990042</ele>
  4009.         <time>2019-09-22T09:04:16.000Z</time>
  4010.       </trkpt>
  4011.       <trkpt lat="36.337190" lon="29.295885">
  4012.         <ele>30.017828</ele>
  4013.         <time>2019-09-22T09:04:23.000Z</time>
  4014.       </trkpt>
  4015.       <trkpt lat="36.337154" lon="29.295994">
  4016.         <ele>30.046362</ele>
  4017.         <time>2019-09-22T09:04:30.000Z</time>
  4018.       </trkpt>
  4019.       <trkpt lat="36.337135" lon="29.296108">
  4020.         <ele>30.074559</ele>
  4021.         <time>2019-09-22T09:04:35.000Z</time>
  4022.       </trkpt>
  4023.       <trkpt lat="36.337120" lon="29.296240">
  4024.         <ele>30.106848</ele>
  4025.         <time>2019-09-22T09:04:43.000Z</time>
  4026.       </trkpt>
  4027.       <trkpt lat="36.337105" lon="29.296366">
  4028.         <ele>30.137699</ele>
  4029.         <time>2019-09-22T09:04:51.000Z</time>
  4030.       </trkpt>
  4031.       <trkpt lat="36.337067" lon="29.296480">
  4032.         <ele>30.167582</ele>
  4033.         <time>2019-09-22T09:05:02.000Z</time>
  4034.       </trkpt>
  4035.       <trkpt lat="36.337050" lon="29.296602">
  4036.         <ele>30.198412</ele>
  4037.         <time>2019-09-22T09:05:08.000Z</time>
  4038.       </trkpt>
  4039.       <trkpt lat="36.337050" lon="29.296719">
  4040.         <ele>30.250954</ele>
  4041.         <time>2019-09-22T09:05:15.000Z</time>
  4042.       </trkpt>
  4043.       <trkpt lat="36.337025" lon="29.296844">
  4044.         <ele>30.308794</ele>
  4045.         <time>2019-09-22T09:05:22.000Z</time>
  4046.       </trkpt>
  4047.       <trkpt lat="36.336987" lon="29.296957">
  4048.         <ele>30.363784</ele>
  4049.         <time>2019-09-22T09:05:30.000Z</time>
  4050.       </trkpt>
  4051.       <trkpt lat="36.336933" lon="29.297050">
  4052.         <ele>30.415267</ele>
  4053.         <time>2019-09-22T09:05:38.000Z</time>
  4054.       </trkpt>
  4055.       <trkpt lat="36.336872" lon="29.297142">
  4056.         <ele>30.468778</ele>
  4057.         <time>2019-09-22T09:05:45.000Z</time>
  4058.       </trkpt>
  4059.       <trkpt lat="36.336810" lon="29.297237">
  4060.         <ele>30.523686</ele>
  4061.         <time>2019-09-22T09:05:52.000Z</time>
  4062.       </trkpt>
  4063.       <trkpt lat="36.336754" lon="29.297325">
  4064.         <ele>30.574048</ele>
  4065.         <time>2019-09-22T09:05:59.000Z</time>
  4066.       </trkpt>
  4067.       <trkpt lat="36.336697" lon="29.297426">
  4068.         <ele>30.629429</ele>
  4069.         <time>2019-09-22T09:06:06.000Z</time>
  4070.       </trkpt>
  4071.       <trkpt lat="36.336628" lon="29.297508">
  4072.         <ele>30.682681</ele>
  4073.         <time>2019-09-22T09:06:13.000Z</time>
  4074.       </trkpt>
  4075.       <trkpt lat="36.336582" lon="29.297613">
  4076.         <ele>30.736357</ele>
  4077.         <time>2019-09-22T09:06:21.000Z</time>
  4078.       </trkpt>
  4079.       <trkpt lat="36.336536" lon="29.297712">
  4080.         <ele>30.787682</ele>
  4081.         <time>2019-09-22T09:06:27.000Z</time>
  4082.       </trkpt>
  4083.       <trkpt lat="36.336475" lon="29.297812">
  4084.         <ele>30.844013</ele>
  4085.         <time>2019-09-22T09:06:36.000Z</time>
  4086.       </trkpt>
  4087.       <trkpt lat="36.336433" lon="29.297928">
  4088.         <ele>30.901127</ele>
  4089.         <time>2019-09-22T09:06:44.000Z</time>
  4090.       </trkpt>
  4091.       <trkpt lat="36.336380" lon="29.298027">
  4092.         <ele>30.954509</ele>
  4093.         <time>2019-09-22T09:06:53.000Z</time>
  4094.       </trkpt>
  4095.       <trkpt lat="36.336315" lon="29.298145">
  4096.         <ele>31.018706</ele>
  4097.         <time>2019-09-22T09:07:02.000Z</time>
  4098.       </trkpt>
  4099.       <trkpt lat="36.336280" lon="29.298250">
  4100.         <ele>31.069738</ele>
  4101.         <time>2019-09-22T09:07:09.000Z</time>
  4102.       </trkpt>
  4103.       <trkpt lat="36.336235" lon="29.298350">
  4104.         <ele>31.121178</ele>
  4105.         <time>2019-09-22T09:07:23.000Z</time>
  4106.       </trkpt>
  4107.       <trkpt lat="36.336227" lon="29.298487">
  4108.         <ele>31.182864</ele>
  4109.         <time>2019-09-22T09:07:31.000Z</time>
  4110.       </trkpt>
  4111.       <trkpt lat="36.336205" lon="29.298601">
  4112.         <ele>31.167123</ele>
  4113.         <time>2019-09-22T09:07:35.000Z</time>
  4114.       </trkpt>
  4115.       <trkpt lat="36.336190" lon="29.298721">
  4116.         <ele>31.118645</ele>
  4117.         <time>2019-09-22T09:07:42.000Z</time>
  4118.       </trkpt>
  4119.       <trkpt lat="36.336178" lon="29.298838">
  4120.         <ele>31.071561</ele>
  4121.         <time>2019-09-22T09:07:49.000Z</time>
  4122.       </trkpt>
  4123.       <trkpt lat="36.336166" lon="29.298962">
  4124.         <ele>31.021703</ele>
  4125.         <time>2019-09-22T09:07:56.000Z</time>
  4126.       </trkpt>
  4127.       <trkpt lat="36.336166" lon="29.299086">
  4128.         <ele>30.972201</ele>
  4129.         <time>2019-09-22T09:08:06.000Z</time>
  4130.       </trkpt>
  4131.       <trkpt lat="36.336166" lon="29.299210">
  4132.         <ele>30.922700</ele>
  4133.         <time>2019-09-22T09:08:17.000Z</time>
  4134.       </trkpt>
  4135.       <trkpt lat="36.336185" lon="29.299330">
  4136.         <ele>30.873878</ele>
  4137.         <time>2019-09-22T09:08:24.000Z</time>
  4138.       </trkpt>
  4139.       <trkpt lat="36.336193" lon="29.299446">
  4140.         <ele>30.827401</ele>
  4141.         <time>2019-09-22T09:08:33.000Z</time>
  4142.       </trkpt>
  4143.       <trkpt lat="36.336216" lon="29.299564">
  4144.         <ele>30.778935</ele>
  4145.         <time>2019-09-22T09:08:41.000Z</time>
  4146.       </trkpt>
  4147.       <trkpt lat="36.336230" lon="29.299698">
  4148.         <ele>30.724993</ele>
  4149.         <time>2019-09-22T09:08:48.000Z</time>
  4150.       </trkpt>
  4151.       <trkpt lat="36.336235" lon="29.299826">
  4152.         <ele>30.673835</ele>
  4153.         <time>2019-09-22T09:08:54.000Z</time>
  4154.       </trkpt>
  4155.       <trkpt lat="36.336230" lon="29.299946">
  4156.         <ele>30.625866</ele>
  4157.         <time>2019-09-22T09:09:02.000Z</time>
  4158.       </trkpt>
  4159.       <trkpt lat="36.336235" lon="29.300068">
  4160.         <ele>30.577099</ele>
  4161.         <time>2019-09-22T09:09:11.000Z</time>
  4162.       </trkpt>
  4163.       <trkpt lat="36.336230" lon="29.300198">
  4164.         <ele>30.525143</ele>
  4165.         <time>2019-09-22T09:09:20.000Z</time>
  4166.       </trkpt>
  4167.       <trkpt lat="36.336216" lon="29.300314">
  4168.         <ele>30.478319</ele>
  4169.         <time>2019-09-22T09:09:26.000Z</time>
  4170.       </trkpt>
  4171.       <trkpt lat="36.336200" lon="29.300426">
  4172.         <ele>30.432910</ele>
  4173.         <time>2019-09-22T09:09:34.000Z</time>
  4174.       </trkpt>
  4175.       <trkpt lat="36.336185" lon="29.300537">
  4176.         <ele>30.387979</ele>
  4177.         <time>2019-09-22T09:09:41.000Z</time>
  4178.       </trkpt>
  4179.       <trkpt lat="36.336185" lon="29.300657">
  4180.         <ele>30.340074</ele>
  4181.         <time>2019-09-22T09:09:49.000Z</time>
  4182.       </trkpt>
  4183.       <trkpt lat="36.336205" lon="29.300768">
  4184.         <ele>30.348108</ele>
  4185.         <time>2019-09-22T09:09:56.000Z</time>
  4186.       </trkpt>
  4187.       <trkpt lat="36.336227" lon="29.300882">
  4188.         <ele>30.489518</ele>
  4189.         <time>2019-09-22T09:10:03.000Z</time>
  4190.       </trkpt>
  4191.       <trkpt lat="36.336260" lon="29.300991">
  4192.         <ele>30.629985</ele>
  4193.         <time>2019-09-22T09:10:11.000Z</time>
  4194.       </trkpt>
  4195.       <trkpt lat="36.336308" lon="29.301115">
  4196.         <ele>30.795941</ele>
  4197.         <time>2019-09-22T09:10:20.000Z</time>
  4198.       </trkpt>
  4199.       <trkpt lat=